<?xml version="1.0" encoding="UTF-8" standalone="no" ?>
<gpx xmlns="http://www.topografix.com/GPX/1/1" xmlns:xsi="http://www.w3.org/2001/XMLSchema-instance" xsi:schemaLocation="http://www.topografix.com/GPX/1/1 http://www.topografix.com/GPX/1/1/gpx.xsd" version="1.1" creator="VisuGPX - https://www.visugpx.com">
  <metadata>
    <name>MAXI FREP  J1/1/45/810</name>
  </metadata>
  <trk>
    <name><![CDATA[MAXI FREP ETAPE 1/1]]></name>
    <extensions>
      <line xmlns="http://www.topografix.com/GPX/gpx_style/0/2">
        <color>0000FF</color>
        <width>4</width>
      </line>
    </extensions>
    <trkseg>
      <trkpt lat="44.47673" lon="1.54287">
        <ele>235.47311401367</ele>
        <time>2021-03-03T15:59:39.000Z</time>
      </trkpt>
      <trkpt lat="44.47676" lon="1.5429">
        <ele>235.25923156738</ele>
        <time>2021-03-03T15:59:39.001Z</time>
      </trkpt>
      <trkpt lat="44.47683" lon="1.54286">
        <ele>235.13433837891</ele>
        <time>2021-03-03T15:59:39.004Z</time>
      </trkpt>
      <trkpt lat="44.47688" lon="1.54281">
        <ele>235.1325378418</ele>
        <time>2021-03-03T15:59:39.009Z</time>
      </trkpt>
      <trkpt lat="44.47698" lon="1.54277">
        <ele>234.85179138184</ele>
        <time>2021-03-03T15:59:39.017Z</time>
      </trkpt>
      <trkpt lat="44.4771" lon="1.54278">
        <ele>233.91300964355</ele>
        <time>2021-03-03T15:59:39.028Z</time>
      </trkpt>
      <trkpt lat="44.47729" lon="1.54318">
        <ele>231.45922851562</ele>
        <time>2021-03-03T15:59:39.048Z</time>
      </trkpt>
      <trkpt lat="44.47734" lon="1.54323">
        <ele>231.12377929688</ele>
        <time>2021-03-03T15:59:39.070Z</time>
      </trkpt>
      <trkpt lat="44.47736" lon="1.54323">
        <ele>230.94398498535</ele>
        <time>2021-03-03T15:59:39.093Z</time>
      </trkpt>
      <trkpt lat="44.4774" lon="1.54319">
        <ele>230.6531829834</ele>
        <time>2021-03-03T15:59:39.117Z</time>
      </trkpt>
      <trkpt lat="44.47742" lon="1.54309">
        <ele>230.55242919922</ele>
        <time>2021-03-03T15:59:39.143Z</time>
      </trkpt>
      <trkpt lat="44.47748" lon="1.54301">
        <ele>230.33387756348</ele>
        <time>2021-03-03T15:59:39.171Z</time>
      </trkpt>
      <trkpt lat="44.47753" lon="1.543">
        <ele>230.12644958496</ele>
        <time>2021-03-03T15:59:39.201Z</time>
      </trkpt>
      <trkpt lat="44.4777" lon="1.54288">
        <ele>229.49566650391</ele>
        <time>2021-03-03T15:59:39.236Z</time>
      </trkpt>
      <trkpt lat="44.47803" lon="1.54262">
        <ele>230.19374084473</ele>
        <time>2021-03-03T15:59:39.281Z</time>
      </trkpt>
      <trkpt lat="44.47814" lon="1.54238">
        <ele>232.74739074707</ele>
        <time>2021-03-03T15:59:39.332Z</time>
      </trkpt>
      <trkpt lat="44.47819" lon="1.54228">
        <ele>233.99235534668</ele>
        <time>2021-03-03T15:59:39.385Z</time>
      </trkpt>
      <trkpt lat="44.47825" lon="1.54223">
        <ele>234.75022888184</ele>
        <time>2021-03-03T15:59:39.440Z</time>
      </trkpt>
      <trkpt lat="44.47833" lon="1.5422">
        <ele>235.24298095703</ele>
        <time>2021-03-03T15:59:39.498Z</time>
      </trkpt>
      <trkpt lat="44.47858" lon="1.54242">
        <ele>233.00695800781</ele>
        <time>2021-03-03T15:59:39.564Z</time>
      </trkpt>
      <trkpt lat="44.47867" lon="1.54234">
        <ele>234.34913635254</ele>
        <time>2021-03-03T15:59:39.633Z</time>
      </trkpt>
      <trkpt lat="44.47871" lon="1.54219">
        <ele>235.86209106445</ele>
        <time>2021-03-03T15:59:39.705Z</time>
      </trkpt>
      <trkpt lat="44.47873" lon="1.54178">
        <ele>240.50605773926</ele>
        <time>2021-03-03T15:59:39.785Z</time>
      </trkpt>
      <trkpt lat="44.47871" lon="1.54153">
        <ele>243.81411743164</ele>
        <time>2021-03-03T15:59:39.870Z</time>
      </trkpt>
      <trkpt lat="44.47872" lon="1.5414">
        <ele>245.83769226074</ele>
        <time>2021-03-03T15:59:39.958Z</time>
      </trkpt>
      <trkpt lat="44.47876" lon="1.54139">
        <ele>246.28112792969</ele>
        <time>2021-03-03T15:59:40.047Z</time>
      </trkpt>
      <trkpt lat="44.47898" lon="1.54141">
        <ele>247.20162963867</ele>
        <time>2021-03-03T15:59:40.142Z</time>
      </trkpt>
      <trkpt lat="44.47936" lon="1.5415">
        <ele>247.28259277344</ele>
        <time>2021-03-03T15:59:40.247Z</time>
      </trkpt>
      <trkpt lat="44.47966" lon="1.54153">
        <ele>248.18954467773</ele>
        <time>2021-03-03T15:59:40.361Z</time>
      </trkpt>
      <trkpt lat="44.47971" lon="1.54151">
        <ele>248.75245666504</ele>
        <time>2021-03-03T15:59:40.476Z</time>
      </trkpt>
      <trkpt lat="44.47989" lon="1.54078">
        <ele>258.95623779297</ele>
        <time>2021-03-03T15:59:40.607Z</time>
      </trkpt>
      <trkpt lat="44.47991" lon="1.54042">
        <ele>262.74606323242</ele>
        <time>2021-03-03T15:59:40.745Z</time>
      </trkpt>
      <trkpt lat="44.47998" lon="1.54008">
        <ele>264.68963623047</ele>
        <time>2021-03-03T15:59:40.890Z</time>
      </trkpt>
      <trkpt lat="44.47993" lon="1.5398">
        <ele>265</ele>
        <time>2021-03-03T15:59:41.040Z</time>
      </trkpt>
      <trkpt lat="44.47997" lon="1.53978">
        <ele>265</ele>
        <time>2021-03-03T15:59:41.191Z</time>
      </trkpt>
      <trkpt lat="44.48028" lon="1.53983">
        <ele>265.02020263672</ele>
        <time>2021-03-03T15:59:41.351Z</time>
      </trkpt>
      <trkpt lat="44.4807" lon="1.53991">
        <ele>266.54330444336</ele>
        <time>2021-03-03T15:59:41.523Z</time>
      </trkpt>
      <trkpt lat="44.48086" lon="1.53996">
        <ele>267</ele>
        <time>2021-03-03T15:59:41.699Z</time>
      </trkpt>
      <trkpt lat="44.4809" lon="1.53995">
        <ele>267</ele>
        <time>2021-03-03T15:59:41.876Z</time>
      </trkpt>
      <trkpt lat="44.48094" lon="1.53989">
        <ele>267</ele>
        <time>2021-03-03T15:59:42.055Z</time>
      </trkpt>
      <trkpt lat="44.48097" lon="1.53975">
        <ele>266.5537109375</ele>
        <time>2021-03-03T15:59:42.237Z</time>
      </trkpt>
      <trkpt lat="44.48099" lon="1.53968">
        <ele>266.22763061523</ele>
        <time>2021-03-03T15:59:42.420Z</time>
      </trkpt>
      <trkpt lat="44.48098" lon="1.5395">
        <ele>265.61706542969</ele>
        <time>2021-03-03T15:59:42.607Z</time>
      </trkpt>
      <trkpt lat="44.481" lon="1.53946">
        <ele>265.38235473633</ele>
        <time>2021-03-03T15:59:42.795Z</time>
      </trkpt>
      <trkpt lat="44.48117" lon="1.53924">
        <ele>263.98986816406</ele>
        <time>2021-03-03T15:59:42.989Z</time>
      </trkpt>
      <trkpt lat="44.48129" lon="1.539">
        <ele>262.39688110352</ele>
        <time>2021-03-03T15:59:43.189Z</time>
      </trkpt>
      <trkpt lat="44.48137" lon="1.53889">
        <ele>261.04180908203</ele>
        <time>2021-03-03T15:59:43.392Z</time>
      </trkpt>
      <trkpt lat="44.48189" lon="1.53826">
        <ele>256.68096923828</ele>
        <time>2021-03-03T15:59:43.614Z</time>
      </trkpt>
      <trkpt lat="44.482" lon="1.53806">
        <ele>256.42294311523</ele>
        <time>2021-03-03T15:59:43.841Z</time>
      </trkpt>
      <trkpt lat="44.4822" lon="1.53761">
        <ele>256.16213989258</ele>
        <time>2021-03-03T15:59:44.079Z</time>
      </trkpt>
      <trkpt lat="44.48222" lon="1.53743">
        <ele>255.72430419922</ele>
        <time>2021-03-03T15:59:44.320Z</time>
      </trkpt>
      <trkpt lat="44.48221" lon="1.53709">
        <ele>254.43257141113</ele>
        <time>2021-03-03T15:59:44.568Z</time>
      </trkpt>
      <trkpt lat="44.48205" lon="1.53612">
        <ele>253.78273010254</ele>
        <time>2021-03-03T15:59:44.836Z</time>
      </trkpt>
      <trkpt lat="44.48201" lon="1.53564">
        <ele>253.51847839355</ele>
        <time>2021-03-03T15:59:45.113Z</time>
      </trkpt>
      <trkpt lat="44.48204" lon="1.5353">
        <ele>254.35064697266</ele>
        <time>2021-03-03T15:59:45.397Z</time>
      </trkpt>
      <trkpt lat="44.48211" lon="1.53499">
        <ele>253.83087158203</ele>
        <time>2021-03-03T15:59:45.687Z</time>
      </trkpt>
      <trkpt lat="44.48221" lon="1.53466">
        <ele>253.44512939453</ele>
        <time>2021-03-03T15:59:45.985Z</time>
      </trkpt>
      <trkpt lat="44.4823" lon="1.53445">
        <ele>252.59185791016</ele>
        <time>2021-03-03T15:59:46.287Z</time>
      </trkpt>
      <trkpt lat="44.48249" lon="1.53407">
        <ele>250.52998352051</ele>
        <time>2021-03-03T15:59:46.598Z</time>
      </trkpt>
      <trkpt lat="44.48259" lon="1.53393">
        <ele>250.79922485352</ele>
        <time>2021-03-03T15:59:46.913Z</time>
      </trkpt>
      <trkpt lat="44.48293" lon="1.53326">
        <ele>248.71998596191</ele>
        <time>2021-03-03T15:59:47.245Z</time>
      </trkpt>
      <trkpt lat="44.48304" lon="1.53293">
        <ele>249.3863067627</ele>
        <time>2021-03-03T15:59:47.584Z</time>
      </trkpt>
      <trkpt lat="44.48317" lon="1.53267">
        <ele>252.08125305176</ele>
        <time>2021-03-03T15:59:47.929Z</time>
      </trkpt>
      <trkpt lat="44.48344" lon="1.53228">
        <ele>257.16534423828</ele>
        <time>2021-03-03T15:59:48.285Z</time>
      </trkpt>
      <trkpt lat="44.48361" lon="1.53184">
        <ele>257.25674438477</ele>
        <time>2021-03-03T15:59:48.651Z</time>
      </trkpt>
      <trkpt lat="44.48388" lon="1.53137">
        <ele>254.71008300781</ele>
        <time>2021-03-03T15:59:49.028Z</time>
      </trkpt>
      <trkpt lat="44.48419" lon="1.53099">
        <ele>254.9361114502</ele>
        <time>2021-03-03T15:59:49.417Z</time>
      </trkpt>
      <trkpt lat="44.4843" lon="1.53092">
        <ele>256.27972412109</ele>
        <time>2021-03-03T15:59:49.809Z</time>
      </trkpt>
      <trkpt lat="44.48452" lon="1.53081">
        <ele>259.18844604492</ele>
        <time>2021-03-03T15:59:50.208Z</time>
      </trkpt>
      <trkpt lat="44.48481" lon="1.53055">
        <ele>262.94659423828</ele>
        <time>2021-03-03T15:59:50.616Z</time>
      </trkpt>
      <trkpt lat="44.48532" lon="1.52996">
        <ele>264.80337524414</ele>
        <time>2021-03-03T15:59:51.042Z</time>
      </trkpt>
      <trkpt lat="44.48538" lon="1.52988">
        <ele>264.45407104492</ele>
        <time>2021-03-03T15:59:51.471Z</time>
      </trkpt>
      <trkpt lat="44.48579" lon="1.52919">
        <ele>263.49914550781</ele>
        <time>2021-03-03T15:59:51.917Z</time>
      </trkpt>
      <trkpt lat="44.48602" lon="1.52872">
        <ele>267.64501953125</ele>
        <time>2021-03-03T15:59:52.375Z</time>
      </trkpt>
      <trkpt lat="44.48606" lon="1.52872">
        <ele>268.5246887207</ele>
        <time>2021-03-03T15:59:52.834Z</time>
      </trkpt>
      <trkpt lat="44.48609" lon="1.52899">
        <ele>268.97467041016</ele>
        <time>2021-03-03T15:59:53.298Z</time>
      </trkpt>
      <trkpt lat="44.48614" lon="1.52914">
        <ele>270.77236938477</ele>
        <time>2021-03-03T15:59:53.765Z</time>
      </trkpt>
      <trkpt lat="44.48626" lon="1.52969">
        <ele>276.57412719727</ele>
        <time>2021-03-03T15:59:54.244Z</time>
      </trkpt>
      <trkpt lat="44.48631" lon="1.52977">
        <ele>277.97354125977</ele>
        <time>2021-03-03T15:59:54.725Z</time>
      </trkpt>
      <trkpt lat="44.48653" lon="1.53034">
        <ele>281.51168823242</ele>
        <time>2021-03-03T15:59:55.219Z</time>
      </trkpt>
      <trkpt lat="44.48667" lon="1.5306">
        <ele>282.81442260742</ele>
        <time>2021-03-03T15:59:55.719Z</time>
      </trkpt>
      <trkpt lat="44.487" lon="1.53106">
        <ele>283.32135009766</ele>
        <time>2021-03-03T15:59:56.232Z</time>
      </trkpt>
      <trkpt lat="44.48738" lon="1.53147">
        <ele>285.29379272461</ele>
        <time>2021-03-03T15:59:56.758Z</time>
      </trkpt>
      <trkpt lat="44.48747" lon="1.53161">
        <ele>285.20510864258</ele>
        <time>2021-03-03T15:59:57.288Z</time>
      </trkpt>
      <trkpt lat="44.4875" lon="1.53195">
        <ele>284.03625488281</ele>
        <time>2021-03-03T15:59:57.825Z</time>
      </trkpt>
      <trkpt lat="44.48748" lon="1.53213">
        <ele>283.23309326172</ele>
        <time>2021-03-03T15:59:58.365Z</time>
      </trkpt>
      <trkpt lat="44.48742" lon="1.53248">
        <ele>281.8825378418</ele>
        <time>2021-03-03T15:59:58.912Z</time>
      </trkpt>
      <trkpt lat="44.48743" lon="1.53287">
        <ele>280.74899291992</ele>
        <time>2021-03-03T15:59:59.467Z</time>
      </trkpt>
      <trkpt lat="44.48753" lon="1.53312">
        <ele>282.20129394531</ele>
        <time>2021-03-03T16:00:00.028Z</time>
      </trkpt>
      <trkpt lat="44.48771" lon="1.53345">
        <ele>282.59930419922</ele>
        <time>2021-03-03T16:00:00.597Z</time>
      </trkpt>
      <trkpt lat="44.48778" lon="1.5334">
        <ele>282.78652954102</ele>
        <time>2021-03-03T16:00:01.168Z</time>
      </trkpt>
      <trkpt lat="44.48798" lon="1.53312">
        <ele>284.34664916992</ele>
        <time>2021-03-03T16:00:01.747Z</time>
      </trkpt>
      <trkpt lat="44.48813" lon="1.53296">
        <ele>285.72988891602</ele>
        <time>2021-03-03T16:00:02.331Z</time>
      </trkpt>
      <trkpt lat="44.48839" lon="1.53273">
        <ele>287.1921081543</ele>
        <time>2021-03-03T16:00:02.924Z</time>
      </trkpt>
      <trkpt lat="44.48883" lon="1.53226">
        <ele>293.25234985352</ele>
        <time>2021-03-03T16:00:03.532Z</time>
      </trkpt>
      <trkpt lat="44.4889" lon="1.53216">
        <ele>294.51794433594</ele>
        <time>2021-03-03T16:00:04.143Z</time>
      </trkpt>
      <trkpt lat="44.4891" lon="1.53166">
        <ele>299.85614013672</ele>
        <time>2021-03-03T16:00:04.765Z</time>
      </trkpt>
      <trkpt lat="44.48925" lon="1.53136">
        <ele>303.71685791016</ele>
        <time>2021-03-03T16:00:05.394Z</time>
      </trkpt>
      <trkpt lat="44.48928" lon="1.53125">
        <ele>305.02697753906</ele>
        <time>2021-03-03T16:00:06.026Z</time>
      </trkpt>
      <trkpt lat="44.4893" lon="1.53097">
        <ele>306.55752563477</ele>
        <time>2021-03-03T16:00:06.663Z</time>
      </trkpt>
      <trkpt lat="44.48935" lon="1.53085">
        <ele>306.96325683594</ele>
        <time>2021-03-03T16:00:07.303Z</time>
      </trkpt>
      <trkpt lat="44.4895" lon="1.53058">
        <ele>308.64300537109</ele>
        <time>2021-03-03T16:00:07.950Z</time>
      </trkpt>
      <trkpt lat="44.48981" lon="1.53014">
        <ele>310.72915649414</ele>
        <time>2021-03-03T16:00:08.609Z</time>
      </trkpt>
      <trkpt lat="44.48997" lon="1.52985">
        <ele>312.65258789062</ele>
        <time>2021-03-03T16:00:09.275Z</time>
      </trkpt>
      <trkpt lat="44.4905" lon="1.529">
        <ele>318.47180175781</ele>
        <time>2021-03-03T16:00:09.963Z</time>
      </trkpt>
      <trkpt lat="44.49069" lon="1.52877">
        <ele>318.52221679688</ele>
        <time>2021-03-03T16:00:10.658Z</time>
      </trkpt>
      <trkpt lat="44.49078" lon="1.52861">
        <ele>319.22003173828</ele>
        <time>2021-03-03T16:00:11.357Z</time>
      </trkpt>
      <trkpt lat="44.4909" lon="1.52846">
        <ele>319.92825317383</ele>
        <time>2021-03-03T16:00:12.061Z</time>
      </trkpt>
      <trkpt lat="44.49111" lon="1.52775">
        <ele>324.15255737305</ele>
        <time>2021-03-03T16:00:12.780Z</time>
      </trkpt>
      <trkpt lat="44.49126" lon="1.52741">
        <ele>324.86889648438</ele>
        <time>2021-03-03T16:00:13.507Z</time>
      </trkpt>
      <trkpt lat="44.49144" lon="1.52711">
        <ele>325.56890869141</ele>
        <time>2021-03-03T16:00:14.241Z</time>
      </trkpt>
      <trkpt lat="44.49156" lon="1.52695">
        <ele>325.00360107422</ele>
        <time>2021-03-03T16:00:14.980Z</time>
      </trkpt>
      <trkpt lat="44.49209" lon="1.52643">
        <ele>321.86492919922</ele>
        <time>2021-03-03T16:00:15.737Z</time>
      </trkpt>
      <trkpt lat="44.49227" lon="1.52622">
        <ele>323.2490234375</ele>
        <time>2021-03-03T16:00:16.500Z</time>
      </trkpt>
      <trkpt lat="44.49238" lon="1.52603">
        <ele>323.10919189453</ele>
        <time>2021-03-03T16:00:17.268Z</time>
      </trkpt>
      <trkpt lat="44.49246" lon="1.52581">
        <ele>324.75308227539</ele>
        <time>2021-03-03T16:00:18.041Z</time>
      </trkpt>
      <trkpt lat="44.49257" lon="1.52559">
        <ele>326.13186645508</ele>
        <time>2021-03-03T16:00:18.819Z</time>
      </trkpt>
      <trkpt lat="44.49274" lon="1.5254">
        <ele>326.87414550781</ele>
        <time>2021-03-03T16:00:19.603Z</time>
      </trkpt>
      <trkpt lat="44.493" lon="1.52518">
        <ele>327</ele>
        <time>2021-03-03T16:00:20.396Z</time>
      </trkpt>
      <trkpt lat="44.49322" lon="1.52497">
        <ele>326.28042602539</ele>
        <time>2021-03-03T16:00:21.196Z</time>
      </trkpt>
      <trkpt lat="44.49352" lon="1.52482">
        <ele>323.64044189453</ele>
        <time>2021-03-03T16:00:22.005Z</time>
      </trkpt>
      <trkpt lat="44.49357" lon="1.52478">
        <ele>322.79791259766</ele>
        <time>2021-03-03T16:00:22.815Z</time>
      </trkpt>
      <trkpt lat="44.49366" lon="1.52467">
        <ele>320.43069458008</ele>
        <time>2021-03-03T16:00:23.629Z</time>
      </trkpt>
      <trkpt lat="44.49375" lon="1.52451">
        <ele>318.07336425781</ele>
        <time>2021-03-03T16:00:24.447Z</time>
      </trkpt>
      <trkpt lat="44.49382" lon="1.52424">
        <ele>315.97015380859</ele>
        <time>2021-03-03T16:00:25.271Z</time>
      </trkpt>
      <trkpt lat="44.49388" lon="1.52377">
        <ele>314.59994506836</ele>
        <time>2021-03-03T16:00:26.104Z</time>
      </trkpt>
      <trkpt lat="44.49388" lon="1.52352">
        <ele>315.03259277344</ele>
        <time>2021-03-03T16:00:26.942Z</time>
      </trkpt>
      <trkpt lat="44.49386" lon="1.5234">
        <ele>315.08929443359</ele>
        <time>2021-03-03T16:00:27.782Z</time>
      </trkpt>
      <trkpt lat="44.49369" lon="1.52252">
        <ele>309.11999511719</ele>
        <time>2021-03-03T16:00:28.640Z</time>
      </trkpt>
      <trkpt lat="44.4936" lon="1.5222">
        <ele>305.58834838867</ele>
        <time>2021-03-03T16:00:29.505Z</time>
      </trkpt>
      <trkpt lat="44.49339" lon="1.52158">
        <ele>297.82962036133</ele>
        <time>2021-03-03T16:00:30.384Z</time>
      </trkpt>
      <trkpt lat="44.49317" lon="1.52082">
        <ele>292.06948852539</ele>
        <time>2021-03-03T16:00:31.279Z</time>
      </trkpt>
      <trkpt lat="44.49316" lon="1.52076">
        <ele>291.65682983398</ele>
        <time>2021-03-03T16:00:32.175Z</time>
      </trkpt>
      <trkpt lat="44.49318" lon="1.52067">
        <ele>290.81146240234</ele>
        <time>2021-03-03T16:00:33.073Z</time>
      </trkpt>
      <trkpt lat="44.4933" lon="1.52063">
        <ele>289.1155090332</ele>
        <time>2021-03-03T16:00:33.974Z</time>
      </trkpt>
      <trkpt lat="44.49349" lon="1.52069">
        <ele>287.50238037109</ele>
        <time>2021-03-03T16:00:34.881Z</time>
      </trkpt>
      <trkpt lat="44.49357" lon="1.52066">
        <ele>286.05319213867</ele>
        <time>2021-03-03T16:00:35.790Z</time>
      </trkpt>
      <trkpt lat="44.4937" lon="1.5207">
        <ele>284.98950195312</ele>
        <time>2021-03-03T16:00:36.702Z</time>
      </trkpt>
      <trkpt lat="44.49418" lon="1.52072">
        <ele>280.62606811523</ele>
        <time>2021-03-03T16:00:37.628Z</time>
      </trkpt>
      <trkpt lat="44.49453" lon="1.52068">
        <ele>277.62210083008</ele>
        <time>2021-03-03T16:00:38.563Z</time>
      </trkpt>
      <trkpt lat="44.49486" lon="1.52068">
        <ele>274.76043701172</ele>
        <time>2021-03-03T16:00:39.508Z</time>
      </trkpt>
      <trkpt lat="44.49499" lon="1.5207">
        <ele>273.62829589844</ele>
        <time>2021-03-03T16:00:40.456Z</time>
      </trkpt>
      <trkpt lat="44.4951" lon="1.52069">
        <ele>273.03506469727</ele>
        <time>2021-03-03T16:00:41.407Z</time>
      </trkpt>
      <trkpt lat="44.49519" lon="1.52073">
        <ele>273.23287963867</ele>
        <time>2021-03-03T16:00:42.361Z</time>
      </trkpt>
      <trkpt lat="44.49527" lon="1.52081">
        <ele>273.78372192383</ele>
        <time>2021-03-03T16:00:43.318Z</time>
      </trkpt>
      <trkpt lat="44.49531" lon="1.52083">
        <ele>274.19781494141</ele>
        <time>2021-03-03T16:00:44.276Z</time>
      </trkpt>
      <trkpt lat="44.49536" lon="1.52083">
        <ele>274.50067138672</ele>
        <time>2021-03-03T16:00:45.235Z</time>
      </trkpt>
      <trkpt lat="44.49549" lon="1.52087">
        <ele>275.93072509766</ele>
        <time>2021-03-03T16:00:46.198Z</time>
      </trkpt>
      <trkpt lat="44.49563" lon="1.52095">
        <ele>277.66290283203</ele>
        <time>2021-03-03T16:00:47.165Z</time>
      </trkpt>
      <trkpt lat="44.49566" lon="1.52093">
        <ele>277.76455688477</ele>
        <time>2021-03-03T16:00:48.133Z</time>
      </trkpt>
      <trkpt lat="44.49572" lon="1.52086">
        <ele>277.40286254883</ele>
        <time>2021-03-03T16:00:49.103Z</time>
      </trkpt>
      <trkpt lat="44.49586" lon="1.52085">
        <ele>278.25640869141</ele>
        <time>2021-03-03T16:00:50.077Z</time>
      </trkpt>
      <trkpt lat="44.49594" lon="1.52082">
        <ele>278.61959838867</ele>
        <time>2021-03-03T16:00:51.053Z</time>
      </trkpt>
      <trkpt lat="44.49598" lon="1.52084">
        <ele>279.02020263672</ele>
        <time>2021-03-03T16:00:52.030Z</time>
      </trkpt>
      <trkpt lat="44.4961" lon="1.52084">
        <ele>279.94451904297</ele>
        <time>2021-03-03T16:00:53.011Z</time>
      </trkpt>
      <trkpt lat="44.4963" lon="1.52072">
        <ele>281.56353759766</ele>
        <time>2021-03-03T16:00:53.998Z</time>
      </trkpt>
      <trkpt lat="44.49643" lon="1.52075">
        <ele>282.66772460938</ele>
        <time>2021-03-03T16:00:54.988Z</time>
      </trkpt>
      <trkpt lat="44.49666" lon="1.52055">
        <ele>282.91827392578</ele>
        <time>2021-03-03T16:00:55.986Z</time>
      </trkpt>
      <trkpt lat="44.49692" lon="1.5205">
        <ele>281.2248840332</ele>
        <time>2021-03-03T16:00:56.991Z</time>
      </trkpt>
      <trkpt lat="44.49706" lon="1.52041">
        <ele>281.537109375</ele>
        <time>2021-03-03T16:00:58.000Z</time>
      </trkpt>
      <trkpt lat="44.49731" lon="1.5201">
        <ele>284.62985229492</ele>
        <time>2021-03-03T16:00:59.018Z</time>
      </trkpt>
      <trkpt lat="44.49735" lon="1.51989">
        <ele>285.87344360352</ele>
        <time>2021-03-03T16:01:00.041Z</time>
      </trkpt>
      <trkpt lat="44.49752" lon="1.51949">
        <ele>286.14367675781</ele>
        <time>2021-03-03T16:01:01.073Z</time>
      </trkpt>
      <trkpt lat="44.49764" lon="1.51937">
        <ele>285.4016418457</ele>
        <time>2021-03-03T16:01:02.109Z</time>
      </trkpt>
      <trkpt lat="44.49788" lon="1.51907">
        <ele>282.48281860352</ele>
        <time>2021-03-03T16:01:03.154Z</time>
      </trkpt>
      <trkpt lat="44.49798" lon="1.51886">
        <ele>281.16354370117</ele>
        <time>2021-03-03T16:01:04.204Z</time>
      </trkpt>
      <trkpt lat="44.49798" lon="1.51873">
        <ele>280.36901855469</ele>
        <time>2021-03-03T16:01:05.256Z</time>
      </trkpt>
      <trkpt lat="44.49803" lon="1.51856">
        <ele>278.49722290039</ele>
        <time>2021-03-03T16:01:06.312Z</time>
      </trkpt>
      <trkpt lat="44.49816" lon="1.51826">
        <ele>275.32489013672</ele>
        <time>2021-03-03T16:01:07.375Z</time>
      </trkpt>
      <trkpt lat="44.49826" lon="1.51799">
        <ele>273.03134155273</ele>
        <time>2021-03-03T16:01:08.444Z</time>
      </trkpt>
      <trkpt lat="44.49825" lon="1.51788">
        <ele>272.29104614258</ele>
        <time>2021-03-03T16:01:09.515Z</time>
      </trkpt>
      <trkpt lat="44.49821" lon="1.51779">
        <ele>271.97973632812</ele>
        <time>2021-03-03T16:01:10.588Z</time>
      </trkpt>
      <trkpt lat="44.49818" lon="1.51764">
        <ele>271.60177612305</ele>
        <time>2021-03-03T16:01:11.665Z</time>
      </trkpt>
      <trkpt lat="44.49818" lon="1.5174">
        <ele>269.06854248047</ele>
        <time>2021-03-03T16:01:12.746Z</time>
      </trkpt>
      <trkpt lat="44.49823" lon="1.51727">
        <ele>267.72686767578</ele>
        <time>2021-03-03T16:01:13.830Z</time>
      </trkpt>
      <trkpt lat="44.4983" lon="1.51716">
        <ele>265.59317016602</ele>
        <time>2021-03-03T16:01:14.917Z</time>
      </trkpt>
      <trkpt lat="44.49838" lon="1.51709">
        <ele>263.27279663086</ele>
        <time>2021-03-03T16:01:16.007Z</time>
      </trkpt>
      <trkpt lat="44.49842" lon="1.51708">
        <ele>262.42932128906</ele>
        <time>2021-03-03T16:01:17.098Z</time>
      </trkpt>
      <trkpt lat="44.49846" lon="1.51709">
        <ele>262.10113525391</ele>
        <time>2021-03-03T16:01:18.190Z</time>
      </trkpt>
      <trkpt lat="44.49871" lon="1.51721">
        <ele>261.24273681641</ele>
        <time>2021-03-03T16:01:19.289Z</time>
      </trkpt>
      <trkpt lat="44.49888" lon="1.51726">
        <ele>259.36645507812</ele>
        <time>2021-03-03T16:01:20.393Z</time>
      </trkpt>
      <trkpt lat="44.49897" lon="1.51737">
        <ele>259.39874267578</ele>
        <time>2021-03-03T16:01:21.500Z</time>
      </trkpt>
      <trkpt lat="44.49914" lon="1.51746">
        <ele>257.81698608398</ele>
        <time>2021-03-03T16:01:22.612Z</time>
      </trkpt>
      <trkpt lat="44.49976" lon="1.51766">
        <ele>255.4259185791</ele>
        <time>2021-03-03T16:01:23.742Z</time>
      </trkpt>
      <trkpt lat="44.49982" lon="1.51758">
        <ele>254.18260192871</ele>
        <time>2021-03-03T16:01:24.874Z</time>
      </trkpt>
      <trkpt lat="44.49986" lon="1.51742">
        <ele>252.28199768066</ele>
        <time>2021-03-03T16:01:26.010Z</time>
      </trkpt>
      <trkpt lat="44.50007" lon="1.51633">
        <ele>241.63453674316</ele>
        <time>2021-03-03T16:01:27.168Z</time>
      </trkpt>
      <trkpt lat="44.50031" lon="1.51531">
        <ele>234.1414642334</ele>
        <time>2021-03-03T16:01:28.347Z</time>
      </trkpt>
      <trkpt lat="44.50035" lon="1.515">
        <ele>230.15399169922</ele>
        <time>2021-03-03T16:01:29.532Z</time>
      </trkpt>
      <trkpt lat="44.50043" lon="1.51477">
        <ele>229.31814575195</ele>
        <time>2021-03-03T16:01:30.722Z</time>
      </trkpt>
      <trkpt lat="44.50057" lon="1.51456">
        <ele>231.12020874023</ele>
        <time>2021-03-03T16:01:31.918Z</time>
      </trkpt>
      <trkpt lat="44.50073" lon="1.5144">
        <ele>232.96827697754</ele>
        <time>2021-03-03T16:01:33.119Z</time>
      </trkpt>
      <trkpt lat="44.50095" lon="1.51423">
        <ele>236.53430175781</ele>
        <time>2021-03-03T16:01:34.327Z</time>
      </trkpt>
      <trkpt lat="44.50118" lon="1.51418">
        <ele>240.98873901367</ele>
        <time>2021-03-03T16:01:35.542Z</time>
      </trkpt>
      <trkpt lat="44.50128" lon="1.5142">
        <ele>242.6997833252</ele>
        <time>2021-03-03T16:01:36.760Z</time>
      </trkpt>
      <trkpt lat="44.50148" lon="1.51416">
        <ele>244.09924316406</ele>
        <time>2021-03-03T16:01:37.983Z</time>
      </trkpt>
      <trkpt lat="44.50182" lon="1.51412">
        <ele>242.83374023438</ele>
        <time>2021-03-03T16:01:39.216Z</time>
      </trkpt>
      <trkpt lat="44.50197" lon="1.51414">
        <ele>242.60913085938</ele>
        <time>2021-03-03T16:01:40.453Z</time>
      </trkpt>
      <trkpt lat="44.50205" lon="1.51424">
        <ele>243.73582458496</ele>
        <time>2021-03-03T16:01:41.693Z</time>
      </trkpt>
      <trkpt lat="44.50218" lon="1.51449">
        <ele>246.61888122559</ele>
        <time>2021-03-03T16:01:42.939Z</time>
      </trkpt>
      <trkpt lat="44.50235" lon="1.51471">
        <ele>249.26136779785</ele>
        <time>2021-03-03T16:01:44.191Z</time>
      </trkpt>
      <trkpt lat="44.50237" lon="1.5151">
        <ele>253.22938537598</ele>
        <time>2021-03-03T16:01:45.451Z</time>
      </trkpt>
      <trkpt lat="44.50237" lon="1.51547">
        <ele>255.92475891113</ele>
        <time>2021-03-03T16:01:46.718Z</time>
      </trkpt>
      <trkpt lat="44.50245" lon="1.51627">
        <ele>260.53680419922</ele>
        <time>2021-03-03T16:01:48.001Z</time>
      </trkpt>
      <trkpt lat="44.50246" lon="1.5165">
        <ele>261.93823242188</ele>
        <time>2021-03-03T16:01:49.289Z</time>
      </trkpt>
      <trkpt lat="44.50249" lon="1.51684">
        <ele>264.89263916016</ele>
        <time>2021-03-03T16:01:50.584Z</time>
      </trkpt>
      <trkpt lat="44.5025" lon="1.51723">
        <ele>266.99420166016</ele>
        <time>2021-03-03T16:01:51.886Z</time>
      </trkpt>
      <trkpt lat="44.50256" lon="1.51767">
        <ele>269.78454589844</ele>
        <time>2021-03-03T16:01:53.197Z</time>
      </trkpt>
      <trkpt lat="44.50261" lon="1.51785">
        <ele>270.61050415039</ele>
        <time>2021-03-03T16:01:54.512Z</time>
      </trkpt>
      <trkpt lat="44.50269" lon="1.51804">
        <ele>271.37191772461</ele>
        <time>2021-03-03T16:01:55.831Z</time>
      </trkpt>
      <trkpt lat="44.50282" lon="1.51842">
        <ele>274.1432800293</ele>
        <time>2021-03-03T16:01:57.158Z</time>
      </trkpt>
      <trkpt lat="44.50303" lon="1.51888">
        <ele>275.79550170898</ele>
        <time>2021-03-03T16:01:58.496Z</time>
      </trkpt>
      <trkpt lat="44.50327" lon="1.51965">
        <ele>276.55715942383</ele>
        <time>2021-03-03T16:01:59.851Z</time>
      </trkpt>
      <trkpt lat="44.50335" lon="1.52">
        <ele>277.91680908203</ele>
        <time>2021-03-03T16:02:01.213Z</time>
      </trkpt>
      <trkpt lat="44.50348" lon="1.52045">
        <ele>278</ele>
        <time>2021-03-03T16:02:02.585Z</time>
      </trkpt>
      <trkpt lat="44.50353" lon="1.52065">
        <ele>278</ele>
        <time>2021-03-03T16:02:03.961Z</time>
      </trkpt>
      <trkpt lat="44.50369" lon="1.52111">
        <ele>278</ele>
        <time>2021-03-03T16:02:05.347Z</time>
      </trkpt>
      <trkpt lat="44.50383" lon="1.52124">
        <ele>277.54791259766</ele>
        <time>2021-03-03T16:02:06.738Z</time>
      </trkpt>
      <trkpt lat="44.50421" lon="1.52147">
        <ele>274.42858886719</ele>
        <time>2021-03-03T16:02:08.140Z</time>
      </trkpt>
      <trkpt lat="44.50464" lon="1.52162">
        <ele>271.49740600586</ele>
        <time>2021-03-03T16:02:09.554Z</time>
      </trkpt>
      <trkpt lat="44.50514" lon="1.52185">
        <ele>268.89193725586</ele>
        <time>2021-03-03T16:02:10.983Z</time>
      </trkpt>
      <trkpt lat="44.50516" lon="1.52188">
        <ele>268.66778564453</ele>
        <time>2021-03-03T16:02:12.413Z</time>
      </trkpt>
      <trkpt lat="44.50521" lon="1.52208">
        <ele>268.2360534668</ele>
        <time>2021-03-03T16:02:13.847Z</time>
      </trkpt>
      <trkpt lat="44.50531" lon="1.52255">
        <ele>267.85070800781</ele>
        <time>2021-03-03T16:02:15.290Z</time>
      </trkpt>
      <trkpt lat="44.50538" lon="1.5228">
        <ele>267</ele>
        <time>2021-03-03T16:02:16.739Z</time>
      </trkpt>
      <trkpt lat="44.50573" lon="1.52347">
        <ele>266.85205078125</ele>
        <time>2021-03-03T16:02:18.204Z</time>
      </trkpt>
      <trkpt lat="44.50589" lon="1.52369">
        <ele>267</ele>
        <time>2021-03-03T16:02:19.675Z</time>
      </trkpt>
      <trkpt lat="44.50603" lon="1.52375">
        <ele>266.78387451172</ele>
        <time>2021-03-03T16:02:21.150Z</time>
      </trkpt>
      <trkpt lat="44.50604" lon="1.52374">
        <ele>266.72262573242</ele>
        <time>2021-03-03T16:02:22.626Z</time>
      </trkpt>
      <trkpt lat="44.5061" lon="1.52393">
        <ele>267.21914672852</ele>
        <time>2021-03-03T16:02:24.106Z</time>
      </trkpt>
      <trkpt lat="44.50612" lon="1.52409">
        <ele>268.37854003906</ele>
        <time>2021-03-03T16:02:25.589Z</time>
      </trkpt>
      <trkpt lat="44.50624" lon="1.52459">
        <ele>269.44094848633</ele>
        <time>2021-03-03T16:02:27.082Z</time>
      </trkpt>
      <trkpt lat="44.50658" lon="1.52565">
        <ele>276.05377197266</ele>
        <time>2021-03-03T16:02:28.598Z</time>
      </trkpt>
      <trkpt lat="44.50669" lon="1.52604">
        <ele>280.61715698242</ele>
        <time>2021-03-03T16:02:30.122Z</time>
      </trkpt>
      <trkpt lat="44.5068" lon="1.52629">
        <ele>283.54092407227</ele>
        <time>2021-03-03T16:02:31.652Z</time>
      </trkpt>
      <trkpt lat="44.50692" lon="1.52666">
        <ele>286.63418579102</ele>
        <time>2021-03-03T16:02:33.190Z</time>
      </trkpt>
      <trkpt lat="44.50702" lon="1.52726">
        <ele>290.83590698242</ele>
        <time>2021-03-03T16:02:34.741Z</time>
      </trkpt>
      <trkpt lat="44.50708" lon="1.52748">
        <ele>291.41479492188</ele>
        <time>2021-03-03T16:02:36.296Z</time>
      </trkpt>
      <trkpt lat="44.50708" lon="1.52777">
        <ele>292.95568847656</ele>
        <time>2021-03-03T16:02:37.857Z</time>
      </trkpt>
      <trkpt lat="44.50719" lon="1.52864">
        <ele>297.94366455078</ele>
        <time>2021-03-03T16:02:39.435Z</time>
      </trkpt>
      <trkpt lat="44.50721" lon="1.52897">
        <ele>298.93542480469</ele>
        <time>2021-03-03T16:02:41.020Z</time>
      </trkpt>
      <trkpt lat="44.50742" lon="1.53052">
        <ele>299.56661987305</ele>
        <time>2021-03-03T16:02:42.636Z</time>
      </trkpt>
      <trkpt lat="44.50743" lon="1.5314">
        <ele>301.47537231445</ele>
        <time>2021-03-03T16:02:44.269Z</time>
      </trkpt>
      <trkpt lat="44.50746" lon="1.53172">
        <ele>304.02713012695</ele>
        <time>2021-03-03T16:02:45.909Z</time>
      </trkpt>
      <trkpt lat="44.5075" lon="1.53196">
        <ele>306.06274414062</ele>
        <time>2021-03-03T16:02:47.554Z</time>
      </trkpt>
      <trkpt lat="44.50763" lon="1.53245">
        <ele>309.13760375977</ele>
        <time>2021-03-03T16:02:49.209Z</time>
      </trkpt>
      <trkpt lat="44.50775" lon="1.5328">
        <ele>312.0634765625</ele>
        <time>2021-03-03T16:02:50.871Z</time>
      </trkpt>
      <trkpt lat="44.50787" lon="1.53305">
        <ele>313.59741210938</ele>
        <time>2021-03-03T16:02:52.540Z</time>
      </trkpt>
      <trkpt lat="44.50792" lon="1.53321">
        <ele>314.54287719727</ele>
        <time>2021-03-03T16:02:54.212Z</time>
      </trkpt>
      <trkpt lat="44.50807" lon="1.53356">
        <ele>317.28143310547</ele>
        <time>2021-03-03T16:02:55.892Z</time>
      </trkpt>
      <trkpt lat="44.5082" lon="1.53384">
        <ele>318.79830932617</ele>
        <time>2021-03-03T16:02:57.579Z</time>
      </trkpt>
      <trkpt lat="44.50842" lon="1.53462">
        <ele>323.16778564453</ele>
        <time>2021-03-03T16:02:59.282Z</time>
      </trkpt>
      <trkpt lat="44.50851" lon="1.53485">
        <ele>324.82028198242</ele>
        <time>2021-03-03T16:03:00.990Z</time>
      </trkpt>
      <trkpt lat="44.50861" lon="1.53503">
        <ele>326.11807250977</ele>
        <time>2021-03-03T16:03:02.703Z</time>
      </trkpt>
      <trkpt lat="44.50875" lon="1.53518">
        <ele>327.25714111328</ele>
        <time>2021-03-03T16:03:04.421Z</time>
      </trkpt>
      <trkpt lat="44.50933" lon="1.5357">
        <ele>330.55297851562</ele>
        <time>2021-03-03T16:03:06.158Z</time>
      </trkpt>
      <trkpt lat="44.50982" lon="1.53611">
        <ele>334.66604614258</ele>
        <time>2021-03-03T16:03:07.911Z</time>
      </trkpt>
      <trkpt lat="44.51018" lon="1.53646">
        <ele>338.52984619141</ele>
        <time>2021-03-03T16:03:09.676Z</time>
      </trkpt>
      <trkpt lat="44.51047" lon="1.53682">
        <ele>342.03500366211</ele>
        <time>2021-03-03T16:03:11.451Z</time>
      </trkpt>
      <trkpt lat="44.51081" lon="1.53739">
        <ele>345.7536315918</ele>
        <time>2021-03-03T16:03:13.241Z</time>
      </trkpt>
      <trkpt lat="44.51085" lon="1.53751">
        <ele>346.06509399414</ele>
        <time>2021-03-03T16:03:15.034Z</time>
      </trkpt>
      <trkpt lat="44.51087" lon="1.53753">
        <ele>346.1217956543</ele>
        <time>2021-03-03T16:03:16.827Z</time>
      </trkpt>
      <trkpt lat="44.51091" lon="1.53752">
        <ele>346.26931762695</ele>
        <time>2021-03-03T16:03:18.621Z</time>
      </trkpt>
      <trkpt lat="44.51121" lon="1.53609">
        <ele>348.11917114258</ele>
        <time>2021-03-03T16:03:20.445Z</time>
      </trkpt>
      <trkpt lat="44.51127" lon="1.53583">
        <ele>349.61688232422</ele>
        <time>2021-03-03T16:03:22.274Z</time>
      </trkpt>
      <trkpt lat="44.51135" lon="1.53559">
        <ele>350</ele>
        <time>2021-03-03T16:03:24.108Z</time>
      </trkpt>
      <trkpt lat="44.51165" lon="1.53489">
        <ele>348.13824462891</ele>
        <time>2021-03-03T16:03:25.958Z</time>
      </trkpt>
      <trkpt lat="44.51181" lon="1.53467">
        <ele>346.0881652832</ele>
        <time>2021-03-03T16:03:27.815Z</time>
      </trkpt>
      <trkpt lat="44.51239" lon="1.53357">
        <ele>341.03201293945</ele>
        <time>2021-03-03T16:03:29.699Z</time>
      </trkpt>
      <trkpt lat="44.51243" lon="1.53351">
        <ele>340.81768798828</ele>
        <time>2021-03-03T16:03:31.584Z</time>
      </trkpt>
      <trkpt lat="44.51249" lon="1.53348">
        <ele>341.30972290039</ele>
        <time>2021-03-03T16:03:33.471Z</time>
      </trkpt>
      <trkpt lat="44.51254" lon="1.53349">
        <ele>341.38861083984</ele>
        <time>2021-03-03T16:03:35.360Z</time>
      </trkpt>
      <trkpt lat="44.51293" lon="1.53373">
        <ele>338.77627563477</ele>
        <time>2021-03-03T16:03:37.260Z</time>
      </trkpt>
      <trkpt lat="44.51302" lon="1.53385">
        <ele>337.58135986328</ele>
        <time>2021-03-03T16:03:39.164Z</time>
      </trkpt>
      <trkpt lat="44.51316" lon="1.53422">
        <ele>337.46890258789</ele>
        <time>2021-03-03T16:03:41.076Z</time>
      </trkpt>
      <trkpt lat="44.51347" lon="1.53474">
        <ele>338.57424926758</ele>
        <time>2021-03-03T16:03:43.001Z</time>
      </trkpt>
      <trkpt lat="44.51381" lon="1.53535">
        <ele>336.62841796875</ele>
        <time>2021-03-03T16:03:44.941Z</time>
      </trkpt>
      <trkpt lat="44.51392" lon="1.53564">
        <ele>335.93618774414</ele>
        <time>2021-03-03T16:03:46.888Z</time>
      </trkpt>
      <trkpt lat="44.51407" lon="1.53624">
        <ele>334.72009277344</ele>
        <time>2021-03-03T16:03:48.847Z</time>
      </trkpt>
      <trkpt lat="44.51417" lon="1.53652">
        <ele>334.03167724609</ele>
        <time>2021-03-03T16:03:50.813Z</time>
      </trkpt>
      <trkpt lat="44.51424" lon="1.53668">
        <ele>334.0051574707</ele>
        <time>2021-03-03T16:03:52.782Z</time>
      </trkpt>
      <trkpt lat="44.51437" lon="1.53686">
        <ele>334.67272949219</ele>
        <time>2021-03-03T16:03:54.756Z</time>
      </trkpt>
      <trkpt lat="44.51494" lon="1.53741">
        <ele>340.85360717773</ele>
        <time>2021-03-03T16:03:56.750Z</time>
      </trkpt>
      <trkpt lat="44.51519" lon="1.53763">
        <ele>344.83248901367</ele>
        <time>2021-03-03T16:03:58.752Z</time>
      </trkpt>
      <trkpt lat="44.5153" lon="1.53768">
        <ele>346.46170043945</ele>
        <time>2021-03-03T16:04:00.757Z</time>
      </trkpt>
      <trkpt lat="44.51549" lon="1.53782">
        <ele>350.28689575195</ele>
        <time>2021-03-03T16:04:02.768Z</time>
      </trkpt>
      <trkpt lat="44.51575" lon="1.53799">
        <ele>355.83932495117</ele>
        <time>2021-03-03T16:04:04.787Z</time>
      </trkpt>
      <trkpt lat="44.51586" lon="1.53802">
        <ele>357.71691894531</ele>
        <time>2021-03-03T16:04:06.809Z</time>
      </trkpt>
      <trkpt lat="44.51597" lon="1.53801">
        <ele>358.0182800293</ele>
        <time>2021-03-03T16:04:08.834Z</time>
      </trkpt>
      <trkpt lat="44.51608" lon="1.53802">
        <ele>358.51571655273</ele>
        <time>2021-03-03T16:04:10.862Z</time>
      </trkpt>
      <trkpt lat="44.51652" lon="1.53785">
        <ele>355.60372924805</ele>
        <time>2021-03-03T16:04:12.903Z</time>
      </trkpt>
      <trkpt lat="44.51656" lon="1.53794">
        <ele>354.70053100586</ele>
        <time>2021-03-03T16:04:14.946Z</time>
      </trkpt>
      <trkpt lat="44.51663" lon="1.53832">
        <ele>351.80767822266</ele>
        <time>2021-03-03T16:04:16.996Z</time>
      </trkpt>
      <trkpt lat="44.51684" lon="1.53881">
        <ele>347.46221923828</ele>
        <time>2021-03-03T16:04:19.058Z</time>
      </trkpt>
      <trkpt lat="44.51695" lon="1.53898">
        <ele>346.26193237305</ele>
        <time>2021-03-03T16:04:21.124Z</time>
      </trkpt>
      <trkpt lat="44.51746" lon="1.53955">
        <ele>344.66491699219</ele>
        <time>2021-03-03T16:04:23.208Z</time>
      </trkpt>
      <trkpt lat="44.51754" lon="1.5396">
        <ele>344.26190185547</ele>
        <time>2021-03-03T16:04:25.295Z</time>
      </trkpt>
      <trkpt lat="44.51759" lon="1.53962">
        <ele>343.97262573242</ele>
        <time>2021-03-03T16:04:27.383Z</time>
      </trkpt>
      <trkpt lat="44.51843" lon="1.53971">
        <ele>345.25872802734</ele>
        <time>2021-03-03T16:04:29.494Z</time>
      </trkpt>
      <trkpt lat="44.51879" lon="1.53967">
        <ele>346.67733764648</ele>
        <time>2021-03-03T16:04:31.615Z</time>
      </trkpt>
      <trkpt lat="44.51902" lon="1.53961">
        <ele>346.61871337891</ele>
        <time>2021-03-03T16:04:33.743Z</time>
      </trkpt>
      <trkpt lat="44.51915" lon="1.53954">
        <ele>346.49078369141</ele>
        <time>2021-03-03T16:04:35.874Z</time>
      </trkpt>
      <trkpt lat="44.51939" lon="1.53935">
        <ele>346.00057983398</ele>
        <time>2021-03-03T16:04:38.013Z</time>
      </trkpt>
      <trkpt lat="44.51947" lon="1.5393">
        <ele>345.90716552734</ele>
        <time>2021-03-03T16:04:40.154Z</time>
      </trkpt>
      <trkpt lat="44.51957" lon="1.53928">
        <ele>345.73400878906</ele>
        <time>2021-03-03T16:04:42.298Z</time>
      </trkpt>
      <trkpt lat="44.51974" lon="1.53929">
        <ele>345.64797973633</ele>
        <time>2021-03-03T16:04:44.447Z</time>
      </trkpt>
      <trkpt lat="44.51987" lon="1.53931">
        <ele>344.42654418945</ele>
        <time>2021-03-03T16:04:46.600Z</time>
      </trkpt>
      <trkpt lat="44.52064" lon="1.53953">
        <ele>337.70288085938</ele>
        <time>2021-03-03T16:04:48.774Z</time>
      </trkpt>
      <trkpt lat="44.52093" lon="1.53959">
        <ele>337.33935546875</ele>
        <time>2021-03-03T16:04:50.956Z</time>
      </trkpt>
      <trkpt lat="44.52117" lon="1.53967">
        <ele>338.70111083984</ele>
        <time>2021-03-03T16:04:53.145Z</time>
      </trkpt>
      <trkpt lat="44.52128" lon="1.53959">
        <ele>340.20297241211</ele>
        <time>2021-03-03T16:04:55.337Z</time>
      </trkpt>
      <trkpt lat="44.52168" lon="1.53853">
        <ele>339.42697143555</ele>
        <time>2021-03-03T16:04:57.553Z</time>
      </trkpt>
      <trkpt lat="44.52187" lon="1.53809">
        <ele>337.19619750977</ele>
        <time>2021-03-03T16:04:59.779Z</time>
      </trkpt>
      <trkpt lat="44.52196" lon="1.53796">
        <ele>336.37191772461</ele>
        <time>2021-03-03T16:05:02.009Z</time>
      </trkpt>
      <trkpt lat="44.52218" lon="1.53771">
        <ele>334.42230224609</ele>
        <time>2021-03-03T16:05:04.247Z</time>
      </trkpt>
      <trkpt lat="44.5225" lon="1.53748">
        <ele>332.3212890625</ele>
        <time>2021-03-03T16:05:06.494Z</time>
      </trkpt>
      <trkpt lat="44.52258" lon="1.53747">
        <ele>332.24768066406</ele>
        <time>2021-03-03T16:05:08.744Z</time>
      </trkpt>
      <trkpt lat="44.52274" lon="1.53749">
        <ele>332.58102416992</ele>
        <time>2021-03-03T16:05:10.998Z</time>
      </trkpt>
      <trkpt lat="44.52315" lon="1.5376">
        <ele>327.76910400391</ele>
        <time>2021-03-03T16:05:13.264Z</time>
      </trkpt>
      <trkpt lat="44.52325" lon="1.53762">
        <ele>326.87173461914</ele>
        <time>2021-03-03T16:05:15.533Z</time>
      </trkpt>
      <trkpt lat="44.52363" lon="1.53762">
        <ele>324.66400146484</ele>
        <time>2021-03-03T16:05:17.812Z</time>
      </trkpt>
      <trkpt lat="44.52398" lon="1.53758">
        <ele>328.37979125977</ele>
        <time>2021-03-03T16:05:20.101Z</time>
      </trkpt>
      <trkpt lat="44.52401" lon="1.53753">
        <ele>328.27603149414</ele>
        <time>2021-03-03T16:05:22.391Z</time>
      </trkpt>
      <trkpt lat="44.52403" lon="1.53741">
        <ele>327.97634887695</ele>
        <time>2021-03-03T16:05:24.683Z</time>
      </trkpt>
      <trkpt lat="44.52389" lon="1.53685">
        <ele>326.70840454102</ele>
        <time>2021-03-03T16:05:26.987Z</time>
      </trkpt>
      <trkpt lat="44.52387" lon="1.53668">
        <ele>327.55609130859</ele>
        <time>2021-03-03T16:05:29.295Z</time>
      </trkpt>
      <trkpt lat="44.52388" lon="1.53646">
        <ele>330.71264648438</ele>
        <time>2021-03-03T16:05:31.607Z</time>
      </trkpt>
      <trkpt lat="44.52387" lon="1.53626">
        <ele>332.89984130859</ele>
        <time>2021-03-03T16:05:33.923Z</time>
      </trkpt>
      <trkpt lat="44.52388" lon="1.53621">
        <ele>333.70257568359</ele>
        <time>2021-03-03T16:05:36.240Z</time>
      </trkpt>
      <trkpt lat="44.52397" lon="1.53608">
        <ele>336.28936767578</ele>
        <time>2021-03-03T16:05:38.561Z</time>
      </trkpt>
      <trkpt lat="44.52403" lon="1.5359">
        <ele>338.52719116211</ele>
        <time>2021-03-03T16:05:40.885Z</time>
      </trkpt>
      <trkpt lat="44.52423" lon="1.53546">
        <ele>341.8000793457</ele>
        <time>2021-03-03T16:05:43.220Z</time>
      </trkpt>
      <trkpt lat="44.52428" lon="1.53521">
        <ele>341.20559692383</ele>
        <time>2021-03-03T16:05:45.560Z</time>
      </trkpt>
      <trkpt lat="44.52421" lon="1.5348">
        <ele>340.80526733398</ele>
        <time>2021-03-03T16:05:47.908Z</time>
      </trkpt>
      <trkpt lat="44.52421" lon="1.53473">
        <ele>340.73471069336</ele>
        <time>2021-03-03T16:05:50.258Z</time>
      </trkpt>
      <trkpt lat="44.52423" lon="1.53468">
        <ele>340.5983581543</ele>
        <time>2021-03-03T16:05:52.609Z</time>
      </trkpt>
      <trkpt lat="44.5242" lon="1.53468">
        <ele>340.81555175781</ele>
        <time>2021-03-03T16:05:54.961Z</time>
      </trkpt>
      <trkpt lat="44.5242" lon="1.53478">
        <ele>340.91387939453</ele>
        <time>2021-03-03T16:05:57.314Z</time>
      </trkpt>
      <trkpt lat="44.52423" lon="1.53479">
        <ele>340.65353393555</ele>
        <time>2021-03-03T16:05:59.668Z</time>
      </trkpt>
      <trkpt lat="44.5242" lon="1.53473">
        <ele>340.79022216797</ele>
        <time>2021-03-03T16:06:02.024Z</time>
      </trkpt>
      <trkpt lat="44.52419" lon="1.53475">
        <ele>340.93771362305</ele>
        <time>2021-03-03T16:06:04.380Z</time>
      </trkpt>
      <trkpt lat="44.5242" lon="1.53478">
        <ele>340.84088134766</ele>
        <time>2021-03-03T16:06:06.737Z</time>
      </trkpt>
      <trkpt lat="44.52425" lon="1.53475">
        <ele>340.44692993164</ele>
        <time>2021-03-03T16:06:09.095Z</time>
      </trkpt>
      <trkpt lat="44.52436" lon="1.53452">
        <ele>339.693359375</ele>
        <time>2021-03-03T16:06:11.459Z</time>
      </trkpt>
      <trkpt lat="44.52444" lon="1.53425">
        <ele>339.09848022461</ele>
        <time>2021-03-03T16:06:13.829Z</time>
      </trkpt>
      <trkpt lat="44.52454" lon="1.534">
        <ele>338.05087280273</ele>
        <time>2021-03-03T16:06:16.204Z</time>
      </trkpt>
      <trkpt lat="44.52466" lon="1.53386">
        <ele>336.33813476562</ele>
        <time>2021-03-03T16:06:18.583Z</time>
      </trkpt>
      <trkpt lat="44.52486" lon="1.53353">
        <ele>334.77764892578</ele>
        <time>2021-03-03T16:06:20.971Z</time>
      </trkpt>
      <trkpt lat="44.52535" lon="1.5329">
        <ele>336.53466796875</ele>
        <time>2021-03-03T16:06:23.377Z</time>
      </trkpt>
      <trkpt lat="44.52583" lon="1.53201">
        <ele>339</ele>
        <time>2021-03-03T16:06:25.805Z</time>
      </trkpt>
      <trkpt lat="44.52608" lon="1.53165">
        <ele>339.73580932617</ele>
        <time>2021-03-03T16:06:28.243Z</time>
      </trkpt>
      <trkpt lat="44.52621" lon="1.53149">
        <ele>339.97555541992</ele>
        <time>2021-03-03T16:06:30.686Z</time>
      </trkpt>
      <trkpt lat="44.5264" lon="1.53131">
        <ele>339.03063964844</ele>
        <time>2021-03-03T16:06:33.135Z</time>
      </trkpt>
      <trkpt lat="44.52664" lon="1.53114">
        <ele>338.00057983398</ele>
        <time>2021-03-03T16:06:35.592Z</time>
      </trkpt>
      <trkpt lat="44.52677" lon="1.53102">
        <ele>336.91836547852</ele>
        <time>2021-03-03T16:06:38.053Z</time>
      </trkpt>
      <trkpt lat="44.52702" lon="1.53064">
        <ele>334.52801513672</ele>
        <time>2021-03-03T16:06:40.524Z</time>
      </trkpt>
      <trkpt lat="44.52732" lon="1.53011">
        <ele>333.01315307617</ele>
        <time>2021-03-03T16:06:43.009Z</time>
      </trkpt>
      <trkpt lat="44.52781" lon="1.5295">
        <ele>335.49261474609</ele>
        <time>2021-03-03T16:06:45.512Z</time>
      </trkpt>
      <trkpt lat="44.52792" lon="1.52941">
        <ele>335.0578918457</ele>
        <time>2021-03-03T16:06:48.018Z</time>
      </trkpt>
      <trkpt lat="44.52814" lon="1.5291">
        <ele>334.99035644531</ele>
        <time>2021-03-03T16:06:50.533Z</time>
      </trkpt>
      <trkpt lat="44.52832" lon="1.52867">
        <ele>335.83248901367</ele>
        <time>2021-03-03T16:06:53.058Z</time>
      </trkpt>
      <trkpt lat="44.52865" lon="1.52802">
        <ele>335.73406982422</ele>
        <time>2021-03-03T16:06:55.598Z</time>
      </trkpt>
      <trkpt lat="44.52872" lon="1.52783">
        <ele>335</ele>
        <time>2021-03-03T16:06:58.143Z</time>
      </trkpt>
      <trkpt lat="44.52883" lon="1.52745">
        <ele>333.14895629883</ele>
        <time>2021-03-03T16:07:00.696Z</time>
      </trkpt>
      <trkpt lat="44.52908" lon="1.52673">
        <ele>334.25610351562</ele>
        <time>2021-03-03T16:07:03.264Z</time>
      </trkpt>
      <trkpt lat="44.52916" lon="1.52633">
        <ele>335.76086425781</ele>
        <time>2021-03-03T16:07:05.841Z</time>
      </trkpt>
      <trkpt lat="44.52932" lon="1.52545">
        <ele>339.52746582031</ele>
        <time>2021-03-03T16:07:08.436Z</time>
      </trkpt>
      <trkpt lat="44.52945" lon="1.5246">
        <ele>336.99743652344</ele>
        <time>2021-03-03T16:07:11.048Z</time>
      </trkpt>
      <trkpt lat="44.52954" lon="1.52386">
        <ele>335.19097900391</ele>
        <time>2021-03-03T16:07:13.674Z</time>
      </trkpt>
      <trkpt lat="44.52958" lon="1.52336">
        <ele>333.609375</ele>
        <time>2021-03-03T16:07:16.311Z</time>
      </trkpt>
      <trkpt lat="44.52958" lon="1.52311">
        <ele>332.64431762695</ele>
        <time>2021-03-03T16:07:18.952Z</time>
      </trkpt>
      <trkpt lat="44.52955" lon="1.52256">
        <ele>331.35894775391</ele>
        <time>2021-03-03T16:07:21.604Z</time>
      </trkpt>
      <trkpt lat="44.52955" lon="1.52256">
        <ele>331.35894775391</ele>
        <time>2021-03-03T16:07:24.256Z</time>
      </trkpt>
      <trkpt lat="44.52956" lon="1.5214">
        <ele>329.73779296875</ele>
        <time>2021-03-03T16:07:26.931Z</time>
      </trkpt>
      <trkpt lat="44.5295" lon="1.52083">
        <ele>330.37805175781</ele>
        <time>2021-03-03T16:07:29.617Z</time>
      </trkpt>
      <trkpt lat="44.52941" lon="1.52021">
        <ele>331.83041381836</ele>
        <time>2021-03-03T16:07:32.316Z</time>
      </trkpt>
      <trkpt lat="44.5293" lon="1.51974">
        <ele>332.56838989258</ele>
        <time>2021-03-03T16:07:35.025Z</time>
      </trkpt>
      <trkpt lat="44.52925" lon="1.51936">
        <ele>335.13269042969</ele>
        <time>2021-03-03T16:07:37.741Z</time>
      </trkpt>
      <trkpt lat="44.52927" lon="1.51916">
        <ele>336.75646972656</ele>
        <time>2021-03-03T16:07:40.461Z</time>
      </trkpt>
      <trkpt lat="44.52933" lon="1.5189">
        <ele>339.34564208984</ele>
        <time>2021-03-03T16:07:43.187Z</time>
      </trkpt>
      <trkpt lat="44.52935" lon="1.5185">
        <ele>341.81326293945</ele>
        <time>2021-03-03T16:07:45.921Z</time>
      </trkpt>
      <trkpt lat="44.52929" lon="1.51821">
        <ele>343</ele>
        <time>2021-03-03T16:07:48.661Z</time>
      </trkpt>
      <trkpt lat="44.52924" lon="1.51761">
        <ele>343.62057495117</ele>
        <time>2021-03-03T16:07:51.413Z</time>
      </trkpt>
      <trkpt lat="44.5292" lon="1.51733">
        <ele>344.54159545898</ele>
        <time>2021-03-03T16:07:54.170Z</time>
      </trkpt>
      <trkpt lat="44.52917" lon="1.51725">
        <ele>344.92218017578</ele>
        <time>2021-03-03T16:07:56.929Z</time>
      </trkpt>
      <trkpt lat="44.52892" lon="1.51674">
        <ele>344.75396728516</ele>
        <time>2021-03-03T16:07:59.700Z</time>
      </trkpt>
      <trkpt lat="44.52876" lon="1.51637">
        <ele>346.08883666992</ele>
        <time>2021-03-03T16:08:02.480Z</time>
      </trkpt>
      <trkpt lat="44.52877" lon="1.51629">
        <ele>346.38415527344</ele>
        <time>2021-03-03T16:08:05.262Z</time>
      </trkpt>
      <trkpt lat="44.52902" lon="1.51592">
        <ele>348.4030456543</ele>
        <time>2021-03-03T16:08:08.053Z</time>
      </trkpt>
      <trkpt lat="44.52932" lon="1.51553">
        <ele>350</ele>
        <time>2021-03-03T16:08:10.856Z</time>
      </trkpt>
      <trkpt lat="44.52968" lon="1.51501">
        <ele>350.80599975586</ele>
        <time>2021-03-03T16:08:13.673Z</time>
      </trkpt>
      <trkpt lat="44.52997" lon="1.51474">
        <ele>349.11596679688</ele>
        <time>2021-03-03T16:08:16.500Z</time>
      </trkpt>
      <trkpt lat="44.53035" lon="1.51445">
        <ele>347.98980712891</ele>
        <time>2021-03-03T16:08:19.339Z</time>
      </trkpt>
      <trkpt lat="44.53059" lon="1.51418">
        <ele>347.01419067383</ele>
        <time>2021-03-03T16:08:22.186Z</time>
      </trkpt>
      <trkpt lat="44.53082" lon="1.51387">
        <ele>345.8244934082</ele>
        <time>2021-03-03T16:08:25.042Z</time>
      </trkpt>
      <trkpt lat="44.53085" lon="1.5139">
        <ele>346.00659179688</ele>
        <time>2021-03-03T16:08:27.899Z</time>
      </trkpt>
      <trkpt lat="44.53087" lon="1.51442">
        <ele>347.80661010742</ele>
        <time>2021-03-03T16:08:30.766Z</time>
      </trkpt>
      <trkpt lat="44.53095" lon="1.51484">
        <ele>349.02352905273</ele>
        <time>2021-03-03T16:08:33.642Z</time>
      </trkpt>
      <trkpt lat="44.53097" lon="1.51506">
        <ele>349.54232788086</ele>
        <time>2021-03-03T16:08:36.522Z</time>
      </trkpt>
      <trkpt lat="44.53099" lon="1.51603">
        <ele>347.13430786133</ele>
        <time>2021-03-03T16:08:39.422Z</time>
      </trkpt>
      <trkpt lat="44.53106" lon="1.51656">
        <ele>345.41882324219</ele>
        <time>2021-03-03T16:08:42.332Z</time>
      </trkpt>
      <trkpt lat="44.53106" lon="1.51687">
        <ele>345</ele>
        <time>2021-03-03T16:08:45.248Z</time>
      </trkpt>
      <trkpt lat="44.53107" lon="1.51691">
        <ele>345.03875732422</ele>
        <time>2021-03-03T16:08:48.165Z</time>
      </trkpt>
      <trkpt lat="44.53112" lon="1.51697">
        <ele>345.01803588867</ele>
        <time>2021-03-03T16:08:51.084Z</time>
      </trkpt>
      <trkpt lat="44.53127" lon="1.51695">
        <ele>343.39974975586</ele>
        <time>2021-03-03T16:08:54.007Z</time>
      </trkpt>
      <trkpt lat="44.53138" lon="1.51684">
        <ele>342.83963012695</ele>
        <time>2021-03-03T16:08:56.934Z</time>
      </trkpt>
      <trkpt lat="44.53165" lon="1.51641">
        <ele>344.08090209961</ele>
        <time>2021-03-03T16:08:59.872Z</time>
      </trkpt>
      <trkpt lat="44.53225" lon="1.5156">
        <ele>341.53564453125</ele>
        <time>2021-03-03T16:09:02.833Z</time>
      </trkpt>
      <trkpt lat="44.53246" lon="1.51528">
        <ele>341.53033447266</ele>
        <time>2021-03-03T16:09:05.803Z</time>
      </trkpt>
      <trkpt lat="44.53266" lon="1.51488">
        <ele>342.91226196289</ele>
        <time>2021-03-03T16:09:08.782Z</time>
      </trkpt>
      <trkpt lat="44.53279" lon="1.51452">
        <ele>342.72814941406</ele>
        <time>2021-03-03T16:09:11.769Z</time>
      </trkpt>
      <trkpt lat="44.53285" lon="1.51431">
        <ele>343</ele>
        <time>2021-03-03T16:09:14.761Z</time>
      </trkpt>
      <trkpt lat="44.5329" lon="1.51402">
        <ele>341.47341918945</ele>
        <time>2021-03-03T16:09:17.759Z</time>
      </trkpt>
      <trkpt lat="44.53297" lon="1.51339">
        <ele>336.20614624023</ele>
        <time>2021-03-03T16:09:20.769Z</time>
      </trkpt>
      <trkpt lat="44.53302" lon="1.51242">
        <ele>336.46072387695</ele>
        <time>2021-03-03T16:09:23.798Z</time>
      </trkpt>
      <trkpt lat="44.53306" lon="1.51199">
        <ele>337.25198364258</ele>
        <time>2021-03-03T16:09:26.836Z</time>
      </trkpt>
      <trkpt lat="44.53308" lon="1.51188">
        <ele>337.24981689453</ele>
        <time>2021-03-03T16:09:29.876Z</time>
      </trkpt>
      <trkpt lat="44.53311" lon="1.51189">
        <ele>336.81121826172</ele>
        <time>2021-03-03T16:09:32.917Z</time>
      </trkpt>
      <trkpt lat="44.53316" lon="1.512">
        <ele>335.38479614258</ele>
        <time>2021-03-03T16:09:35.961Z</time>
      </trkpt>
      <trkpt lat="44.53324" lon="1.51238">
        <ele>333.3278503418</ele>
        <time>2021-03-03T16:09:39.012Z</time>
      </trkpt>
      <trkpt lat="44.53328" lon="1.51245">
        <ele>332.32843017578</ele>
        <time>2021-03-03T16:09:42.065Z</time>
      </trkpt>
      <trkpt lat="44.53333" lon="1.51251">
        <ele>331.22256469727</ele>
        <time>2021-03-03T16:09:45.120Z</time>
      </trkpt>
      <trkpt lat="44.53339" lon="1.51253">
        <ele>330.68753051758</ele>
        <time>2021-03-03T16:09:48.177Z</time>
      </trkpt>
      <trkpt lat="44.53345" lon="1.51253">
        <ele>330.00729370117</ele>
        <time>2021-03-03T16:09:51.236Z</time>
      </trkpt>
      <trkpt lat="44.53384" lon="1.51244">
        <ele>327.76089477539</ele>
        <time>2021-03-03T16:09:54.305Z</time>
      </trkpt>
      <trkpt lat="44.53408" lon="1.51244">
        <ele>327.28839111328</ele>
        <time>2021-03-03T16:09:57.381Z</time>
      </trkpt>
      <trkpt lat="44.53437" lon="1.51246">
        <ele>327.54632568359</ele>
        <time>2021-03-03T16:10:00.465Z</time>
      </trkpt>
      <trkpt lat="44.53537" lon="1.51262">
        <ele>323.72631835938</ele>
        <time>2021-03-03T16:10:03.577Z</time>
      </trkpt>
      <trkpt lat="44.53546" lon="1.51267">
        <ele>322.70126342773</ele>
        <time>2021-03-03T16:10:06.691Z</time>
      </trkpt>
      <trkpt lat="44.53569" lon="1.51284">
        <ele>320.18447875977</ele>
        <time>2021-03-03T16:10:09.812Z</time>
      </trkpt>
      <trkpt lat="44.53586" lon="1.51291">
        <ele>317.67300415039</ele>
        <time>2021-03-03T16:10:12.938Z</time>
      </trkpt>
      <trkpt lat="44.53595" lon="1.51293">
        <ele>316.68112182617</ele>
        <time>2021-03-03T16:10:16.067Z</time>
      </trkpt>
      <trkpt lat="44.53652" lon="1.51298">
        <ele>315.57040405273</ele>
        <time>2021-03-03T16:10:19.212Z</time>
      </trkpt>
      <trkpt lat="44.53687" lon="1.51304">
        <ele>314.55123901367</ele>
        <time>2021-03-03T16:10:22.367Z</time>
      </trkpt>
      <trkpt lat="44.53704" lon="1.51305">
        <ele>312.80642700195</ele>
        <time>2021-03-03T16:10:25.526Z</time>
      </trkpt>
      <trkpt lat="44.53709" lon="1.51303">
        <ele>311.88421630859</ele>
        <time>2021-03-03T16:10:28.687Z</time>
      </trkpt>
      <trkpt lat="44.53713" lon="1.51299">
        <ele>310.65344238281</ele>
        <time>2021-03-03T16:10:31.849Z</time>
      </trkpt>
      <trkpt lat="44.53714" lon="1.51293">
        <ele>309.15783691406</ele>
        <time>2021-03-03T16:10:35.012Z</time>
      </trkpt>
      <trkpt lat="44.5371" lon="1.51283">
        <ele>306.97409057617</ele>
        <time>2021-03-03T16:10:38.177Z</time>
      </trkpt>
      <trkpt lat="44.53706" lon="1.51277">
        <ele>305.94738769531</ele>
        <time>2021-03-03T16:10:41.344Z</time>
      </trkpt>
      <trkpt lat="44.53668" lon="1.51243">
        <ele>300.875</ele>
        <time>2021-03-03T16:10:44.523Z</time>
      </trkpt>
      <trkpt lat="44.53643" lon="1.51233">
        <ele>302.78411865234</ele>
        <time>2021-03-03T16:10:47.710Z</time>
      </trkpt>
      <trkpt lat="44.53618" lon="1.51227">
        <ele>304.41622924805</ele>
        <time>2021-03-03T16:10:50.904Z</time>
      </trkpt>
      <trkpt lat="44.53611" lon="1.51224">
        <ele>304.41714477539</ele>
        <time>2021-03-03T16:10:54.100Z</time>
      </trkpt>
      <trkpt lat="44.53607" lon="1.51218">
        <ele>303.97698974609</ele>
        <time>2021-03-03T16:10:57.297Z</time>
      </trkpt>
      <trkpt lat="44.53601" lon="1.51179">
        <ele>297.53900146484</ele>
        <time>2021-03-03T16:11:00.502Z</time>
      </trkpt>
      <trkpt lat="44.53591" lon="1.51162">
        <ele>296.58090209961</ele>
        <time>2021-03-03T16:11:03.711Z</time>
      </trkpt>
      <trkpt lat="44.53563" lon="1.51133">
        <ele>297.00201416016</ele>
        <time>2021-03-03T16:11:06.930Z</time>
      </trkpt>
      <trkpt lat="44.53546" lon="1.5112">
        <ele>295.97329711914</ele>
        <time>2021-03-03T16:11:10.154Z</time>
      </trkpt>
      <trkpt lat="44.53539" lon="1.51116">
        <ele>295.45745849609</ele>
        <time>2021-03-03T16:11:13.380Z</time>
      </trkpt>
      <trkpt lat="44.53513" lon="1.51108">
        <ele>296.7790222168</ele>
        <time>2021-03-03T16:11:16.614Z</time>
      </trkpt>
      <trkpt lat="44.53498" lon="1.511">
        <ele>297.63955688477</ele>
        <time>2021-03-03T16:11:19.852Z</time>
      </trkpt>
      <trkpt lat="44.53494" lon="1.51095">
        <ele>297.87124633789</ele>
        <time>2021-03-03T16:11:23.092Z</time>
      </trkpt>
      <trkpt lat="44.53491" lon="1.51085">
        <ele>296.61633300781</ele>
        <time>2021-03-03T16:11:26.334Z</time>
      </trkpt>
      <trkpt lat="44.53496" lon="1.51078">
        <ele>294.95193481445</ele>
        <time>2021-03-03T16:11:29.578Z</time>
      </trkpt>
      <trkpt lat="44.535" lon="1.51077">
        <ele>293.99444580078</ele>
        <time>2021-03-03T16:11:32.823Z</time>
      </trkpt>
      <trkpt lat="44.53514" lon="1.5108">
        <ele>292.44946289062</ele>
        <time>2021-03-03T16:11:36.072Z</time>
      </trkpt>
      <trkpt lat="44.53534" lon="1.5108">
        <ele>290.818359375</ele>
        <time>2021-03-03T16:11:39.326Z</time>
      </trkpt>
      <trkpt lat="44.53541" lon="1.51081">
        <ele>290.56887817383</ele>
        <time>2021-03-03T16:11:42.582Z</time>
      </trkpt>
      <trkpt lat="44.53653" lon="1.51126">
        <ele>281.71542358398</ele>
        <time>2021-03-03T16:11:45.870Z</time>
      </trkpt>
      <trkpt lat="44.537" lon="1.51134">
        <ele>277.45465087891</ele>
        <time>2021-03-03T16:11:49.172Z</time>
      </trkpt>
      <trkpt lat="44.53752" lon="1.51146">
        <ele>271.90631103516</ele>
        <time>2021-03-03T16:11:52.488Z</time>
      </trkpt>
      <trkpt lat="44.5381" lon="1.51165">
        <ele>267.18737792969</ele>
        <time>2021-03-03T16:11:55.820Z</time>
      </trkpt>
      <trkpt lat="44.53865" lon="1.51191">
        <ele>263.80337524414</ele>
        <time>2021-03-03T16:11:59.168Z</time>
      </trkpt>
      <trkpt lat="44.53879" lon="1.51196">
        <ele>262.96423339844</ele>
        <time>2021-03-03T16:12:02.521Z</time>
      </trkpt>
      <trkpt lat="44.5391" lon="1.51203">
        <ele>261.0061340332</ele>
        <time>2021-03-03T16:12:05.882Z</time>
      </trkpt>
      <trkpt lat="44.53919" lon="1.51203">
        <ele>260.03387451172</ele>
        <time>2021-03-03T16:12:09.246Z</time>
      </trkpt>
      <trkpt lat="44.53952" lon="1.51193">
        <ele>256.42129516602</ele>
        <time>2021-03-03T16:12:12.619Z</time>
      </trkpt>
      <trkpt lat="44.53963" lon="1.51192">
        <ele>255.28340148926</ele>
        <time>2021-03-03T16:12:15.995Z</time>
      </trkpt>
      <trkpt lat="44.53984" lon="1.51193">
        <ele>253.0138092041</ele>
        <time>2021-03-03T16:12:19.377Z</time>
      </trkpt>
      <trkpt lat="44.54032" lon="1.51205">
        <ele>247.55458068848</ele>
        <time>2021-03-03T16:12:22.772Z</time>
      </trkpt>
      <trkpt lat="44.54054" lon="1.51208">
        <ele>246.5394744873</ele>
        <time>2021-03-03T16:12:26.173Z</time>
      </trkpt>
      <trkpt lat="44.54125" lon="1.51204">
        <ele>241.12031555176</ele>
        <time>2021-03-03T16:12:29.594Z</time>
      </trkpt>
      <trkpt lat="44.54155" lon="1.512">
        <ele>238.04183959961</ele>
        <time>2021-03-03T16:12:33.023Z</time>
      </trkpt>
      <trkpt lat="44.54176" lon="1.51193">
        <ele>235.56034851074</ele>
        <time>2021-03-03T16:12:36.458Z</time>
      </trkpt>
      <trkpt lat="44.54197" lon="1.51181">
        <ele>233.52738952637</ele>
        <time>2021-03-03T16:12:39.899Z</time>
      </trkpt>
      <trkpt lat="44.54199" lon="1.5117">
        <ele>232.45338439941</ele>
        <time>2021-03-03T16:12:43.343Z</time>
      </trkpt>
      <trkpt lat="44.54194" lon="1.51158">
        <ele>232.10760498047</ele>
        <time>2021-03-03T16:12:46.789Z</time>
      </trkpt>
      <trkpt lat="44.54194" lon="1.51151">
        <ele>232.1275177002</ele>
        <time>2021-03-03T16:12:50.237Z</time>
      </trkpt>
      <trkpt lat="44.54196" lon="1.51142">
        <ele>231.9820098877</ele>
        <time>2021-03-03T16:12:53.687Z</time>
      </trkpt>
      <trkpt lat="44.54219" lon="1.51149">
        <ele>231.15907287598</ele>
        <time>2021-03-03T16:12:57.143Z</time>
      </trkpt>
      <trkpt lat="44.54245" lon="1.51153">
        <ele>229.72964477539</ele>
        <time>2021-03-03T16:13:00.606Z</time>
      </trkpt>
      <trkpt lat="44.5427" lon="1.5115">
        <ele>229.6095123291</ele>
        <time>2021-03-03T16:13:04.076Z</time>
      </trkpt>
      <trkpt lat="44.54334" lon="1.51151">
        <ele>230.15927124023</ele>
        <time>2021-03-03T16:13:07.564Z</time>
      </trkpt>
      <trkpt lat="44.54368" lon="1.51158">
        <ele>228.48823547363</ele>
        <time>2021-03-03T16:13:11.061Z</time>
      </trkpt>
      <trkpt lat="44.54407" lon="1.5117">
        <ele>226.42143249512</ele>
        <time>2021-03-03T16:13:14.569Z</time>
      </trkpt>
      <trkpt lat="44.54464" lon="1.5122">
        <ele>221.81384277344</ele>
        <time>2021-03-03T16:13:18.096Z</time>
      </trkpt>
      <trkpt lat="44.54472" lon="1.51223">
        <ele>221.12232971191</ele>
        <time>2021-03-03T16:13:21.625Z</time>
      </trkpt>
      <trkpt lat="44.54486" lon="1.51233">
        <ele>220.42138671875</ele>
        <time>2021-03-03T16:13:25.159Z</time>
      </trkpt>
      <trkpt lat="44.54498" lon="1.51244">
        <ele>219.64491271973</ele>
        <time>2021-03-03T16:13:28.696Z</time>
      </trkpt>
      <trkpt lat="44.54508" lon="1.51259">
        <ele>219.10664367676</ele>
        <time>2021-03-03T16:13:32.238Z</time>
      </trkpt>
      <trkpt lat="44.54522" lon="1.51284">
        <ele>218.62225341797</ele>
        <time>2021-03-03T16:13:35.786Z</time>
      </trkpt>
      <trkpt lat="44.54535" lon="1.51315">
        <ele>217.05337524414</ele>
        <time>2021-03-03T16:13:39.341Z</time>
      </trkpt>
      <trkpt lat="44.54538" lon="1.51327">
        <ele>216.91249084473</ele>
        <time>2021-03-03T16:13:42.898Z</time>
      </trkpt>
      <trkpt lat="44.54549" lon="1.51377">
        <ele>213.89413452148</ele>
        <time>2021-03-03T16:13:46.466Z</time>
      </trkpt>
      <trkpt lat="44.54557" lon="1.51391">
        <ele>212.99052429199</ele>
        <time>2021-03-03T16:13:50.037Z</time>
      </trkpt>
      <trkpt lat="44.54572" lon="1.51431">
        <ele>211.96212768555</ele>
        <time>2021-03-03T16:13:53.617Z</time>
      </trkpt>
      <trkpt lat="44.54574" lon="1.51433">
        <ele>211.79681396484</ele>
        <time>2021-03-03T16:13:57.198Z</time>
      </trkpt>
      <trkpt lat="44.54595" lon="1.51427">
        <ele>211.64823913574</ele>
        <time>2021-03-03T16:14:00.785Z</time>
      </trkpt>
      <trkpt lat="44.5464" lon="1.5139">
        <ele>213.93797302246</ele>
        <time>2021-03-03T16:14:04.386Z</time>
      </trkpt>
      <trkpt lat="44.54668" lon="1.51341">
        <ele>216.23333740234</ele>
        <time>2021-03-03T16:14:08.000Z</time>
      </trkpt>
      <trkpt lat="44.54678" lon="1.51326">
        <ele>216.8816986084</ele>
        <time>2021-03-03T16:14:11.618Z</time>
      </trkpt>
      <trkpt lat="44.54691" lon="1.51316">
        <ele>215.97076416016</ele>
        <time>2021-03-03T16:14:15.240Z</time>
      </trkpt>
      <trkpt lat="44.5472" lon="1.51302">
        <ele>213.09248352051</ele>
        <time>2021-03-03T16:14:18.870Z</time>
      </trkpt>
      <trkpt lat="44.54728" lon="1.51295">
        <ele>213.28964233398</ele>
        <time>2021-03-03T16:14:22.503Z</time>
      </trkpt>
      <trkpt lat="44.5474" lon="1.51265">
        <ele>217.37168884277</ele>
        <time>2021-03-03T16:14:26.142Z</time>
      </trkpt>
      <trkpt lat="44.54753" lon="1.51241">
        <ele>220.20863342285</ele>
        <time>2021-03-03T16:14:29.788Z</time>
      </trkpt>
      <trkpt lat="44.54774" lon="1.51224">
        <ele>221.40014648438</ele>
        <time>2021-03-03T16:14:33.440Z</time>
      </trkpt>
      <trkpt lat="44.54786" lon="1.51219">
        <ele>221.57469177246</ele>
        <time>2021-03-03T16:14:37.096Z</time>
      </trkpt>
      <trkpt lat="44.54796" lon="1.5121">
        <ele>223.29818725586</ele>
        <time>2021-03-03T16:14:40.755Z</time>
      </trkpt>
      <trkpt lat="44.54825" lon="1.5117">
        <ele>224.15225219727</ele>
        <time>2021-03-03T16:14:44.425Z</time>
      </trkpt>
      <trkpt lat="44.54837" lon="1.51155">
        <ele>223.05027770996</ele>
        <time>2021-03-03T16:14:48.100Z</time>
      </trkpt>
      <trkpt lat="44.54846" lon="1.51152">
        <ele>221.4013671875</ele>
        <time>2021-03-03T16:14:51.777Z</time>
      </trkpt>
      <trkpt lat="44.54852" lon="1.51161">
        <ele>218.58804321289</ele>
        <time>2021-03-03T16:14:55.456Z</time>
      </trkpt>
      <trkpt lat="44.54864" lon="1.51189">
        <ele>213.49351501465</ele>
        <time>2021-03-03T16:14:59.142Z</time>
      </trkpt>
      <trkpt lat="44.54874" lon="1.51199">
        <ele>213.6755065918</ele>
        <time>2021-03-03T16:15:02.831Z</time>
      </trkpt>
      <trkpt lat="44.54889" lon="1.51206">
        <ele>214.76843261719</ele>
        <time>2021-03-03T16:15:06.525Z</time>
      </trkpt>
      <trkpt lat="44.54893" lon="1.51203">
        <ele>214.77331542969</ele>
        <time>2021-03-03T16:15:10.220Z</time>
      </trkpt>
      <trkpt lat="44.54897" lon="1.51197">
        <ele>214.51641845703</ele>
        <time>2021-03-03T16:15:13.916Z</time>
      </trkpt>
      <trkpt lat="44.54907" lon="1.51177">
        <ele>213.70379638672</ele>
        <time>2021-03-03T16:15:17.617Z</time>
      </trkpt>
      <trkpt lat="44.54913" lon="1.51157">
        <ele>213.54428100586</ele>
        <time>2021-03-03T16:15:21.323Z</time>
      </trkpt>
      <trkpt lat="44.54916" lon="1.51139">
        <ele>214.08576965332</ele>
        <time>2021-03-03T16:15:25.032Z</time>
      </trkpt>
      <trkpt lat="44.54894" lon="1.51087">
        <ele>219.63417053223</ele>
        <time>2021-03-03T16:15:28.753Z</time>
      </trkpt>
      <trkpt lat="44.54887" lon="1.51018">
        <ele>221.15174865723</ele>
        <time>2021-03-03T16:15:32.488Z</time>
      </trkpt>
      <trkpt lat="44.54887" lon="1.50972">
        <ele>218.80123901367</ele>
        <time>2021-03-03T16:15:36.232Z</time>
      </trkpt>
      <trkpt lat="44.54881" lon="1.50946">
        <ele>219.02658081055</ele>
        <time>2021-03-03T16:15:39.981Z</time>
      </trkpt>
      <trkpt lat="44.54882" lon="1.50924">
        <ele>219.29751586914</ele>
        <time>2021-03-03T16:15:43.735Z</time>
      </trkpt>
      <trkpt lat="44.54879" lon="1.50898">
        <ele>220.57698059082</ele>
        <time>2021-03-03T16:15:47.494Z</time>
      </trkpt>
      <trkpt lat="44.54871" lon="1.50871">
        <ele>222.04965209961</ele>
        <time>2021-03-03T16:15:51.258Z</time>
      </trkpt>
      <trkpt lat="44.5487" lon="1.50857">
        <ele>222.53875732422</ele>
        <time>2021-03-03T16:15:55.025Z</time>
      </trkpt>
      <trkpt lat="44.54885" lon="1.50806">
        <ele>223.93739318848</ele>
        <time>2021-03-03T16:15:58.803Z</time>
      </trkpt>
      <trkpt lat="44.549" lon="1.50768">
        <ele>226.11790466309</ele>
        <time>2021-03-03T16:16:02.590Z</time>
      </trkpt>
      <trkpt lat="44.54924" lon="1.50691">
        <ele>229.60052490234</ele>
        <time>2021-03-03T16:16:06.393Z</time>
      </trkpt>
      <trkpt lat="44.54939" lon="1.50661">
        <ele>231.04719543457</ele>
        <time>2021-03-03T16:16:10.204Z</time>
      </trkpt>
      <trkpt lat="44.54949" lon="1.5065">
        <ele>229.91331481934</ele>
        <time>2021-03-03T16:16:14.018Z</time>
      </trkpt>
      <trkpt lat="44.54957" lon="1.50632">
        <ele>230.9216003418</ele>
        <time>2021-03-03T16:16:17.836Z</time>
      </trkpt>
      <trkpt lat="44.54964" lon="1.50624">
        <ele>230.20967102051</ele>
        <time>2021-03-03T16:16:21.657Z</time>
      </trkpt>
      <trkpt lat="44.54995" lon="1.50596">
        <ele>227.55715942383</ele>
        <time>2021-03-03T16:16:25.488Z</time>
      </trkpt>
      <trkpt lat="44.55021" lon="1.50576">
        <ele>228.78036499023</ele>
        <time>2021-03-03T16:16:29.327Z</time>
      </trkpt>
      <trkpt lat="44.55055" lon="1.50542">
        <ele>230.32325744629</ele>
        <time>2021-03-03T16:16:33.178Z</time>
      </trkpt>
      <trkpt lat="44.55062" lon="1.50538">
        <ele>230.30516052246</ele>
        <time>2021-03-03T16:16:37.031Z</time>
      </trkpt>
      <trkpt lat="44.55076" lon="1.50536">
        <ele>229.10423278809</ele>
        <time>2021-03-03T16:16:40.888Z</time>
      </trkpt>
      <trkpt lat="44.55093" lon="1.50506">
        <ele>231.76461791992</ele>
        <time>2021-03-03T16:16:44.752Z</time>
      </trkpt>
      <trkpt lat="44.55131" lon="1.50496">
        <ele>226.62181091309</ele>
        <time>2021-03-03T16:16:48.627Z</time>
      </trkpt>
      <trkpt lat="44.55177" lon="1.50476">
        <ele>227.98745727539</ele>
        <time>2021-03-03T16:16:52.515Z</time>
      </trkpt>
      <trkpt lat="44.5522" lon="1.50437">
        <ele>230.22657775879</ele>
        <time>2021-03-03T16:16:56.417Z</time>
      </trkpt>
      <trkpt lat="44.55237" lon="1.50408">
        <ele>230.7702331543</ele>
        <time>2021-03-03T16:17:00.327Z</time>
      </trkpt>
      <trkpt lat="44.55266" lon="1.50344">
        <ele>232.63305664062</ele>
        <time>2021-03-03T16:17:04.252Z</time>
      </trkpt>
      <trkpt lat="44.553" lon="1.50221">
        <ele>232.10668945312</ele>
        <time>2021-03-03T16:17:08.203Z</time>
      </trkpt>
      <trkpt lat="44.55318" lon="1.5017">
        <ele>230.98556518555</ele>
        <time>2021-03-03T16:17:12.165Z</time>
      </trkpt>
      <trkpt lat="44.55325" lon="1.50122">
        <ele>232.97627258301</ele>
        <time>2021-03-03T16:17:16.137Z</time>
      </trkpt>
      <trkpt lat="44.5532" lon="1.50071">
        <ele>236.19616699219</ele>
        <time>2021-03-03T16:17:20.119Z</time>
      </trkpt>
      <trkpt lat="44.55312" lon="1.50042">
        <ele>237.9582824707</ele>
        <time>2021-03-03T16:17:24.107Z</time>
      </trkpt>
      <trkpt lat="44.55303" lon="1.5002">
        <ele>238.82629394531</ele>
        <time>2021-03-03T16:17:28.100Z</time>
      </trkpt>
      <trkpt lat="44.5529" lon="1.49997">
        <ele>241.14308166504</ele>
        <time>2021-03-03T16:17:32.099Z</time>
      </trkpt>
      <trkpt lat="44.55285" lon="1.49964">
        <ele>241.97550964355</ele>
        <time>2021-03-03T16:17:36.104Z</time>
      </trkpt>
      <trkpt lat="44.55285" lon="1.49925">
        <ele>243.47813415527</ele>
        <time>2021-03-03T16:17:40.117Z</time>
      </trkpt>
      <trkpt lat="44.55288" lon="1.49879">
        <ele>241.19804382324</ele>
        <time>2021-03-03T16:17:44.139Z</time>
      </trkpt>
      <trkpt lat="44.55287" lon="1.49839">
        <ele>242.18099975586</ele>
        <time>2021-03-03T16:17:48.169Z</time>
      </trkpt>
      <trkpt lat="44.5529" lon="1.49762">
        <ele>241.9137878418</ele>
        <time>2021-03-03T16:17:52.214Z</time>
      </trkpt>
      <trkpt lat="44.553" lon="1.49691">
        <ele>241.30822753906</ele>
        <time>2021-03-03T16:17:56.274Z</time>
      </trkpt>
      <trkpt lat="44.55306" lon="1.49634">
        <ele>238.0325012207</ele>
        <time>2021-03-03T16:18:00.345Z</time>
      </trkpt>
      <trkpt lat="44.55305" lon="1.49626">
        <ele>237.80805969238</ele>
        <time>2021-03-03T16:18:04.417Z</time>
      </trkpt>
      <trkpt lat="44.55294" lon="1.49574">
        <ele>238.74078369141</ele>
        <time>2021-03-03T16:18:08.500Z</time>
      </trkpt>
      <trkpt lat="44.55295" lon="1.49545">
        <ele>240.26783752441</ele>
        <time>2021-03-03T16:18:12.589Z</time>
      </trkpt>
      <trkpt lat="44.55307" lon="1.49499">
        <ele>239.0304107666</ele>
        <time>2021-03-03T16:18:16.688Z</time>
      </trkpt>
      <trkpt lat="44.55329" lon="1.49436">
        <ele>236.20878601074</ele>
        <time>2021-03-03T16:18:20.800Z</time>
      </trkpt>
      <trkpt lat="44.55331" lon="1.49422">
        <ele>235.84317016602</ele>
        <time>2021-03-03T16:18:24.915Z</time>
      </trkpt>
      <trkpt lat="44.55329" lon="1.4941">
        <ele>235.71987915039</ele>
        <time>2021-03-03T16:18:29.033Z</time>
      </trkpt>
      <trkpt lat="44.55327" lon="1.49405">
        <ele>235.87553405762</ele>
        <time>2021-03-03T16:18:33.152Z</time>
      </trkpt>
      <trkpt lat="44.55291" lon="1.49358">
        <ele>238.46267700195</ele>
        <time>2021-03-03T16:18:37.284Z</time>
      </trkpt>
      <trkpt lat="44.55291" lon="1.49354">
        <ele>237.90850830078</ele>
        <time>2021-03-03T16:18:41.417Z</time>
      </trkpt>
      <trkpt lat="44.55293" lon="1.49344">
        <ele>236.26599121094</ele>
        <time>2021-03-03T16:18:45.552Z</time>
      </trkpt>
      <trkpt lat="44.55301" lon="1.4932">
        <ele>235.69030761719</ele>
        <time>2021-03-03T16:18:49.693Z</time>
      </trkpt>
      <trkpt lat="44.55314" lon="1.49293">
        <ele>240.75588989258</ele>
        <time>2021-03-03T16:18:53.840Z</time>
      </trkpt>
      <trkpt lat="44.55318" lon="1.49289">
        <ele>241.5378112793</ele>
        <time>2021-03-03T16:18:57.988Z</time>
      </trkpt>
      <trkpt lat="44.55321" lon="1.49289">
        <ele>241.77153015137</ele>
        <time>2021-03-03T16:19:02.137Z</time>
      </trkpt>
      <trkpt lat="44.55326" lon="1.4929">
        <ele>241.48826599121</ele>
        <time>2021-03-03T16:19:06.288Z</time>
      </trkpt>
      <trkpt lat="44.55351" lon="1.49307">
        <ele>236.64898681641</ele>
        <time>2021-03-03T16:19:10.446Z</time>
      </trkpt>
      <trkpt lat="44.55364" lon="1.49302">
        <ele>236.7451171875</ele>
        <time>2021-03-03T16:19:14.608Z</time>
      </trkpt>
      <trkpt lat="44.55411" lon="1.49188">
        <ele>251.39294433594</ele>
        <time>2021-03-03T16:19:18.796Z</time>
      </trkpt>
      <trkpt lat="44.55434" lon="1.49117">
        <ele>259.47546386719</ele>
        <time>2021-03-03T16:19:22.999Z</time>
      </trkpt>
      <trkpt lat="44.55481" lon="1.49018">
        <ele>250.80989074707</ele>
        <time>2021-03-03T16:19:27.226Z</time>
      </trkpt>
      <trkpt lat="44.55487" lon="1.48991">
        <ele>248.54067993164</ele>
        <time>2021-03-03T16:19:31.458Z</time>
      </trkpt>
      <trkpt lat="44.5549" lon="1.48985">
        <ele>247.63291931152</ele>
        <time>2021-03-03T16:19:35.692Z</time>
      </trkpt>
      <trkpt lat="44.55499" lon="1.48976">
        <ele>244.73483276367</ele>
        <time>2021-03-03T16:19:39.929Z</time>
      </trkpt>
      <trkpt lat="44.55529" lon="1.48967">
        <ele>240.34307861328</ele>
        <time>2021-03-03T16:19:44.174Z</time>
      </trkpt>
      <trkpt lat="44.55573" lon="1.48944">
        <ele>246.37579345703</ele>
        <time>2021-03-03T16:19:48.432Z</time>
      </trkpt>
      <trkpt lat="44.55586" lon="1.48933">
        <ele>248.17263793945</ele>
        <time>2021-03-03T16:19:52.694Z</time>
      </trkpt>
      <trkpt lat="44.55619" lon="1.4891">
        <ele>250.07063293457</ele>
        <time>2021-03-03T16:19:56.967Z</time>
      </trkpt>
      <trkpt lat="44.55631" lon="1.48899">
        <ele>252.03266906738</ele>
        <time>2021-03-03T16:20:01.244Z</time>
      </trkpt>
      <trkpt lat="44.55645" lon="1.48882">
        <ele>255.49914550781</ele>
        <time>2021-03-03T16:20:05.526Z</time>
      </trkpt>
      <trkpt lat="44.55658" lon="1.48871">
        <ele>256.43811035156</ele>
        <time>2021-03-03T16:20:09.812Z</time>
      </trkpt>
      <trkpt lat="44.55736" lon="1.48821">
        <ele>252.12899780273</ele>
        <time>2021-03-03T16:20:14.122Z</time>
      </trkpt>
      <trkpt lat="44.55762" lon="1.48801">
        <ele>253.81439208984</ele>
        <time>2021-03-03T16:20:18.440Z</time>
      </trkpt>
      <trkpt lat="44.55781" lon="1.48779">
        <ele>256.5481262207</ele>
        <time>2021-03-03T16:20:22.765Z</time>
      </trkpt>
      <trkpt lat="44.55812" lon="1.48726">
        <ele>258.20092773438</ele>
        <time>2021-03-03T16:20:27.103Z</time>
      </trkpt>
      <trkpt lat="44.55847" lon="1.48681">
        <ele>258.64498901367</ele>
        <time>2021-03-03T16:20:31.454Z</time>
      </trkpt>
      <trkpt lat="44.55902" lon="1.48617">
        <ele>256.54306030273</ele>
        <time>2021-03-03T16:20:35.825Z</time>
      </trkpt>
      <trkpt lat="44.5591" lon="1.48615">
        <ele>255.16957092285</ele>
        <time>2021-03-03T16:20:40.198Z</time>
      </trkpt>
      <trkpt lat="44.55922" lon="1.4863">
        <ele>252.62690734863</ele>
        <time>2021-03-03T16:20:44.576Z</time>
      </trkpt>
      <trkpt lat="44.55936" lon="1.48654">
        <ele>252</ele>
        <time>2021-03-03T16:20:48.960Z</time>
      </trkpt>
      <trkpt lat="44.55937" lon="1.48661">
        <ele>251.87617492676</ele>
        <time>2021-03-03T16:20:53.345Z</time>
      </trkpt>
      <trkpt lat="44.55935" lon="1.48676">
        <ele>251.2547454834</ele>
        <time>2021-03-03T16:20:57.733Z</time>
      </trkpt>
      <trkpt lat="44.5593" lon="1.48692">
        <ele>251</ele>
        <time>2021-03-03T16:21:02.125Z</time>
      </trkpt>
      <trkpt lat="44.55944" lon="1.48703">
        <ele>251</ele>
        <time>2021-03-03T16:21:06.521Z</time>
      </trkpt>
      <trkpt lat="44.55958" lon="1.48699">
        <ele>251.07554626465</ele>
        <time>2021-03-03T16:21:10.921Z</time>
      </trkpt>
      <trkpt lat="44.5603" lon="1.4865">
        <ele>257.40985107422</ele>
        <time>2021-03-03T16:21:15.343Z</time>
      </trkpt>
      <trkpt lat="44.56069" lon="1.48631">
        <ele>261.81173706055</ele>
        <time>2021-03-03T16:21:19.776Z</time>
      </trkpt>
      <trkpt lat="44.56105" lon="1.48623">
        <ele>264.505859375</ele>
        <time>2021-03-03T16:21:24.220Z</time>
      </trkpt>
      <trkpt lat="44.56175" lon="1.48614">
        <ele>266.05239868164</ele>
        <time>2021-03-03T16:21:28.683Z</time>
      </trkpt>
      <trkpt lat="44.56197" lon="1.48617">
        <ele>267.99118041992</ele>
        <time>2021-03-03T16:21:33.152Z</time>
      </trkpt>
      <trkpt lat="44.56221" lon="1.48625">
        <ele>267.86169433594</ele>
        <time>2021-03-03T16:21:37.628Z</time>
      </trkpt>
      <trkpt lat="44.56226" lon="1.48629">
        <ele>267.48315429688</ele>
        <time>2021-03-03T16:21:42.105Z</time>
      </trkpt>
      <trkpt lat="44.56238" lon="1.48647">
        <ele>265.1706237793</ele>
        <time>2021-03-03T16:21:46.587Z</time>
      </trkpt>
      <trkpt lat="44.56253" lon="1.48664">
        <ele>262.59567260742</ele>
        <time>2021-03-03T16:21:51.075Z</time>
      </trkpt>
      <trkpt lat="44.56264" lon="1.48673">
        <ele>261.99295043945</ele>
        <time>2021-03-03T16:21:55.566Z</time>
      </trkpt>
      <trkpt lat="44.56276" lon="1.48678">
        <ele>262.14862060547</ele>
        <time>2021-03-03T16:22:00.061Z</time>
      </trkpt>
      <trkpt lat="44.56287" lon="1.48681">
        <ele>262.14364624023</ele>
        <time>2021-03-03T16:22:04.559Z</time>
      </trkpt>
      <trkpt lat="44.56309" lon="1.48682">
        <ele>263.55822753906</ele>
        <time>2021-03-03T16:22:09.063Z</time>
      </trkpt>
      <trkpt lat="44.56331" lon="1.48679">
        <ele>263.44842529297</ele>
        <time>2021-03-03T16:22:13.573Z</time>
      </trkpt>
      <trkpt lat="44.56342" lon="1.48681">
        <ele>262.67779541016</ele>
        <time>2021-03-03T16:22:18.086Z</time>
      </trkpt>
      <trkpt lat="44.56356" lon="1.48694">
        <ele>259</ele>
        <time>2021-03-03T16:22:22.604Z</time>
      </trkpt>
      <trkpt lat="44.56365" lon="1.48716">
        <ele>259.06860351562</ele>
        <time>2021-03-03T16:22:27.127Z</time>
      </trkpt>
      <trkpt lat="44.56367" lon="1.48733">
        <ele>259.70831298828</ele>
        <time>2021-03-03T16:22:31.653Z</time>
      </trkpt>
      <trkpt lat="44.56357" lon="1.48747">
        <ele>259.77084350586</ele>
        <time>2021-03-03T16:22:36.183Z</time>
      </trkpt>
      <trkpt lat="44.56343" lon="1.48753">
        <ele>260.37030029297</ele>
        <time>2021-03-03T16:22:40.717Z</time>
      </trkpt>
      <trkpt lat="44.56335" lon="1.48752">
        <ele>260.25259399414</ele>
        <time>2021-03-03T16:22:45.253Z</time>
      </trkpt>
      <trkpt lat="44.56244" lon="1.48755">
        <ele>262.05633544922</ele>
        <time>2021-03-03T16:22:49.814Z</time>
      </trkpt>
      <trkpt lat="44.56212" lon="1.48746">
        <ele>263.52081298828</ele>
        <time>2021-03-03T16:22:54.384Z</time>
      </trkpt>
      <trkpt lat="44.5616" lon="1.48724">
        <ele>261.83242797852</ele>
        <time>2021-03-03T16:22:58.969Z</time>
      </trkpt>
      <trkpt lat="44.56126" lon="1.48723">
        <ele>259.14038085938</ele>
        <time>2021-03-03T16:23:03.564Z</time>
      </trkpt>
      <trkpt lat="44.56111" lon="1.48725">
        <ele>258.3747253418</ele>
        <time>2021-03-03T16:23:08.163Z</time>
      </trkpt>
      <trkpt lat="44.56039" lon="1.48763">
        <ele>258.14300537109</ele>
        <time>2021-03-03T16:23:12.783Z</time>
      </trkpt>
      <trkpt lat="44.55976" lon="1.48804">
        <ele>254.21922302246</ele>
        <time>2021-03-03T16:23:17.422Z</time>
      </trkpt>
      <trkpt lat="44.55901" lon="1.48846">
        <ele>257.68692016602</ele>
        <time>2021-03-03T16:23:22.083Z</time>
      </trkpt>
      <trkpt lat="44.55871" lon="1.48854">
        <ele>254.57919311523</ele>
        <time>2021-03-03T16:23:26.753Z</time>
      </trkpt>
      <trkpt lat="44.55862" lon="1.48854">
        <ele>252.73684692383</ele>
        <time>2021-03-03T16:23:31.425Z</time>
      </trkpt>
      <trkpt lat="44.55854" lon="1.48851">
        <ele>251.59020996094</ele>
        <time>2021-03-03T16:23:36.100Z</time>
      </trkpt>
      <trkpt lat="44.55844" lon="1.48852">
        <ele>250.35514831543</ele>
        <time>2021-03-03T16:23:40.777Z</time>
      </trkpt>
      <trkpt lat="44.55817" lon="1.48874">
        <ele>250.5265045166</ele>
        <time>2021-03-03T16:23:45.463Z</time>
      </trkpt>
      <trkpt lat="44.55794" lon="1.48899">
        <ele>250.23399353027</ele>
        <time>2021-03-03T16:23:50.157Z</time>
      </trkpt>
      <trkpt lat="44.55775" lon="1.48922">
        <ele>249.12269592285</ele>
        <time>2021-03-03T16:23:54.858Z</time>
      </trkpt>
      <trkpt lat="44.55751" lon="1.48943">
        <ele>247.75988769531</ele>
        <time>2021-03-03T16:23:59.567Z</time>
      </trkpt>
      <trkpt lat="44.55713" lon="1.48972">
        <ele>243.36500549316</ele>
        <time>2021-03-03T16:24:04.288Z</time>
      </trkpt>
      <trkpt lat="44.55671" lon="1.49013">
        <ele>241.42945861816</ele>
        <time>2021-03-03T16:24:09.023Z</time>
      </trkpt>
      <trkpt lat="44.5566" lon="1.49021">
        <ele>242.23004150391</ele>
        <time>2021-03-03T16:24:13.761Z</time>
      </trkpt>
      <trkpt lat="44.55629" lon="1.4904">
        <ele>245.59048461914</ele>
        <time>2021-03-03T16:24:18.509Z</time>
      </trkpt>
      <trkpt lat="44.556" lon="1.49053">
        <ele>245.96122741699</ele>
        <time>2021-03-03T16:24:23.265Z</time>
      </trkpt>
      <trkpt lat="44.55565" lon="1.49074">
        <ele>243.4387512207</ele>
        <time>2021-03-03T16:24:28.031Z</time>
      </trkpt>
      <trkpt lat="44.5556" lon="1.49079">
        <ele>242.48699951172</ele>
        <time>2021-03-03T16:24:32.799Z</time>
      </trkpt>
      <trkpt lat="44.55548" lon="1.49098">
        <ele>243.78689575195</ele>
        <time>2021-03-03T16:24:37.572Z</time>
      </trkpt>
      <trkpt lat="44.55526" lon="1.49159">
        <ele>248.45629882812</ele>
        <time>2021-03-03T16:24:42.359Z</time>
      </trkpt>
      <trkpt lat="44.55481" lon="1.49267">
        <ele>246.81663513184</ele>
        <time>2021-03-03T16:24:47.170Z</time>
      </trkpt>
      <trkpt lat="44.55428" lon="1.4939">
        <ele>246.22196960449</ele>
        <time>2021-03-03T16:24:52.010Z</time>
      </trkpt>
      <trkpt lat="44.55423" lon="1.49399">
        <ele>245.08326721191</ele>
        <time>2021-03-03T16:24:56.852Z</time>
      </trkpt>
      <trkpt lat="44.55411" lon="1.49412">
        <ele>242.58729553223</ele>
        <time>2021-03-03T16:25:01.698Z</time>
      </trkpt>
      <trkpt lat="44.55405" lon="1.49415">
        <ele>241.13206481934</ele>
        <time>2021-03-03T16:25:06.546Z</time>
      </trkpt>
      <trkpt lat="44.55395" lon="1.49417">
        <ele>238.2145690918</ele>
        <time>2021-03-03T16:25:11.397Z</time>
      </trkpt>
      <trkpt lat="44.55388" lon="1.49424">
        <ele>236.92631530762</ele>
        <time>2021-03-03T16:25:16.250Z</time>
      </trkpt>
      <trkpt lat="44.55387" lon="1.49436">
        <ele>237.17549133301</ele>
        <time>2021-03-03T16:25:21.105Z</time>
      </trkpt>
      <trkpt lat="44.55397" lon="1.49485">
        <ele>241.02061462402</ele>
        <time>2021-03-03T16:25:25.970Z</time>
      </trkpt>
      <trkpt lat="44.55395" lon="1.49526">
        <ele>241.43725585938</ele>
        <time>2021-03-03T16:25:30.844Z</time>
      </trkpt>
      <trkpt lat="44.55385" lon="1.49584">
        <ele>242.47395324707</ele>
        <time>2021-03-03T16:25:35.729Z</time>
      </trkpt>
      <trkpt lat="44.55374" lon="1.49632">
        <ele>243.33164978027</ele>
        <time>2021-03-03T16:25:40.624Z</time>
      </trkpt>
      <trkpt lat="44.55367" lon="1.49657">
        <ele>242.2622833252</ele>
        <time>2021-03-03T16:25:45.525Z</time>
      </trkpt>
      <trkpt lat="44.55351" lon="1.49694">
        <ele>240.98068237305</ele>
        <time>2021-03-03T16:25:50.434Z</time>
      </trkpt>
      <trkpt lat="44.55345" lon="1.49714">
        <ele>240.0908203125</ele>
        <time>2021-03-03T16:25:55.347Z</time>
      </trkpt>
      <trkpt lat="44.55339" lon="1.49735">
        <ele>238.58274841309</ele>
        <time>2021-03-03T16:26:00.265Z</time>
      </trkpt>
      <trkpt lat="44.55333" lon="1.4978">
        <ele>236.90966796875</ele>
        <time>2021-03-03T16:26:05.192Z</time>
      </trkpt>
      <trkpt lat="44.55332" lon="1.49813">
        <ele>235.90924072266</ele>
        <time>2021-03-03T16:26:10.125Z</time>
      </trkpt>
      <trkpt lat="44.55336" lon="1.49867">
        <ele>235.95806884766</ele>
        <time>2021-03-03T16:26:15.069Z</time>
      </trkpt>
      <trkpt lat="44.55347" lon="1.49943">
        <ele>237.63381958008</ele>
        <time>2021-03-03T16:26:20.028Z</time>
      </trkpt>
      <trkpt lat="44.55345" lon="1.50027">
        <ele>236.08338928223</ele>
        <time>2021-03-03T16:26:25.004Z</time>
      </trkpt>
      <trkpt lat="44.55348" lon="1.50059">
        <ele>238.03282165527</ele>
        <time>2021-03-03T16:26:29.986Z</time>
      </trkpt>
      <trkpt lat="44.55357" lon="1.50097">
        <ele>236.21200561523</ele>
        <time>2021-03-03T16:26:34.976Z</time>
      </trkpt>
      <trkpt lat="44.55387" lon="1.50179">
        <ele>236.74153137207</ele>
        <time>2021-03-03T16:26:39.984Z</time>
      </trkpt>
      <trkpt lat="44.55395" lon="1.50197">
        <ele>236.88032531738</ele>
        <time>2021-03-03T16:26:44.997Z</time>
      </trkpt>
      <trkpt lat="44.55405" lon="1.50205">
        <ele>238.91928100586</ele>
        <time>2021-03-03T16:26:50.013Z</time>
      </trkpt>
      <trkpt lat="44.55422" lon="1.50209">
        <ele>242.70556640625</ele>
        <time>2021-03-03T16:26:55.034Z</time>
      </trkpt>
      <trkpt lat="44.55432" lon="1.50216">
        <ele>243.94993591309</ele>
        <time>2021-03-03T16:27:00.058Z</time>
      </trkpt>
      <trkpt lat="44.55459" lon="1.50243">
        <ele>248.08329772949</ele>
        <time>2021-03-03T16:27:05.091Z</time>
      </trkpt>
      <trkpt lat="44.55469" lon="1.50259">
        <ele>249.89855957031</ele>
        <time>2021-03-03T16:27:10.128Z</time>
      </trkpt>
      <trkpt lat="44.55483" lon="1.50291">
        <ele>253.54678344727</ele>
        <time>2021-03-03T16:27:15.172Z</time>
      </trkpt>
      <trkpt lat="44.55497" lon="1.50312">
        <ele>257.14859008789</ele>
        <time>2021-03-03T16:27:20.222Z</time>
      </trkpt>
      <trkpt lat="44.55523" lon="1.50345">
        <ele>261.10174560547</ele>
        <time>2021-03-03T16:27:25.282Z</time>
      </trkpt>
      <trkpt lat="44.55541" lon="1.50358">
        <ele>265.00399780273</ele>
        <time>2021-03-03T16:27:30.347Z</time>
      </trkpt>
      <trkpt lat="44.55549" lon="1.50361">
        <ele>266.92984008789</ele>
        <time>2021-03-03T16:27:35.415Z</time>
      </trkpt>
      <trkpt lat="44.55554" lon="1.50367">
        <ele>268.64404296875</ele>
        <time>2021-03-03T16:27:40.484Z</time>
      </trkpt>
      <trkpt lat="44.55555" lon="1.50372">
        <ele>269.2546081543</ele>
        <time>2021-03-03T16:27:45.555Z</time>
      </trkpt>
      <trkpt lat="44.55554" lon="1.50376">
        <ele>269.16711425781</ele>
        <time>2021-03-03T16:27:50.626Z</time>
      </trkpt>
      <trkpt lat="44.55548" lon="1.50382">
        <ele>268.54766845703</ele>
        <time>2021-03-03T16:27:55.699Z</time>
      </trkpt>
      <trkpt lat="44.55541" lon="1.50387">
        <ele>268.79565429688</ele>
        <time>2021-03-03T16:28:00.775Z</time>
      </trkpt>
      <trkpt lat="44.55505" lon="1.504">
        <ele>270.89410400391</ele>
        <time>2021-03-03T16:28:05.861Z</time>
      </trkpt>
      <trkpt lat="44.55488" lon="1.50402">
        <ele>272.68524169922</ele>
        <time>2021-03-03T16:28:10.952Z</time>
      </trkpt>
      <trkpt lat="44.55476" lon="1.504">
        <ele>272.37069702148</ele>
        <time>2021-03-03T16:28:16.046Z</time>
      </trkpt>
      <trkpt lat="44.55475" lon="1.50405">
        <ele>273.501953125</ele>
        <time>2021-03-03T16:28:21.141Z</time>
      </trkpt>
      <trkpt lat="44.5551" lon="1.50427">
        <ele>278.61584472656</ele>
        <time>2021-03-03T16:28:26.246Z</time>
      </trkpt>
      <trkpt lat="44.55523" lon="1.50432">
        <ele>279.53649902344</ele>
        <time>2021-03-03T16:28:31.355Z</time>
      </trkpt>
      <trkpt lat="44.55553" lon="1.50451">
        <ele>287.66464233398</ele>
        <time>2021-03-03T16:28:36.473Z</time>
      </trkpt>
      <trkpt lat="44.55556" lon="1.50455">
        <ele>289.23300170898</ele>
        <time>2021-03-03T16:28:41.593Z</time>
      </trkpt>
      <trkpt lat="44.55571" lon="1.5046">
        <ele>292.36517333984</ele>
        <time>2021-03-03T16:28:46.717Z</time>
      </trkpt>
      <trkpt lat="44.556" lon="1.50466">
        <ele>297.20217895508</ele>
        <time>2021-03-03T16:28:51.849Z</time>
      </trkpt>
      <trkpt lat="44.55616" lon="1.50464">
        <ele>298.86288452148</ele>
        <time>2021-03-03T16:28:56.985Z</time>
      </trkpt>
      <trkpt lat="44.55644" lon="1.50456">
        <ele>302.84048461914</ele>
        <time>2021-03-03T16:29:02.129Z</time>
      </trkpt>
      <trkpt lat="44.55653" lon="1.50457">
        <ele>304.12728881836</ele>
        <time>2021-03-03T16:29:07.276Z</time>
      </trkpt>
      <trkpt lat="44.55668" lon="1.50455">
        <ele>306.93188476562</ele>
        <time>2021-03-03T16:29:12.427Z</time>
      </trkpt>
      <trkpt lat="44.55685" lon="1.50447">
        <ele>307.77096557617</ele>
        <time>2021-03-03T16:29:17.583Z</time>
      </trkpt>
      <trkpt lat="44.55718" lon="1.50442">
        <ele>308.79541015625</ele>
        <time>2021-03-03T16:29:22.748Z</time>
      </trkpt>
      <trkpt lat="44.5577" lon="1.5036">
        <ele>311.29116821289</ele>
        <time>2021-03-03T16:29:27.934Z</time>
      </trkpt>
      <trkpt lat="44.55782" lon="1.50344">
        <ele>312.7434387207</ele>
        <time>2021-03-03T16:29:33.125Z</time>
      </trkpt>
      <trkpt lat="44.55798" lon="1.5033">
        <ele>314.98840332031</ele>
        <time>2021-03-03T16:29:38.321Z</time>
      </trkpt>
      <trkpt lat="44.5585" lon="1.50264">
        <ele>321.70483398438</ele>
        <time>2021-03-03T16:29:43.536Z</time>
      </trkpt>
      <trkpt lat="44.55869" lon="1.50244">
        <ele>324.85470581055</ele>
        <time>2021-03-03T16:29:48.758Z</time>
      </trkpt>
      <trkpt lat="44.55908" lon="1.50207">
        <ele>330.22860717773</ele>
        <time>2021-03-03T16:29:53.993Z</time>
      </trkpt>
      <trkpt lat="44.55933" lon="1.50185">
        <ele>331.87002563477</ele>
        <time>2021-03-03T16:29:59.236Z</time>
      </trkpt>
      <trkpt lat="44.55946" lon="1.50168">
        <ele>333.92077636719</ele>
        <time>2021-03-03T16:30:04.484Z</time>
      </trkpt>
      <trkpt lat="44.55952" lon="1.50164">
        <ele>334.4072265625</ele>
        <time>2021-03-03T16:30:09.734Z</time>
      </trkpt>
      <trkpt lat="44.55985" lon="1.50132">
        <ele>336.86370849609</ele>
        <time>2021-03-03T16:30:14.995Z</time>
      </trkpt>
      <trkpt lat="44.55998" lon="1.50114">
        <ele>337.82916259766</ele>
        <time>2021-03-03T16:30:20.261Z</time>
      </trkpt>
      <trkpt lat="44.56014" lon="1.50097">
        <ele>338.06069946289</ele>
        <time>2021-03-03T16:30:25.533Z</time>
      </trkpt>
      <trkpt lat="44.56032" lon="1.50071">
        <ele>340.33792114258</ele>
        <time>2021-03-03T16:30:30.812Z</time>
      </trkpt>
      <trkpt lat="44.56049" lon="1.50044">
        <ele>342.58880615234</ele>
        <time>2021-03-03T16:30:36.098Z</time>
      </trkpt>
      <trkpt lat="44.56062" lon="1.5002">
        <ele>345.45092773438</ele>
        <time>2021-03-03T16:30:41.390Z</time>
      </trkpt>
      <trkpt lat="44.56065" lon="1.50016">
        <ele>345.70309448242</ele>
        <time>2021-03-03T16:30:46.683Z</time>
      </trkpt>
      <trkpt lat="44.56067" lon="1.50011">
        <ele>345.95831298828</ele>
        <time>2021-03-03T16:30:51.977Z</time>
      </trkpt>
      <trkpt lat="44.56068" lon="1.50011">
        <ele>345.98696899414</ele>
        <time>2021-03-03T16:30:57.272Z</time>
      </trkpt>
      <trkpt lat="44.56064" lon="1.50015">
        <ele>345.6979675293</ele>
        <time>2021-03-03T16:31:02.568Z</time>
      </trkpt>
      <trkpt lat="44.56068" lon="1.50012">
        <ele>345.95257568359</ele>
        <time>2021-03-03T16:31:07.865Z</time>
      </trkpt>
      <trkpt lat="44.56063" lon="1.50013">
        <ele>345.74322509766</ele>
        <time>2021-03-03T16:31:13.163Z</time>
      </trkpt>
      <trkpt lat="44.56061" lon="1.5002">
        <ele>345.41925048828</ele>
        <time>2021-03-03T16:31:18.463Z</time>
      </trkpt>
      <trkpt lat="44.56062" lon="1.50022">
        <ele>345.41229248047</ele>
        <time>2021-03-03T16:31:23.763Z</time>
      </trkpt>
      <trkpt lat="44.56076" lon="1.49999">
        <ele>347.38446044922</ele>
        <time>2021-03-03T16:31:29.069Z</time>
      </trkpt>
      <trkpt lat="44.56087" lon="1.4998">
        <ele>348.73880004883</ele>
        <time>2021-03-03T16:31:34.380Z</time>
      </trkpt>
      <trkpt lat="44.56103" lon="1.4997">
        <ele>349.73211669922</ele>
        <time>2021-03-03T16:31:39.696Z</time>
      </trkpt>
      <trkpt lat="44.56155" lon="1.49982">
        <ele>349.82238769531</ele>
        <time>2021-03-03T16:31:45.026Z</time>
      </trkpt>
      <trkpt lat="44.56225" lon="1.50012">
        <ele>345.83660888672</ele>
        <time>2021-03-03T16:31:50.377Z</time>
      </trkpt>
      <trkpt lat="44.56318" lon="1.50063">
        <ele>344.71710205078</ele>
        <time>2021-03-03T16:31:55.755Z</time>
      </trkpt>
      <trkpt lat="44.56481" lon="1.50198">
        <ele>352.47521972656</ele>
        <time>2021-03-03T16:32:01.185Z</time>
      </trkpt>
      <trkpt lat="44.5661" lon="1.50327">
        <ele>355.09020996094</ele>
        <time>2021-03-03T16:32:06.659Z</time>
      </trkpt>
      <trkpt lat="44.56778" lon="1.50511">
        <ele>348.30810546875</ele>
        <time>2021-03-03T16:32:12.192Z</time>
      </trkpt>
      <trkpt lat="44.56834" lon="1.50545">
        <ele>352.61029052734</ele>
        <time>2021-03-03T16:32:17.742Z</time>
      </trkpt>
      <trkpt lat="44.56965" lon="1.5058">
        <ele>360.60992431641</ele>
        <time>2021-03-03T16:32:23.329Z</time>
      </trkpt>
      <trkpt lat="44.57035" lon="1.50608">
        <ele>363.26425170898</ele>
        <time>2021-03-03T16:32:28.936Z</time>
      </trkpt>
      <trkpt lat="44.57128" lon="1.50724">
        <ele>360</ele>
        <time>2021-03-03T16:32:34.577Z</time>
      </trkpt>
      <trkpt lat="44.57128" lon="1.50724">
        <ele>360</ele>
        <time>2021-03-03T16:32:40.218Z</time>
      </trkpt>
      <trkpt lat="44.57187" lon="1.50775">
        <ele>363.93505859375</ele>
        <time>2021-03-03T16:32:45.878Z</time>
      </trkpt>
      <trkpt lat="44.57266" lon="1.50859">
        <ele>372.00479125977</ele>
        <time>2021-03-03T16:32:51.566Z</time>
      </trkpt>
      <trkpt lat="44.57343" lon="1.50904">
        <ele>373.28253173828</ele>
        <time>2021-03-03T16:32:57.277Z</time>
      </trkpt>
      <trkpt lat="44.5736" lon="1.50923">
        <ele>373.6982421875</ele>
        <time>2021-03-03T16:33:02.994Z</time>
      </trkpt>
      <trkpt lat="44.574" lon="1.50996">
        <ele>372.67095947266</ele>
        <time>2021-03-03T16:33:08.729Z</time>
      </trkpt>
      <trkpt lat="44.57467" lon="1.5105">
        <ele>372</ele>
        <time>2021-03-03T16:33:14.485Z</time>
      </trkpt>
      <trkpt lat="44.57539" lon="1.51087">
        <ele>370</ele>
        <time>2021-03-03T16:33:20.262Z</time>
      </trkpt>
      <trkpt lat="44.57547" lon="1.51106">
        <ele>369.81408691406</ele>
        <time>2021-03-03T16:33:26.044Z</time>
      </trkpt>
      <trkpt lat="44.57539" lon="1.51126">
        <ele>369.31042480469</ele>
        <time>2021-03-03T16:33:31.830Z</time>
      </trkpt>
      <trkpt lat="44.57539" lon="1.51126">
        <ele>369.31011962891</ele>
        <time>2021-03-03T16:33:37.616Z</time>
      </trkpt>
      <trkpt lat="44.57577" lon="1.51151">
        <ele>370</ele>
        <time>2021-03-03T16:33:43.414Z</time>
      </trkpt>
      <trkpt lat="44.57657" lon="1.51211">
        <ele>372.55755615234</ele>
        <time>2021-03-03T16:33:49.237Z</time>
      </trkpt>
      <trkpt lat="44.5814" lon="1.51274">
        <ele>385.8671875</ele>
        <time>2021-03-03T16:33:55.194Z</time>
      </trkpt>
      <trkpt lat="44.58212" lon="1.51297">
        <ele>386.67807006836</ele>
        <time>2021-03-03T16:34:01.171Z</time>
      </trkpt>
      <trkpt lat="44.584" lon="1.51388">
        <ele>390.95016479492</ele>
        <time>2021-03-03T16:34:07.203Z</time>
      </trkpt>
      <trkpt lat="44.58374" lon="1.51524">
        <ele>386.78002929688</ele>
        <time>2021-03-03T16:34:13.263Z</time>
      </trkpt>
      <trkpt lat="44.5837" lon="1.51585">
        <ele>385.70666503906</ele>
        <time>2021-03-03T16:34:19.335Z</time>
      </trkpt>
      <trkpt lat="44.5837" lon="1.51585">
        <ele>385.7057800293</ele>
        <time>2021-03-03T16:34:25.407Z</time>
      </trkpt>
      <trkpt lat="44.58375" lon="1.51616">
        <ele>386.57727050781</ele>
        <time>2021-03-03T16:34:31.485Z</time>
      </trkpt>
      <trkpt lat="44.58391" lon="1.51629">
        <ele>389.23406982422</ele>
        <time>2021-03-03T16:34:37.568Z</time>
      </trkpt>
      <trkpt lat="44.58479" lon="1.51606">
        <ele>393.62484741211</ele>
        <time>2021-03-03T16:34:43.676Z</time>
      </trkpt>
      <trkpt lat="44.58605" lon="1.51601">
        <ele>396.70291137695</ele>
        <time>2021-03-03T16:34:49.819Z</time>
      </trkpt>
      <trkpt lat="44.58644" lon="1.51665">
        <ele>391.31451416016</ele>
        <time>2021-03-03T16:34:55.978Z</time>
      </trkpt>
      <trkpt lat="44.5866" lon="1.51719">
        <ele>385.95477294922</ele>
        <time>2021-03-03T16:35:02.149Z</time>
      </trkpt>
      <trkpt lat="44.58646" lon="1.51848">
        <ele>371.47479248047</ele>
        <time>2021-03-03T16:35:08.346Z</time>
      </trkpt>
      <trkpt lat="44.58545" lon="1.51847">
        <ele>361.52917480469</ele>
        <time>2021-03-03T16:35:14.570Z</time>
      </trkpt>
      <trkpt lat="44.58502" lon="1.51861">
        <ele>357.97689819336</ele>
        <time>2021-03-03T16:35:20.807Z</time>
      </trkpt>
      <trkpt lat="44.5845" lon="1.51892">
        <ele>351.74160766602</ele>
        <time>2021-03-03T16:35:27.059Z</time>
      </trkpt>
      <trkpt lat="44.58395" lon="1.51881">
        <ele>344.93029785156</ele>
        <time>2021-03-03T16:35:33.327Z</time>
      </trkpt>
      <trkpt lat="44.5828" lon="1.51885">
        <ele>329.45291137695</ele>
        <time>2021-03-03T16:35:39.626Z</time>
      </trkpt>
      <trkpt lat="44.58041" lon="1.51869">
        <ele>309.40194702148</ele>
        <time>2021-03-03T16:35:45.991Z</time>
      </trkpt>
      <trkpt lat="44.57817" lon="1.51812">
        <ele>307.56185913086</ele>
        <time>2021-03-03T16:35:52.419Z</time>
      </trkpt>
      <trkpt lat="44.57748" lon="1.51786">
        <ele>305.12530517578</ele>
        <time>2021-03-03T16:35:58.867Z</time>
      </trkpt>
      <trkpt lat="44.5765" lon="1.51808">
        <ele>294.47720336914</ele>
        <time>2021-03-03T16:36:05.342Z</time>
      </trkpt>
      <trkpt lat="44.57592" lon="1.51839">
        <ele>290.02914428711</ele>
        <time>2021-03-03T16:36:11.834Z</time>
      </trkpt>
      <trkpt lat="44.57481" lon="1.51916">
        <ele>283.59066772461</ele>
        <time>2021-03-03T16:36:18.361Z</time>
      </trkpt>
      <trkpt lat="44.57423" lon="1.52048">
        <ele>284.11920166016</ele>
        <time>2021-03-03T16:36:24.918Z</time>
      </trkpt>
      <trkpt lat="44.57384" lon="1.52123">
        <ele>283.07046508789</ele>
        <time>2021-03-03T16:36:31.493Z</time>
      </trkpt>
      <trkpt lat="44.57335" lon="1.52199">
        <ele>272.20440673828</ele>
        <time>2021-03-03T16:36:38.089Z</time>
      </trkpt>
      <trkpt lat="44.57325" lon="1.52239">
        <ele>271.29797363281</ele>
        <time>2021-03-03T16:36:44.693Z</time>
      </trkpt>
      <trkpt lat="44.5731" lon="1.52271">
        <ele>269.90982055664</ele>
        <time>2021-03-03T16:36:51.305Z</time>
      </trkpt>
      <trkpt lat="44.57291" lon="1.52294">
        <ele>271.58929443359</ele>
        <time>2021-03-03T16:36:57.923Z</time>
      </trkpt>
      <trkpt lat="44.57291" lon="1.52294">
        <ele>271.58898925781</ele>
        <time>2021-03-03T16:37:04.541Z</time>
      </trkpt>
      <trkpt lat="44.57394" lon="1.52383">
        <ele>281.50903320312</ele>
        <time>2021-03-03T16:37:11.193Z</time>
      </trkpt>
      <trkpt lat="44.57444" lon="1.52445">
        <ele>280.41546630859</ele>
        <time>2021-03-03T16:37:17.863Z</time>
      </trkpt>
      <trkpt lat="44.57451" lon="1.52538">
        <ele>291.63681030273</ele>
        <time>2021-03-03T16:37:24.552Z</time>
      </trkpt>
      <trkpt lat="44.57451" lon="1.52538">
        <ele>291.63558959961</ele>
        <time>2021-03-03T16:37:31.241Z</time>
      </trkpt>
      <trkpt lat="44.57452" lon="1.52546">
        <ele>292.60214233398</ele>
        <time>2021-03-03T16:37:37.931Z</time>
      </trkpt>
      <trkpt lat="44.57452" lon="1.52546">
        <ele>292.60092163086</ele>
        <time>2021-03-03T16:37:44.621Z</time>
      </trkpt>
      <trkpt lat="44.5743" lon="1.52619">
        <ele>298.56854248047</ele>
        <time>2021-03-03T16:37:51.327Z</time>
      </trkpt>
      <trkpt lat="44.5743" lon="1.5272">
        <ele>308.0358581543</ele>
        <time>2021-03-03T16:37:58.053Z</time>
      </trkpt>
      <trkpt lat="44.57421" lon="1.52731">
        <ele>308.64416503906</ele>
        <time>2021-03-03T16:38:04.782Z</time>
      </trkpt>
      <trkpt lat="44.57409" lon="1.52734">
        <ele>310.35321044922</ele>
        <time>2021-03-03T16:38:11.515Z</time>
      </trkpt>
      <trkpt lat="44.57382" lon="1.52712">
        <ele>313.69104003906</ele>
        <time>2021-03-03T16:38:18.256Z</time>
      </trkpt>
      <trkpt lat="44.57374" lon="1.52697">
        <ele>315.04251098633</ele>
        <time>2021-03-03T16:38:25.001Z</time>
      </trkpt>
      <trkpt lat="44.57367" lon="1.52512">
        <ele>316.96807861328</ele>
        <time>2021-03-03T16:38:31.783Z</time>
      </trkpt>
      <trkpt lat="44.57338" lon="1.52478">
        <ele>316.80072021484</ele>
        <time>2021-03-03T16:38:38.575Z</time>
      </trkpt>
      <trkpt lat="44.57314" lon="1.52469">
        <ele>317.94497680664</ele>
        <time>2021-03-03T16:38:45.374Z</time>
      </trkpt>
      <trkpt lat="44.57289" lon="1.52469">
        <ele>318.74847412109</ele>
        <time>2021-03-03T16:38:52.180Z</time>
      </trkpt>
      <trkpt lat="44.57116" lon="1.52615">
        <ele>334.15222167969</ele>
        <time>2021-03-03T16:38:59.041Z</time>
      </trkpt>
      <trkpt lat="44.57102" lon="1.52648">
        <ele>335.81103515625</ele>
        <time>2021-03-03T16:39:05.910Z</time>
      </trkpt>
      <trkpt lat="44.57085" lon="1.52745">
        <ele>342.03717041016</ele>
        <time>2021-03-03T16:39:12.799Z</time>
      </trkpt>
      <trkpt lat="44.57072" lon="1.52782">
        <ele>346.31951904297</ele>
        <time>2021-03-03T16:39:19.696Z</time>
      </trkpt>
      <trkpt lat="44.57031" lon="1.52891">
        <ele>351.86163330078</ele>
        <time>2021-03-03T16:39:26.617Z</time>
      </trkpt>
      <trkpt lat="44.57019" lon="1.5291">
        <ele>352.84848022461</ele>
        <time>2021-03-03T16:39:33.543Z</time>
      </trkpt>
      <trkpt lat="44.56962" lon="1.52972">
        <ele>357.95309448242</ele>
        <time>2021-03-03T16:39:40.489Z</time>
      </trkpt>
      <trkpt lat="44.5693" lon="1.53017">
        <ele>361.89093017578</ele>
        <time>2021-03-03T16:39:47.448Z</time>
      </trkpt>
      <trkpt lat="44.5693" lon="1.53017">
        <ele>361.89154052734</ele>
        <time>2021-03-03T16:39:54.407Z</time>
      </trkpt>
      <trkpt lat="44.56893" lon="1.53083">
        <ele>365.93496704102</ele>
        <time>2021-03-03T16:40:01.382Z</time>
      </trkpt>
      <trkpt lat="44.56872" lon="1.53211">
        <ele>372.23211669922</ele>
        <time>2021-03-03T16:40:08.383Z</time>
      </trkpt>
      <trkpt lat="44.56835" lon="1.53244">
        <ele>373</ele>
        <time>2021-03-03T16:40:15.396Z</time>
      </trkpt>
      <trkpt lat="44.56824" lon="1.53268">
        <ele>374</ele>
        <time>2021-03-03T16:40:22.415Z</time>
      </trkpt>
      <trkpt lat="44.5682" lon="1.53279">
        <ele>374</ele>
        <time>2021-03-03T16:40:29.436Z</time>
      </trkpt>
      <trkpt lat="44.56853" lon="1.53279">
        <ele>373.3600769043</ele>
        <time>2021-03-03T16:40:36.466Z</time>
      </trkpt>
      <trkpt lat="44.56877" lon="1.53267">
        <ele>373</ele>
        <time>2021-03-03T16:40:43.503Z</time>
      </trkpt>
      <trkpt lat="44.56903" lon="1.53269">
        <ele>372.09765625</ele>
        <time>2021-03-03T16:40:50.548Z</time>
      </trkpt>
      <trkpt lat="44.5692" lon="1.53302">
        <ele>369.1298828125</ele>
        <time>2021-03-03T16:40:57.601Z</time>
      </trkpt>
      <trkpt lat="44.5692" lon="1.53302">
        <ele>369.13198852539</ele>
        <time>2021-03-03T16:41:04.654Z</time>
      </trkpt>
      <trkpt lat="44.56934" lon="1.53328">
        <ele>365.25619506836</ele>
        <time>2021-03-03T16:41:11.713Z</time>
      </trkpt>
      <trkpt lat="44.56968" lon="1.53395">
        <ele>357.06539916992</ele>
        <time>2021-03-03T16:41:18.788Z</time>
      </trkpt>
      <trkpt lat="44.5703" lon="1.53485">
        <ele>347.99249267578</ele>
        <time>2021-03-03T16:41:25.888Z</time>
      </trkpt>
      <trkpt lat="44.57041" lon="1.53492">
        <ele>347.60635375977</ele>
        <time>2021-03-03T16:41:32.991Z</time>
      </trkpt>
      <trkpt lat="44.57094" lon="1.53499">
        <ele>349.97378540039</ele>
        <time>2021-03-03T16:41:40.109Z</time>
      </trkpt>
      <trkpt lat="44.57093" lon="1.5353">
        <ele>348.79327392578</ele>
        <time>2021-03-03T16:41:47.233Z</time>
      </trkpt>
      <trkpt lat="44.57012" lon="1.53655">
        <ele>347.69369506836</ele>
        <time>2021-03-03T16:41:54.391Z</time>
      </trkpt>
      <trkpt lat="44.56992" lon="1.53663">
        <ele>350.16357421875</ele>
        <time>2021-03-03T16:42:01.554Z</time>
      </trkpt>
      <trkpt lat="44.56935" lon="1.53664">
        <ele>351.14147949219</ele>
        <time>2021-03-03T16:42:08.733Z</time>
      </trkpt>
      <trkpt lat="44.56878" lon="1.53691">
        <ele>351.3522644043</ele>
        <time>2021-03-03T16:42:15.929Z</time>
      </trkpt>
      <trkpt lat="44.56862" lon="1.53716">
        <ele>348.69384765625</ele>
        <time>2021-03-03T16:42:23.132Z</time>
      </trkpt>
      <trkpt lat="44.56837" lon="1.53857">
        <ele>344.11431884766</ele>
        <time>2021-03-03T16:42:30.363Z</time>
      </trkpt>
      <trkpt lat="44.56828" lon="1.53878">
        <ele>343.22122192383</ele>
        <time>2021-03-03T16:42:37.599Z</time>
      </trkpt>
      <trkpt lat="44.56828" lon="1.53878">
        <ele>343.22033691406</ele>
        <time>2021-03-03T16:42:44.835Z</time>
      </trkpt>
      <trkpt lat="44.56816" lon="1.53906">
        <ele>341.64596557617</ele>
        <time>2021-03-03T16:42:52.077Z</time>
      </trkpt>
      <trkpt lat="44.5681" lon="1.53921">
        <ele>341.05798339844</ele>
        <time>2021-03-03T16:42:59.323Z</time>
      </trkpt>
      <trkpt lat="44.56781" lon="1.53967">
        <ele>338.04928588867</ele>
        <time>2021-03-03T16:43:06.581Z</time>
      </trkpt>
      <trkpt lat="44.56755" lon="1.53928">
        <ele>335.83728027344</ele>
        <time>2021-03-03T16:43:13.849Z</time>
      </trkpt>
      <trkpt lat="44.5673" lon="1.53901">
        <ele>333.58786010742</ele>
        <time>2021-03-03T16:43:21.126Z</time>
      </trkpt>
      <trkpt lat="44.56643" lon="1.53892">
        <ele>323.43899536133</ele>
        <time>2021-03-03T16:43:28.427Z</time>
      </trkpt>
      <trkpt lat="44.56601" lon="1.53903">
        <ele>321.0315246582</ele>
        <time>2021-03-03T16:43:35.740Z</time>
      </trkpt>
      <trkpt lat="44.56592" lon="1.53866">
        <ele>320.86441040039</ele>
        <time>2021-03-03T16:43:43.061Z</time>
      </trkpt>
      <trkpt lat="44.56583" lon="1.53857">
        <ele>321.47354125977</ele>
        <time>2021-03-03T16:43:50.385Z</time>
      </trkpt>
      <trkpt lat="44.56526" lon="1.53852">
        <ele>325.15252685547</ele>
        <time>2021-03-03T16:43:57.725Z</time>
      </trkpt>
      <trkpt lat="44.56514" lon="1.53845">
        <ele>325.84756469727</ele>
        <time>2021-03-03T16:44:05.068Z</time>
      </trkpt>
      <trkpt lat="44.56494" lon="1.53809">
        <ele>328.85739135742</ele>
        <time>2021-03-03T16:44:12.420Z</time>
      </trkpt>
      <trkpt lat="44.56421" lon="1.53799">
        <ele>334.6028137207</ele>
        <time>2021-03-03T16:44:19.793Z</time>
      </trkpt>
      <trkpt lat="44.56371" lon="1.53783">
        <ele>342.11206054688</ele>
        <time>2021-03-03T16:44:27.180Z</time>
      </trkpt>
      <trkpt lat="44.56294" lon="1.53745">
        <ele>352.16839599609</ele>
        <time>2021-03-03T16:44:34.589Z</time>
      </trkpt>
      <trkpt lat="44.56264" lon="1.53726">
        <ele>353.90191650391</ele>
        <time>2021-03-03T16:44:42.007Z</time>
      </trkpt>
      <trkpt lat="44.56187" lon="1.53712">
        <ele>356.2116394043</ele>
        <time>2021-03-03T16:44:49.447Z</time>
      </trkpt>
      <trkpt lat="44.56153" lon="1.53716">
        <ele>355.17068481445</ele>
        <time>2021-03-03T16:44:56.896Z</time>
      </trkpt>
      <trkpt lat="44.56008" lon="1.53668">
        <ele>341.40551757812</ele>
        <time>2021-03-03T16:45:04.386Z</time>
      </trkpt>
      <trkpt lat="44.55945" lon="1.53635">
        <ele>332.15371704102</ele>
        <time>2021-03-03T16:45:11.895Z</time>
      </trkpt>
      <trkpt lat="44.55875" lon="1.53576">
        <ele>329.11376953125</ele>
        <time>2021-03-03T16:45:19.426Z</time>
      </trkpt>
      <trkpt lat="44.55844" lon="1.53578">
        <ele>329.42944335938</ele>
        <time>2021-03-03T16:45:26.966Z</time>
      </trkpt>
      <trkpt lat="44.55819" lon="1.53596">
        <ele>330</ele>
        <time>2021-03-03T16:45:34.514Z</time>
      </trkpt>
      <trkpt lat="44.55797" lon="1.53572">
        <ele>328.81997680664</ele>
        <time>2021-03-03T16:45:42.069Z</time>
      </trkpt>
      <trkpt lat="44.55763" lon="1.5355">
        <ele>323.91848754883</ele>
        <time>2021-03-03T16:45:49.635Z</time>
      </trkpt>
      <trkpt lat="44.55719" lon="1.535">
        <ele>314.59536743164</ele>
        <time>2021-03-03T16:45:57.216Z</time>
      </trkpt>
      <trkpt lat="44.55701" lon="1.53455">
        <ele>313.16873168945</ele>
        <time>2021-03-03T16:46:04.808Z</time>
      </trkpt>
      <trkpt lat="44.55682" lon="1.5343">
        <ele>312.5094909668</ele>
        <time>2021-03-03T16:46:12.407Z</time>
      </trkpt>
      <trkpt lat="44.55663" lon="1.53422">
        <ele>311.64416503906</ele>
        <time>2021-03-03T16:46:20.011Z</time>
      </trkpt>
      <trkpt lat="44.55564" lon="1.53515">
        <ele>303.54144287109</ele>
        <time>2021-03-03T16:46:27.648Z</time>
      </trkpt>
      <trkpt lat="44.55509" lon="1.53579">
        <ele>298.44607543945</ele>
        <time>2021-03-03T16:46:35.305Z</time>
      </trkpt>
      <trkpt lat="44.55476" lon="1.53597">
        <ele>298.09606933594</ele>
        <time>2021-03-03T16:46:42.971Z</time>
      </trkpt>
      <trkpt lat="44.55476" lon="1.53597">
        <ele>298.09576416016</ele>
        <time>2021-03-03T16:46:50.637Z</time>
      </trkpt>
      <trkpt lat="44.55423" lon="1.5362">
        <ele>294.77075195312</ele>
        <time>2021-03-03T16:46:58.319Z</time>
      </trkpt>
      <trkpt lat="44.55362" lon="1.53624">
        <ele>287.2507019043</ele>
        <time>2021-03-03T16:47:06.018Z</time>
      </trkpt>
      <trkpt lat="44.55327" lon="1.53617">
        <ele>281.39288330078</ele>
        <time>2021-03-03T16:47:13.726Z</time>
      </trkpt>
      <trkpt lat="44.55265" lon="1.53573">
        <ele>269.8821105957</ele>
        <time>2021-03-03T16:47:21.454Z</time>
      </trkpt>
      <trkpt lat="44.55219" lon="1.5352">
        <ele>264.48587036133</ele>
        <time>2021-03-03T16:47:29.198Z</time>
      </trkpt>
      <trkpt lat="44.55204" lon="1.53494">
        <ele>262.37945556641</ele>
        <time>2021-03-03T16:47:36.949Z</time>
      </trkpt>
      <trkpt lat="44.55163" lon="1.53456">
        <ele>255.00909423828</ele>
        <time>2021-03-03T16:47:44.713Z</time>
      </trkpt>
      <trkpt lat="44.55104" lon="1.53445">
        <ele>250.39405822754</ele>
        <time>2021-03-03T16:47:52.494Z</time>
      </trkpt>
      <trkpt lat="44.55075" lon="1.53446">
        <ele>248.04373168945</ele>
        <time>2021-03-03T16:48:00.283Z</time>
      </trkpt>
      <trkpt lat="44.54923" lon="1.53524">
        <ele>233.67541503906</ele>
        <time>2021-03-03T16:48:08.116Z</time>
      </trkpt>
      <trkpt lat="44.54921" lon="1.53519">
        <ele>233.63681030273</ele>
        <time>2021-03-03T16:48:15.951Z</time>
      </trkpt>
      <trkpt lat="44.54883" lon="1.53553">
        <ele>234.7317199707</ele>
        <time>2021-03-03T16:48:23.798Z</time>
      </trkpt>
      <trkpt lat="44.5483" lon="1.53579">
        <ele>232.58366394043</ele>
        <time>2021-03-03T16:48:31.661Z</time>
      </trkpt>
      <trkpt lat="44.54811" lon="1.53584">
        <ele>231.15565490723</ele>
        <time>2021-03-03T16:48:39.529Z</time>
      </trkpt>
      <trkpt lat="44.54717" lon="1.53577">
        <ele>225.08447265625</ele>
        <time>2021-03-03T16:48:47.423Z</time>
      </trkpt>
      <trkpt lat="44.54675" lon="1.53563">
        <ele>219.75538635254</ele>
        <time>2021-03-03T16:48:55.329Z</time>
      </trkpt>
      <trkpt lat="44.54542" lon="1.53442">
        <ele>208.9281463623</ele>
        <time>2021-03-03T16:49:03.279Z</time>
      </trkpt>
      <trkpt lat="44.54521" lon="1.53426">
        <ele>206.45906066895</ele>
        <time>2021-03-03T16:49:11.235Z</time>
      </trkpt>
      <trkpt lat="44.54521" lon="1.53426">
        <ele>206.45755004883</ele>
        <time>2021-03-03T16:49:19.191Z</time>
      </trkpt>
      <trkpt lat="44.5441" lon="1.5337">
        <ele>196.57890319824</ele>
        <time>2021-03-03T16:49:27.180Z</time>
      </trkpt>
      <trkpt lat="44.54404" lon="1.53399">
        <ele>196.92866516113</ele>
        <time>2021-03-03T16:49:35.175Z</time>
      </trkpt>
      <trkpt lat="44.54338" lon="1.53413">
        <ele>194.72378540039</ele>
        <time>2021-03-03T16:49:43.188Z</time>
      </trkpt>
      <trkpt lat="44.54338" lon="1.53413">
        <ele>194.72439575195</ele>
        <time>2021-03-03T16:49:51.201Z</time>
      </trkpt>
      <trkpt lat="44.54302" lon="1.53445">
        <ele>194.44332885742</ele>
        <time>2021-03-03T16:49:59.226Z</time>
      </trkpt>
      <trkpt lat="44.5429" lon="1.53467">
        <ele>195.53315734863</ele>
        <time>2021-03-03T16:50:07.256Z</time>
      </trkpt>
      <trkpt lat="44.54249" lon="1.53605">
        <ele>196.0816192627</ele>
        <time>2021-03-03T16:50:15.316Z</time>
      </trkpt>
      <trkpt lat="44.54169" lon="1.53596">
        <ele>191.91984558105</ele>
        <time>2021-03-03T16:50:23.398Z</time>
      </trkpt>
      <trkpt lat="44.54155" lon="1.53593">
        <ele>196.75250244141</ele>
        <time>2021-03-03T16:50:31.484Z</time>
      </trkpt>
      <trkpt lat="44.54151" lon="1.53589">
        <ele>197.91390991211</ele>
        <time>2021-03-03T16:50:39.571Z</time>
      </trkpt>
      <trkpt lat="44.54156" lon="1.53668">
        <ele>198.50849914551</ele>
        <time>2021-03-03T16:50:47.674Z</time>
      </trkpt>
      <trkpt lat="44.54147" lon="1.5369">
        <ele>200.68981933594</ele>
        <time>2021-03-03T16:50:55.782Z</time>
      </trkpt>
      <trkpt lat="44.54088" lon="1.53524">
        <ele>220.33731079102</ele>
        <time>2021-03-03T16:51:03.926Z</time>
      </trkpt>
      <trkpt lat="44.54082" lon="1.53522">
        <ele>222.48080444336</ele>
        <time>2021-03-03T16:51:12.072Z</time>
      </trkpt>
      <trkpt lat="44.54081" lon="1.53547">
        <ele>226.48751831055</ele>
        <time>2021-03-03T16:51:20.223Z</time>
      </trkpt>
      <trkpt lat="44.54059" lon="1.5362">
        <ele>240.03327941895</ele>
        <time>2021-03-03T16:51:28.389Z</time>
      </trkpt>
      <trkpt lat="44.5403" lon="1.53668">
        <ele>249.46240234375</ele>
        <time>2021-03-03T16:51:36.568Z</time>
      </trkpt>
      <trkpt lat="44.53901" lon="1.53765">
        <ele>276.70590209961</ele>
        <time>2021-03-03T16:51:44.787Z</time>
      </trkpt>
      <trkpt lat="44.53851" lon="1.53779">
        <ele>285.19931030273</ele>
        <time>2021-03-03T16:51:53.020Z</time>
      </trkpt>
      <trkpt lat="44.53792" lon="1.5377">
        <ele>286.30889892578</ele>
        <time>2021-03-03T16:52:01.270Z</time>
      </trkpt>
      <trkpt lat="44.53599" lon="1.5374">
        <ele>283.12322998047</ele>
        <time>2021-03-03T16:52:09.573Z</time>
      </trkpt>
      <trkpt lat="44.53602" lon="1.53766">
        <ele>282.05838012695</ele>
        <time>2021-03-03T16:52:17.881Z</time>
      </trkpt>
      <trkpt lat="44.53565" lon="1.53784">
        <ele>281.79675292969</ele>
        <time>2021-03-03T16:52:26.200Z</time>
      </trkpt>
      <trkpt lat="44.53532" lon="1.53779">
        <ele>285.60354614258</ele>
        <time>2021-03-03T16:52:34.528Z</time>
      </trkpt>
      <trkpt lat="44.53509" lon="1.53757">
        <ele>287.37976074219</ele>
        <time>2021-03-03T16:52:42.864Z</time>
      </trkpt>
      <trkpt lat="44.53429" lon="1.53738">
        <ele>295.15539550781</ele>
        <time>2021-03-03T16:52:51.222Z</time>
      </trkpt>
      <trkpt lat="44.53386" lon="1.53727">
        <ele>298.25921630859</ele>
        <time>2021-03-03T16:52:59.592Z</time>
      </trkpt>
      <trkpt lat="44.53318" lon="1.53751">
        <ele>303.13229370117</ele>
        <time>2021-03-03T16:53:07.982Z</time>
      </trkpt>
      <trkpt lat="44.5326" lon="1.53729">
        <ele>307.67837524414</ele>
        <time>2021-03-03T16:53:16.388Z</time>
      </trkpt>
      <trkpt lat="44.53202" lon="1.53736">
        <ele>309.33682250977</ele>
        <time>2021-03-03T16:53:24.810Z</time>
      </trkpt>
      <trkpt lat="44.53153" lon="1.53894">
        <ele>318.83932495117</ele>
        <time>2021-03-03T16:53:33.267Z</time>
      </trkpt>
      <trkpt lat="44.53133" lon="1.5398">
        <ele>318.76480102539</ele>
        <time>2021-03-03T16:53:41.741Z</time>
      </trkpt>
      <trkpt lat="44.53093" lon="1.54048">
        <ele>326.04605102539</ele>
        <time>2021-03-03T16:53:50.233Z</time>
      </trkpt>
      <trkpt lat="44.53076" lon="1.54063">
        <ele>327.66781616211</ele>
        <time>2021-03-03T16:53:58.730Z</time>
      </trkpt>
      <trkpt lat="44.53076" lon="1.54063">
        <ele>327.66781616211</ele>
        <time>2021-03-03T16:54:07.227Z</time>
      </trkpt>
      <trkpt lat="44.52986" lon="1.54105">
        <ele>328.67810058594</ele>
        <time>2021-03-03T16:54:15.750Z</time>
      </trkpt>
      <trkpt lat="44.5292" lon="1.54177">
        <ele>326.89166259766</ele>
        <time>2021-03-03T16:54:24.296Z</time>
      </trkpt>
      <trkpt lat="44.52908" lon="1.5418">
        <ele>327.35140991211</ele>
        <time>2021-03-03T16:54:32.846Z</time>
      </trkpt>
      <trkpt lat="44.52909" lon="1.54183">
        <ele>326.9987487793</ele>
        <time>2021-03-03T16:54:41.396Z</time>
      </trkpt>
      <trkpt lat="44.52888" lon="1.54189">
        <ele>329.39703369141</ele>
        <time>2021-03-03T16:54:49.952Z</time>
      </trkpt>
      <trkpt lat="44.5285" lon="1.54199">
        <ele>332.18124389648</ele>
        <time>2021-03-03T16:54:58.519Z</time>
      </trkpt>
      <trkpt lat="44.52833" lon="1.54201">
        <ele>333.89437866211</ele>
        <time>2021-03-03T16:55:07.090Z</time>
      </trkpt>
      <trkpt lat="44.52808" lon="1.54198">
        <ele>336.68408203125</ele>
        <time>2021-03-03T16:55:15.668Z</time>
      </trkpt>
      <trkpt lat="44.52799" lon="1.54222">
        <ele>334.47189331055</ele>
        <time>2021-03-03T16:55:24.252Z</time>
      </trkpt>
      <trkpt lat="44.52795" lon="1.54244">
        <ele>332.09283447266</ele>
        <time>2021-03-03T16:55:32.840Z</time>
      </trkpt>
      <trkpt lat="44.52799" lon="1.54273">
        <ele>327.81280517578</ele>
        <time>2021-03-03T16:55:41.434Z</time>
      </trkpt>
      <trkpt lat="44.52807" lon="1.54308">
        <ele>323.75650024414</ele>
        <time>2021-03-03T16:55:50.035Z</time>
      </trkpt>
      <trkpt lat="44.52807" lon="1.5433">
        <ele>322.29824829102</ele>
        <time>2021-03-03T16:55:58.641Z</time>
      </trkpt>
      <trkpt lat="44.52797" lon="1.54362">
        <ele>320.66741943359</ele>
        <time>2021-03-03T16:56:07.254Z</time>
      </trkpt>
      <trkpt lat="44.52781" lon="1.5444">
        <ele>317.43768310547</ele>
        <time>2021-03-03T16:56:15.883Z</time>
      </trkpt>
      <trkpt lat="44.52769" lon="1.54483">
        <ele>313.67294311523</ele>
        <time>2021-03-03T16:56:24.521Z</time>
      </trkpt>
      <trkpt lat="44.52759" lon="1.5453">
        <ele>308.27496337891</ele>
        <time>2021-03-03T16:56:33.168Z</time>
      </trkpt>
      <trkpt lat="44.52749" lon="1.5457">
        <ele>301.16171264648</ele>
        <time>2021-03-03T16:56:41.824Z</time>
      </trkpt>
      <trkpt lat="44.52748" lon="1.54577">
        <ele>300.21356201172</ele>
        <time>2021-03-03T16:56:50.481Z</time>
      </trkpt>
      <trkpt lat="44.52748" lon="1.54641">
        <ele>293.31265258789</ele>
        <time>2021-03-03T16:56:59.151Z</time>
      </trkpt>
      <trkpt lat="44.52747" lon="1.54674">
        <ele>288.69415283203</ele>
        <time>2021-03-03T16:57:07.827Z</time>
      </trkpt>
      <trkpt lat="44.5274" lon="1.54692">
        <ele>284.15975952148</ele>
        <time>2021-03-03T16:57:16.507Z</time>
      </trkpt>
      <trkpt lat="44.52729" lon="1.5471">
        <ele>279.65774536133</ele>
        <time>2021-03-03T16:57:25.192Z</time>
      </trkpt>
      <trkpt lat="44.52724" lon="1.54749">
        <ele>276.22457885742</ele>
        <time>2021-03-03T16:57:33.885Z</time>
      </trkpt>
      <trkpt lat="44.52709" lon="1.54801">
        <ele>268.24377441406</ele>
        <time>2021-03-03T16:57:42.589Z</time>
      </trkpt>
      <trkpt lat="44.52704" lon="1.54842">
        <ele>261.5364074707</ele>
        <time>2021-03-03T16:57:51.301Z</time>
      </trkpt>
      <trkpt lat="44.52694" lon="1.54893">
        <ele>251.40037536621</ele>
        <time>2021-03-03T16:58:00.024Z</time>
      </trkpt>
      <trkpt lat="44.52692" lon="1.54925">
        <ele>248.04385375977</ele>
        <time>2021-03-03T16:58:08.753Z</time>
      </trkpt>
      <trkpt lat="44.52697" lon="1.54941">
        <ele>248.06410217285</ele>
        <time>2021-03-03T16:58:17.485Z</time>
      </trkpt>
      <trkpt lat="44.52703" lon="1.54948">
        <ele>247.27226257324</ele>
        <time>2021-03-03T16:58:26.219Z</time>
      </trkpt>
      <trkpt lat="44.52727" lon="1.54952">
        <ele>244.78620910645</ele>
        <time>2021-03-03T16:58:34.960Z</time>
      </trkpt>
      <trkpt lat="44.52743" lon="1.54951">
        <ele>241.4979095459</ele>
        <time>2021-03-03T16:58:43.706Z</time>
      </trkpt>
      <trkpt lat="44.52775" lon="1.54956">
        <ele>234.41090393066</ele>
        <time>2021-03-03T16:58:52.460Z</time>
      </trkpt>
      <trkpt lat="44.52782" lon="1.54958">
        <ele>233.01721191406</ele>
        <time>2021-03-03T16:59:01.217Z</time>
      </trkpt>
      <trkpt lat="44.52789" lon="1.54962">
        <ele>231.93272399902</ele>
        <time>2021-03-03T16:59:09.975Z</time>
      </trkpt>
      <trkpt lat="44.52805" lon="1.54982">
        <ele>228.00149536133</ele>
        <time>2021-03-03T16:59:18.739Z</time>
      </trkpt>
      <trkpt lat="44.52818" lon="1.55011">
        <ele>221.00881958008</ele>
        <time>2021-03-03T16:59:27.510Z</time>
      </trkpt>
      <trkpt lat="44.52837" lon="1.55034">
        <ele>213.39433288574</ele>
        <time>2021-03-03T16:59:36.288Z</time>
      </trkpt>
      <trkpt lat="44.52843" lon="1.55044">
        <ele>210.08688354492</ele>
        <time>2021-03-03T16:59:45.069Z</time>
      </trkpt>
      <trkpt lat="44.52858" lon="1.55065">
        <ele>202.89945983887</ele>
        <time>2021-03-03T16:59:53.855Z</time>
      </trkpt>
      <trkpt lat="44.52863" lon="1.55067">
        <ele>201.19303894043</ele>
        <time>2021-03-03T17:00:02.643Z</time>
      </trkpt>
      <trkpt lat="44.52877" lon="1.55069">
        <ele>196.67030334473</ele>
        <time>2021-03-03T17:00:11.435Z</time>
      </trkpt>
      <trkpt lat="44.52884" lon="1.55068">
        <ele>194.70918273926</ele>
        <time>2021-03-03T17:00:20.229Z</time>
      </trkpt>
      <trkpt lat="44.52893" lon="1.55062">
        <ele>192.55801391602</ele>
        <time>2021-03-03T17:00:29.025Z</time>
      </trkpt>
      <trkpt lat="44.52898" lon="1.55053">
        <ele>191.15002441406</ele>
        <time>2021-03-03T17:00:37.824Z</time>
      </trkpt>
      <trkpt lat="44.52903" lon="1.5505">
        <ele>189.39433288574</ele>
        <time>2021-03-03T17:00:46.624Z</time>
      </trkpt>
      <trkpt lat="44.52911" lon="1.55038">
        <ele>185.87731933594</ele>
        <time>2021-03-03T17:00:55.427Z</time>
      </trkpt>
      <trkpt lat="44.52915" lon="1.55035">
        <ele>184.1813659668</ele>
        <time>2021-03-03T17:01:04.232Z</time>
      </trkpt>
      <trkpt lat="44.52917" lon="1.55036">
        <ele>183.30081176758</ele>
        <time>2021-03-03T17:01:13.037Z</time>
      </trkpt>
      <trkpt lat="44.52922" lon="1.5505">
        <ele>182.52529907227</ele>
        <time>2021-03-03T17:01:21.845Z</time>
      </trkpt>
      <trkpt lat="44.52934" lon="1.55063">
        <ele>179.82989501953</ele>
        <time>2021-03-03T17:01:30.658Z</time>
      </trkpt>
      <trkpt lat="44.52945" lon="1.55096">
        <ele>177.01794433594</ele>
        <time>2021-03-03T17:01:39.478Z</time>
      </trkpt>
      <trkpt lat="44.52953" lon="1.55109">
        <ele>178.08462524414</ele>
        <time>2021-03-03T17:01:48.301Z</time>
      </trkpt>
      <trkpt lat="44.52956" lon="1.55125">
        <ele>180.01826477051</ele>
        <time>2021-03-03T17:01:57.127Z</time>
      </trkpt>
      <trkpt lat="44.52953" lon="1.55144">
        <ele>180.38958740234</ele>
        <time>2021-03-03T17:02:05.957Z</time>
      </trkpt>
      <trkpt lat="44.52935" lon="1.55213">
        <ele>179.36848449707</ele>
        <time>2021-03-03T17:02:14.802Z</time>
      </trkpt>
      <trkpt lat="44.52931" lon="1.55278">
        <ele>175.13543701172</ele>
        <time>2021-03-03T17:02:23.660Z</time>
      </trkpt>
      <trkpt lat="44.52922" lon="1.55316">
        <ele>166.68688964844</ele>
        <time>2021-03-03T17:02:32.526Z</time>
      </trkpt>
      <trkpt lat="44.52921" lon="1.55333">
        <ele>165.94268798828</ele>
        <time>2021-03-03T17:02:41.395Z</time>
      </trkpt>
      <trkpt lat="44.52927" lon="1.55351">
        <ele>165.82008361816</ele>
        <time>2021-03-03T17:02:50.268Z</time>
      </trkpt>
      <trkpt lat="44.52967" lon="1.55428">
        <ele>168.64088439941</ele>
        <time>2021-03-03T17:02:59.160Z</time>
      </trkpt>
      <trkpt lat="44.52984" lon="1.55444">
        <ele>170.68229675293</ele>
        <time>2021-03-03T17:03:08.057Z</time>
      </trkpt>
      <trkpt lat="44.53007" lon="1.55453">
        <ele>172.0724029541</ele>
        <time>2021-03-03T17:03:16.961Z</time>
      </trkpt>
      <trkpt lat="44.53024" lon="1.55454">
        <ele>170.59484863281</ele>
        <time>2021-03-03T17:03:25.870Z</time>
      </trkpt>
      <trkpt lat="44.5304" lon="1.55492">
        <ele>164.68109130859</ele>
        <time>2021-03-03T17:03:34.787Z</time>
      </trkpt>
      <trkpt lat="44.53045" lon="1.55507">
        <ele>164.19520568848</ele>
        <time>2021-03-03T17:03:43.708Z</time>
      </trkpt>
      <trkpt lat="44.53045" lon="1.55521">
        <ele>164.58735656738</ele>
        <time>2021-03-03T17:03:52.631Z</time>
      </trkpt>
      <trkpt lat="44.53054" lon="1.55537">
        <ele>165.19375610352</ele>
        <time>2021-03-03T17:04:01.558Z</time>
      </trkpt>
      <trkpt lat="44.53069" lon="1.55559">
        <ele>167.1943359375</ele>
        <time>2021-03-03T17:04:10.491Z</time>
      </trkpt>
      <trkpt lat="44.53071" lon="1.55567">
        <ele>168.51683044434</ele>
        <time>2021-03-03T17:04:19.426Z</time>
      </trkpt>
      <trkpt lat="44.53067" lon="1.55583">
        <ele>169.95422363281</ele>
        <time>2021-03-03T17:04:28.364Z</time>
      </trkpt>
      <trkpt lat="44.53059" lon="1.55594">
        <ele>172.03471374512</ele>
        <time>2021-03-03T17:04:37.306Z</time>
      </trkpt>
      <trkpt lat="44.53044" lon="1.55602">
        <ele>173.07565307617</ele>
        <time>2021-03-03T17:04:46.252Z</time>
      </trkpt>
      <trkpt lat="44.5303" lon="1.55607">
        <ele>173.4690246582</ele>
        <time>2021-03-03T17:04:55.202Z</time>
      </trkpt>
      <trkpt lat="44.53017" lon="1.55614">
        <ele>176.54266357422</ele>
        <time>2021-03-03T17:05:04.156Z</time>
      </trkpt>
      <trkpt lat="44.52993" lon="1.55621">
        <ele>183.9049987793</ele>
        <time>2021-03-03T17:05:13.117Z</time>
      </trkpt>
      <trkpt lat="44.52976" lon="1.55615">
        <ele>183.30142211914</ele>
        <time>2021-03-03T17:05:22.082Z</time>
      </trkpt>
      <trkpt lat="44.52951" lon="1.55582">
        <ele>175.60342407227</ele>
        <time>2021-03-03T17:05:31.057Z</time>
      </trkpt>
      <trkpt lat="44.52882" lon="1.55511">
        <ele>169.86416625977</ele>
        <time>2021-03-03T17:05:40.055Z</time>
      </trkpt>
      <trkpt lat="44.52878" lon="1.55506">
        <ele>169.37124633789</ele>
        <time>2021-03-03T17:05:49.055Z</time>
      </trkpt>
      <trkpt lat="44.52871" lon="1.55477">
        <ele>168.17071533203</ele>
        <time>2021-03-03T17:05:58.061Z</time>
      </trkpt>
      <trkpt lat="44.52872" lon="1.55464">
        <ele>166.88716125488</ele>
        <time>2021-03-03T17:06:07.070Z</time>
      </trkpt>
      <trkpt lat="44.52868" lon="1.55455">
        <ele>166.26362609863</ele>
        <time>2021-03-03T17:06:16.081Z</time>
      </trkpt>
      <trkpt lat="44.52862" lon="1.55449">
        <ele>166.35954284668</ele>
        <time>2021-03-03T17:06:25.094Z</time>
      </trkpt>
      <trkpt lat="44.52848" lon="1.55446">
        <ele>165.9945526123</ele>
        <time>2021-03-03T17:06:34.111Z</time>
      </trkpt>
      <trkpt lat="44.52835" lon="1.55447">
        <ele>166.0740814209</ele>
        <time>2021-03-03T17:06:43.131Z</time>
      </trkpt>
      <trkpt lat="44.52818" lon="1.55452">
        <ele>165.19612121582</ele>
        <time>2021-03-03T17:06:52.156Z</time>
      </trkpt>
      <trkpt lat="44.52808" lon="1.55457">
        <ele>164.89567565918</ele>
        <time>2021-03-03T17:07:01.184Z</time>
      </trkpt>
      <trkpt lat="44.52797" lon="1.5547">
        <ele>165.20230102539</ele>
        <time>2021-03-03T17:07:10.216Z</time>
      </trkpt>
      <trkpt lat="44.52782" lon="1.55524">
        <ele>167.49176025391</ele>
        <time>2021-03-03T17:07:19.259Z</time>
      </trkpt>
      <trkpt lat="44.52775" lon="1.55561">
        <ele>168.93858337402</ele>
        <time>2021-03-03T17:07:28.310Z</time>
      </trkpt>
      <trkpt lat="44.52767" lon="1.55627">
        <ele>172.3088684082</ele>
        <time>2021-03-03T17:07:37.374Z</time>
      </trkpt>
      <trkpt lat="44.52759" lon="1.55647">
        <ele>171.08305358887</ele>
        <time>2021-03-03T17:07:46.443Z</time>
      </trkpt>
      <trkpt lat="44.52731" lon="1.55689">
        <ele>165.9813079834</ele>
        <time>2021-03-03T17:07:55.523Z</time>
      </trkpt>
      <trkpt lat="44.52714" lon="1.55717">
        <ele>167.65232849121</ele>
        <time>2021-03-03T17:08:04.610Z</time>
      </trkpt>
      <trkpt lat="44.5271" lon="1.55722">
        <ele>167.8420715332</ele>
        <time>2021-03-03T17:08:13.699Z</time>
      </trkpt>
      <trkpt lat="44.52686" lon="1.55736">
        <ele>169.05801391602</ele>
        <time>2021-03-03T17:08:22.795Z</time>
      </trkpt>
      <trkpt lat="44.52659" lon="1.55734">
        <ele>166.76110839844</ele>
        <time>2021-03-03T17:08:31.898Z</time>
      </trkpt>
      <trkpt lat="44.52606" lon="1.55733">
        <ele>168.94232177734</ele>
        <time>2021-03-03T17:08:41.016Z</time>
      </trkpt>
      <trkpt lat="44.52579" lon="1.55729">
        <ele>168.79861450195</ele>
        <time>2021-03-03T17:08:50.142Z</time>
      </trkpt>
      <trkpt lat="44.52554" lon="1.55731">
        <ele>170.42880249023</ele>
        <time>2021-03-03T17:08:59.274Z</time>
      </trkpt>
      <trkpt lat="44.52537" lon="1.55725">
        <ele>168.28939819336</ele>
        <time>2021-03-03T17:09:08.411Z</time>
      </trkpt>
      <trkpt lat="44.52532" lon="1.55721">
        <ele>167.37481689453</ele>
        <time>2021-03-03T17:09:17.550Z</time>
      </trkpt>
      <trkpt lat="44.5251" lon="1.55713">
        <ele>164.99526977539</ele>
        <time>2021-03-03T17:09:26.695Z</time>
      </trkpt>
      <trkpt lat="44.52484" lon="1.55706">
        <ele>163.84478759766</ele>
        <time>2021-03-03T17:09:35.848Z</time>
      </trkpt>
      <trkpt lat="44.52425" lon="1.55687">
        <ele>165.07014465332</ele>
        <time>2021-03-03T17:09:45.017Z</time>
      </trkpt>
      <trkpt lat="44.52343" lon="1.55683">
        <ele>169.06439208984</ele>
        <time>2021-03-03T17:09:54.209Z</time>
      </trkpt>
      <trkpt lat="44.52312" lon="1.55686">
        <ele>167.56350708008</ele>
        <time>2021-03-03T17:10:03.409Z</time>
      </trkpt>
      <trkpt lat="44.52269" lon="1.55701">
        <ele>167.60469055176</ele>
        <time>2021-03-03T17:10:12.621Z</time>
      </trkpt>
      <trkpt lat="44.52227" lon="1.55713">
        <ele>166.24046325684</ele>
        <time>2021-03-03T17:10:21.845Z</time>
      </trkpt>
      <trkpt lat="44.52184" lon="1.55716">
        <ele>165.49336242676</ele>
        <time>2021-03-03T17:10:31.081Z</time>
      </trkpt>
      <trkpt lat="44.52148" lon="1.55716">
        <ele>163.46682739258</ele>
        <time>2021-03-03T17:10:40.327Z</time>
      </trkpt>
      <trkpt lat="44.521" lon="1.55753">
        <ele>162.28656005859</ele>
        <time>2021-03-03T17:10:49.588Z</time>
      </trkpt>
      <trkpt lat="44.52068" lon="1.55787">
        <ele>164.78189086914</ele>
        <time>2021-03-03T17:10:58.860Z</time>
      </trkpt>
      <trkpt lat="44.5203" lon="1.55819">
        <ele>167.43682861328</ele>
        <time>2021-03-03T17:11:08.145Z</time>
      </trkpt>
      <trkpt lat="44.52006" lon="1.55824">
        <ele>165.68460083008</ele>
        <time>2021-03-03T17:11:17.436Z</time>
      </trkpt>
      <trkpt lat="44.51975" lon="1.5582">
        <ele>160.25244140625</ele>
        <time>2021-03-03T17:11:26.736Z</time>
      </trkpt>
      <trkpt lat="44.51925" lon="1.55842">
        <ele>158.7385559082</ele>
        <time>2021-03-03T17:11:36.051Z</time>
      </trkpt>
      <trkpt lat="44.519" lon="1.55857">
        <ele>161.35850524902</ele>
        <time>2021-03-03T17:11:45.373Z</time>
      </trkpt>
      <trkpt lat="44.51872" lon="1.55867">
        <ele>164.41600036621</ele>
        <time>2021-03-03T17:11:54.703Z</time>
      </trkpt>
      <trkpt lat="44.51853" lon="1.5587">
        <ele>166.43496704102</ele>
        <time>2021-03-03T17:12:04.038Z</time>
      </trkpt>
      <trkpt lat="44.51797" lon="1.55856">
        <ele>167.99353027344</ele>
        <time>2021-03-03T17:12:13.389Z</time>
      </trkpt>
      <trkpt lat="44.5178" lon="1.55843">
        <ele>167.60981750488</ele>
        <time>2021-03-03T17:12:22.745Z</time>
      </trkpt>
      <trkpt lat="44.51763" lon="1.55812">
        <ele>163.30006408691</ele>
        <time>2021-03-03T17:12:32.109Z</time>
      </trkpt>
      <trkpt lat="44.51725" lon="1.55766">
        <ele>161.56889343262</ele>
        <time>2021-03-03T17:12:41.487Z</time>
      </trkpt>
      <trkpt lat="44.51713" lon="1.55744">
        <ele>160.38687133789</ele>
        <time>2021-03-03T17:12:50.870Z</time>
      </trkpt>
      <trkpt lat="44.51695" lon="1.55721">
        <ele>159.65084838867</ele>
        <time>2021-03-03T17:13:00.260Z</time>
      </trkpt>
      <trkpt lat="44.51681" lon="1.5571">
        <ele>159.03578186035</ele>
        <time>2021-03-03T17:13:09.654Z</time>
      </trkpt>
      <trkpt lat="44.51668" lon="1.55703">
        <ele>159.11993408203</ele>
        <time>2021-03-03T17:13:19.052Z</time>
      </trkpt>
      <trkpt lat="44.51655" lon="1.55699">
        <ele>159.83367919922</ele>
        <time>2021-03-03T17:13:28.454Z</time>
      </trkpt>
      <trkpt lat="44.51622" lon="1.55697">
        <ele>161.74353027344</ele>
        <time>2021-03-03T17:13:37.865Z</time>
      </trkpt>
      <trkpt lat="44.51593" lon="1.55702">
        <ele>161.77513122559</ele>
        <time>2021-03-03T17:13:47.284Z</time>
      </trkpt>
      <trkpt lat="44.51561" lon="1.5571">
        <ele>160.10021972656</ele>
        <time>2021-03-03T17:13:56.712Z</time>
      </trkpt>
      <trkpt lat="44.51531" lon="1.55727">
        <ele>159.36123657227</ele>
        <time>2021-03-03T17:14:06.149Z</time>
      </trkpt>
      <trkpt lat="44.51509" lon="1.55743">
        <ele>158.32574462891</ele>
        <time>2021-03-03T17:14:15.593Z</time>
      </trkpt>
      <trkpt lat="44.51486" lon="1.55767">
        <ele>158.63989257812</ele>
        <time>2021-03-03T17:14:25.045Z</time>
      </trkpt>
      <trkpt lat="44.51481" lon="1.55775">
        <ele>158.44471740723</ele>
        <time>2021-03-03T17:14:34.499Z</time>
      </trkpt>
      <trkpt lat="44.51463" lon="1.55817">
        <ele>164.41700744629</ele>
        <time>2021-03-03T17:14:43.963Z</time>
      </trkpt>
      <trkpt lat="44.51449" lon="1.55867">
        <ele>166.61878967285</ele>
        <time>2021-03-03T17:14:53.437Z</time>
      </trkpt>
      <trkpt lat="44.51445" lon="1.55878">
        <ele>165.60446166992</ele>
        <time>2021-03-03T17:15:02.914Z</time>
      </trkpt>
      <trkpt lat="44.51442" lon="1.55883">
        <ele>166.13026428223</ele>
        <time>2021-03-03T17:15:12.392Z</time>
      </trkpt>
      <trkpt lat="44.5143" lon="1.55888">
        <ele>165.87089538574</ele>
        <time>2021-03-03T17:15:21.873Z</time>
      </trkpt>
      <trkpt lat="44.5142" lon="1.55883">
        <ele>164.94931030273</ele>
        <time>2021-03-03T17:15:31.357Z</time>
      </trkpt>
      <trkpt lat="44.51416" lon="1.55867">
        <ele>164.39065551758</ele>
        <time>2021-03-03T17:15:40.844Z</time>
      </trkpt>
      <trkpt lat="44.51415" lon="1.55842">
        <ele>163.8791809082</ele>
        <time>2021-03-03T17:15:50.336Z</time>
      </trkpt>
      <trkpt lat="44.51419" lon="1.5579">
        <ele>159.99282836914</ele>
        <time>2021-03-03T17:15:59.839Z</time>
      </trkpt>
      <trkpt lat="44.51418" lon="1.55783">
        <ele>159.3059387207</ele>
        <time>2021-03-03T17:16:09.343Z</time>
      </trkpt>
      <trkpt lat="44.51407" lon="1.55765">
        <ele>158.15629577637</ele>
        <time>2021-03-03T17:16:18.852Z</time>
      </trkpt>
      <trkpt lat="44.51388" lon="1.55758">
        <ele>159.37153625488</ele>
        <time>2021-03-03T17:16:28.366Z</time>
      </trkpt>
      <trkpt lat="44.5133" lon="1.55745">
        <ele>162.11511230469</ele>
        <time>2021-03-03T17:16:37.896Z</time>
      </trkpt>
      <trkpt lat="44.51311" lon="1.55743">
        <ele>163.10758972168</ele>
        <time>2021-03-03T17:16:47.432Z</time>
      </trkpt>
      <trkpt lat="44.5128" lon="1.55743">
        <ele>164.41146850586</ele>
        <time>2021-03-03T17:16:56.976Z</time>
      </trkpt>
      <trkpt lat="44.51254" lon="1.55746">
        <ele>164.09120178223</ele>
        <time>2021-03-03T17:17:06.528Z</time>
      </trkpt>
      <trkpt lat="44.51228" lon="1.55751">
        <ele>163.25462341309</ele>
        <time>2021-03-03T17:17:16.087Z</time>
      </trkpt>
      <trkpt lat="44.51186" lon="1.55762">
        <ele>164.33586120605</ele>
        <time>2021-03-03T17:17:25.657Z</time>
      </trkpt>
      <trkpt lat="44.51146" lon="1.55767">
        <ele>162.35403442383</ele>
        <time>2021-03-03T17:17:35.238Z</time>
      </trkpt>
      <trkpt lat="44.51079" lon="1.55779">
        <ele>163.45083618164</ele>
        <time>2021-03-03T17:17:44.838Z</time>
      </trkpt>
      <trkpt lat="44.51042" lon="1.55782">
        <ele>160.74514770508</ele>
        <time>2021-03-03T17:17:54.448Z</time>
      </trkpt>
      <trkpt lat="44.51019" lon="1.5578">
        <ele>157.76232910156</ele>
        <time>2021-03-03T17:18:04.065Z</time>
      </trkpt>
      <trkpt lat="44.50973" lon="1.55766">
        <ele>154.70974731445</ele>
        <time>2021-03-03T17:18:13.695Z</time>
      </trkpt>
      <trkpt lat="44.50959" lon="1.55765">
        <ele>156.80857849121</ele>
        <time>2021-03-03T17:18:23.329Z</time>
      </trkpt>
      <trkpt lat="44.50911" lon="1.55753">
        <ele>159.18199157715</ele>
        <time>2021-03-03T17:18:32.976Z</time>
      </trkpt>
      <trkpt lat="44.50877" lon="1.55739">
        <ele>156.70692443848</ele>
        <time>2021-03-03T17:18:42.633Z</time>
      </trkpt>
      <trkpt lat="44.5083" lon="1.55707">
        <ele>156.8611907959</ele>
        <time>2021-03-03T17:18:52.304Z</time>
      </trkpt>
      <trkpt lat="44.50776" lon="1.55657">
        <ele>158.87544250488</ele>
        <time>2021-03-03T17:19:01.993Z</time>
      </trkpt>
      <trkpt lat="44.50759" lon="1.55631">
        <ele>160.0821685791</ele>
        <time>2021-03-03T17:19:11.689Z</time>
      </trkpt>
      <trkpt lat="44.50742" lon="1.55597">
        <ele>158.24101257324</ele>
        <time>2021-03-03T17:19:21.393Z</time>
      </trkpt>
      <trkpt lat="44.5072" lon="1.55567">
        <ele>155.47654724121</ele>
        <time>2021-03-03T17:19:31.106Z</time>
      </trkpt>
      <trkpt lat="44.50691" lon="1.55533">
        <ele>153.58786010742</ele>
        <time>2021-03-03T17:19:40.829Z</time>
      </trkpt>
      <trkpt lat="44.50656" lon="1.55514">
        <ele>156.81079101562</ele>
        <time>2021-03-03T17:19:50.563Z</time>
      </trkpt>
      <trkpt lat="44.50646" lon="1.55506">
        <ele>156.78031921387</ele>
        <time>2021-03-03T17:20:00.300Z</time>
      </trkpt>
      <trkpt lat="44.50626" lon="1.55497">
        <ele>157.42889404297</ele>
        <time>2021-03-03T17:20:10.042Z</time>
      </trkpt>
      <trkpt lat="44.50588" lon="1.55487">
        <ele>156.97650146484</ele>
        <time>2021-03-03T17:20:19.795Z</time>
      </trkpt>
      <trkpt lat="44.50567" lon="1.55485">
        <ele>154.72193908691</ele>
        <time>2021-03-03T17:20:29.554Z</time>
      </trkpt>
      <trkpt lat="44.50557" lon="1.55487">
        <ele>153.4620513916</ele>
        <time>2021-03-03T17:20:39.316Z</time>
      </trkpt>
      <trkpt lat="44.5053" lon="1.555">
        <ele>152.12622070312</ele>
        <time>2021-03-03T17:20:49.086Z</time>
      </trkpt>
      <trkpt lat="44.50524" lon="1.55506">
        <ele>152.16239929199</ele>
        <time>2021-03-03T17:20:58.858Z</time>
      </trkpt>
      <trkpt lat="44.50512" lon="1.55525">
        <ele>152.58796691895</ele>
        <time>2021-03-03T17:21:08.635Z</time>
      </trkpt>
      <trkpt lat="44.50497" lon="1.55559">
        <ele>151.76455688477</ele>
        <time>2021-03-03T17:21:18.420Z</time>
      </trkpt>
      <trkpt lat="44.50471" lon="1.55598">
        <ele>150.33235168457</ele>
        <time>2021-03-03T17:21:28.215Z</time>
      </trkpt>
      <trkpt lat="44.5046" lon="1.55612">
        <ele>150.59028625488</ele>
        <time>2021-03-03T17:21:38.014Z</time>
      </trkpt>
      <trkpt lat="44.50428" lon="1.55639">
        <ele>152.64743041992</ele>
        <time>2021-03-03T17:21:47.824Z</time>
      </trkpt>
      <trkpt lat="44.50381" lon="1.55665">
        <ele>152.8542175293</ele>
        <time>2021-03-03T17:21:57.647Z</time>
      </trkpt>
      <trkpt lat="44.50354" lon="1.55684">
        <ele>153.82476806641</ele>
        <time>2021-03-03T17:22:07.479Z</time>
      </trkpt>
      <trkpt lat="44.50333" lon="1.55688">
        <ele>151.47135925293</ele>
        <time>2021-03-03T17:22:17.317Z</time>
      </trkpt>
      <trkpt lat="44.50312" lon="1.55688">
        <ele>151.57997131348</ele>
        <time>2021-03-03T17:22:27.161Z</time>
      </trkpt>
      <trkpt lat="44.5027" lon="1.55684">
        <ele>152.54830932617</ele>
        <time>2021-03-03T17:22:37.016Z</time>
      </trkpt>
      <trkpt lat="44.50241" lon="1.55674">
        <ele>152.91368103027</ele>
        <time>2021-03-03T17:22:46.879Z</time>
      </trkpt>
      <trkpt lat="44.50214" lon="1.55642">
        <ele>150.20289611816</ele>
        <time>2021-03-03T17:22:56.752Z</time>
      </trkpt>
      <trkpt lat="44.50199" lon="1.55632">
        <ele>150.02612304688</ele>
        <time>2021-03-03T17:23:06.630Z</time>
      </trkpt>
      <trkpt lat="44.50176" lon="1.5563">
        <ele>149.76992797852</ele>
        <time>2021-03-03T17:23:16.514Z</time>
      </trkpt>
      <trkpt lat="44.50155" lon="1.55633">
        <ele>149.23194885254</ele>
        <time>2021-03-03T17:23:26.404Z</time>
      </trkpt>
      <trkpt lat="44.50136" lon="1.55641">
        <ele>147.97125244141</ele>
        <time>2021-03-03T17:23:36.300Z</time>
      </trkpt>
      <trkpt lat="44.5011" lon="1.55674">
        <ele>149.72811889648</ele>
        <time>2021-03-03T17:23:46.205Z</time>
      </trkpt>
      <trkpt lat="44.50074" lon="1.55751">
        <ele>149.48968505859</ele>
        <time>2021-03-03T17:23:56.128Z</time>
      </trkpt>
      <trkpt lat="44.50052" lon="1.55788">
        <ele>149.81834411621</ele>
        <time>2021-03-03T17:24:06.061Z</time>
      </trkpt>
      <trkpt lat="44.50012" lon="1.55846">
        <ele>150.2399597168</ele>
        <time>2021-03-03T17:24:16.010Z</time>
      </trkpt>
      <trkpt lat="44.49999" lon="1.5586">
        <ele>151.52133178711</ele>
        <time>2021-03-03T17:24:25.963Z</time>
      </trkpt>
      <trkpt lat="44.49986" lon="1.55871">
        <ele>153.05644226074</ele>
        <time>2021-03-03T17:24:35.920Z</time>
      </trkpt>
      <trkpt lat="44.49956" lon="1.5588">
        <ele>153.39079284668</ele>
        <time>2021-03-03T17:24:45.886Z</time>
      </trkpt>
      <trkpt lat="44.49948" lon="1.55885">
        <ele>153.37812805176</ele>
        <time>2021-03-03T17:24:55.854Z</time>
      </trkpt>
      <trkpt lat="44.49914" lon="1.55899">
        <ele>151.50689697266</ele>
        <time>2021-03-03T17:25:05.832Z</time>
      </trkpt>
      <trkpt lat="44.49896" lon="1.559">
        <ele>149.55130004883</ele>
        <time>2021-03-03T17:25:15.815Z</time>
      </trkpt>
      <trkpt lat="44.49864" lon="1.55887">
        <ele>145.84342956543</ele>
        <time>2021-03-03T17:25:25.807Z</time>
      </trkpt>
      <trkpt lat="44.4983" lon="1.55879">
        <ele>149.07960510254</ele>
        <time>2021-03-03T17:25:35.809Z</time>
      </trkpt>
      <trkpt lat="44.49821" lon="1.55872">
        <ele>149.33209228516</ele>
        <time>2021-03-03T17:25:45.814Z</time>
      </trkpt>
      <trkpt lat="44.49772" lon="1.55796">
        <ele>143.45573425293</ele>
        <time>2021-03-03T17:25:55.839Z</time>
      </trkpt>
      <trkpt lat="44.49726" lon="1.55736">
        <ele>154.40090942383</ele>
        <time>2021-03-03T17:26:05.881Z</time>
      </trkpt>
      <trkpt lat="44.49713" lon="1.55708">
        <ele>159.57196044922</ele>
        <time>2021-03-03T17:26:15.930Z</time>
      </trkpt>
      <trkpt lat="44.49706" lon="1.55686">
        <ele>160.36701965332</ele>
        <time>2021-03-03T17:26:25.983Z</time>
      </trkpt>
      <trkpt lat="44.49709" lon="1.55676">
        <ele>157.19779968262</ele>
        <time>2021-03-03T17:26:36.039Z</time>
      </trkpt>
      <trkpt lat="44.49708" lon="1.55658">
        <ele>155.06382751465</ele>
        <time>2021-03-03T17:26:46.098Z</time>
      </trkpt>
      <trkpt lat="44.49713" lon="1.55634">
        <ele>151.39453125</ele>
        <time>2021-03-03T17:26:56.162Z</time>
      </trkpt>
      <trkpt lat="44.49716" lon="1.55603">
        <ele>147.89025878906</ele>
        <time>2021-03-03T17:27:06.232Z</time>
      </trkpt>
      <trkpt lat="44.49708" lon="1.55577">
        <ele>148.89091491699</ele>
        <time>2021-03-03T17:27:16.308Z</time>
      </trkpt>
      <trkpt lat="44.49696" lon="1.55563">
        <ele>150.38838195801</ele>
        <time>2021-03-03T17:27:26.388Z</time>
      </trkpt>
      <trkpt lat="44.49679" lon="1.55557">
        <ele>153.20573425293</ele>
        <time>2021-03-03T17:27:36.473Z</time>
      </trkpt>
      <trkpt lat="44.49672" lon="1.55551">
        <ele>154.08779907227</ele>
        <time>2021-03-03T17:27:46.560Z</time>
      </trkpt>
      <trkpt lat="44.49633" lon="1.55511">
        <ele>155.85952758789</ele>
        <time>2021-03-03T17:27:56.661Z</time>
      </trkpt>
      <trkpt lat="44.49626" lon="1.55501">
        <ele>155.5620880127</ele>
        <time>2021-03-03T17:28:06.764Z</time>
      </trkpt>
      <trkpt lat="44.49611" lon="1.55472">
        <ele>153.74394226074</ele>
        <time>2021-03-03T17:28:16.874Z</time>
      </trkpt>
      <trkpt lat="44.496" lon="1.55442">
        <ele>150.70330810547</ele>
        <time>2021-03-03T17:28:26.991Z</time>
      </trkpt>
      <trkpt lat="44.49594" lon="1.55407">
        <ele>148.611328125</ele>
        <time>2021-03-03T17:28:37.115Z</time>
      </trkpt>
      <trkpt lat="44.49591" lon="1.55404">
        <ele>148.73229980469</ele>
        <time>2021-03-03T17:28:47.240Z</time>
      </trkpt>
      <trkpt lat="44.49584" lon="1.55404">
        <ele>148.96517944336</ele>
        <time>2021-03-03T17:28:57.367Z</time>
      </trkpt>
      <trkpt lat="44.49563" lon="1.55419">
        <ele>146.27940368652</ele>
        <time>2021-03-03T17:29:07.501Z</time>
      </trkpt>
      <trkpt lat="44.49507" lon="1.55497">
        <ele>150.89410400391</ele>
        <time>2021-03-03T17:29:17.656Z</time>
      </trkpt>
      <trkpt lat="44.49439" lon="1.55578">
        <ele>149.23930358887</ele>
        <time>2021-03-03T17:29:27.836Z</time>
      </trkpt>
      <trkpt lat="44.49429" lon="1.55601">
        <ele>150.71476745605</ele>
        <time>2021-03-03T17:29:38.021Z</time>
      </trkpt>
      <trkpt lat="44.49422" lon="1.55632">
        <ele>155.5950012207</ele>
        <time>2021-03-03T17:29:48.213Z</time>
      </trkpt>
      <trkpt lat="44.49381" lon="1.55691">
        <ele>159.24166870117</ele>
        <time>2021-03-03T17:29:58.421Z</time>
      </trkpt>
      <trkpt lat="44.49358" lon="1.55705">
        <ele>159.58787536621</ele>
        <time>2021-03-03T17:30:08.636Z</time>
      </trkpt>
      <trkpt lat="44.49313" lon="1.55721">
        <ele>153.84501647949</ele>
        <time>2021-03-03T17:30:18.864Z</time>
      </trkpt>
      <trkpt lat="44.49292" lon="1.55726">
        <ele>150.26683044434</ele>
        <time>2021-03-03T17:30:29.098Z</time>
      </trkpt>
      <trkpt lat="44.49268" lon="1.55735">
        <ele>149.85623168945</ele>
        <time>2021-03-03T17:30:39.339Z</time>
      </trkpt>
      <trkpt lat="44.49249" lon="1.5574">
        <ele>148.49897766113</ele>
        <time>2021-03-03T17:30:49.585Z</time>
      </trkpt>
      <trkpt lat="44.49221" lon="1.55752">
        <ele>145.9591217041</ele>
        <time>2021-03-03T17:30:59.839Z</time>
      </trkpt>
      <trkpt lat="44.49188" lon="1.55763">
        <ele>145.30282592773</ele>
        <time>2021-03-03T17:31:10.102Z</time>
      </trkpt>
      <trkpt lat="44.49157" lon="1.55765">
        <ele>144.91116333008</ele>
        <time>2021-03-03T17:31:20.374Z</time>
      </trkpt>
      <trkpt lat="44.49127" lon="1.55773">
        <ele>147.72172546387</ele>
        <time>2021-03-03T17:31:30.654Z</time>
      </trkpt>
      <trkpt lat="44.49112" lon="1.55775">
        <ele>148.80137634277</ele>
        <time>2021-03-03T17:31:40.938Z</time>
      </trkpt>
      <trkpt lat="44.49108" lon="1.55771">
        <ele>148.0994720459</ele>
        <time>2021-03-03T17:31:51.224Z</time>
      </trkpt>
      <trkpt lat="44.49086" lon="1.55761">
        <ele>147.95376586914</ele>
        <time>2021-03-03T17:32:01.516Z</time>
      </trkpt>
      <trkpt lat="44.49038" lon="1.55733">
        <ele>150.74684143066</ele>
        <time>2021-03-03T17:32:11.823Z</time>
      </trkpt>
      <trkpt lat="44.48957" lon="1.55657">
        <ele>155.16828918457</ele>
        <time>2021-03-03T17:32:22.156Z</time>
      </trkpt>
      <trkpt lat="44.4892" lon="1.55594">
        <ele>149.34362792969</ele>
        <time>2021-03-03T17:32:32.506Z</time>
      </trkpt>
      <trkpt lat="44.48894" lon="1.55555">
        <ele>149.43852233887</ele>
        <time>2021-03-03T17:32:42.866Z</time>
      </trkpt>
      <trkpt lat="44.48878" lon="1.55528">
        <ele>148.27635192871</ele>
        <time>2021-03-03T17:32:53.233Z</time>
      </trkpt>
      <trkpt lat="44.48867" lon="1.55506">
        <ele>146.74447631836</ele>
        <time>2021-03-03T17:33:03.605Z</time>
      </trkpt>
      <trkpt lat="44.48847" lon="1.55459">
        <ele>140.87692260742</ele>
        <time>2021-03-03T17:33:13.988Z</time>
      </trkpt>
      <trkpt lat="44.4883" lon="1.55428">
        <ele>139.75398254395</ele>
        <time>2021-03-03T17:33:24.379Z</time>
      </trkpt>
      <trkpt lat="44.48825" lon="1.55408">
        <ele>137.44921875</ele>
        <time>2021-03-03T17:33:34.774Z</time>
      </trkpt>
      <trkpt lat="44.48821" lon="1.55402">
        <ele>137.13429260254</ele>
        <time>2021-03-03T17:33:45.171Z</time>
      </trkpt>
      <trkpt lat="44.48802" lon="1.55386">
        <ele>136.87704467773</ele>
        <time>2021-03-03T17:33:55.574Z</time>
      </trkpt>
      <trkpt lat="44.48782" lon="1.55374">
        <ele>137.46827697754</ele>
        <time>2021-03-03T17:34:05.983Z</time>
      </trkpt>
      <trkpt lat="44.48746" lon="1.55357">
        <ele>136.34622192383</ele>
        <time>2021-03-03T17:34:16.402Z</time>
      </trkpt>
      <trkpt lat="44.48706" lon="1.55349">
        <ele>134.43771362305</ele>
        <time>2021-03-03T17:34:26.832Z</time>
      </trkpt>
      <trkpt lat="44.48679" lon="1.55327">
        <ele>132.46408081055</ele>
        <time>2021-03-03T17:34:37.271Z</time>
      </trkpt>
      <trkpt lat="44.48626" lon="1.55296">
        <ele>129.47993469238</ele>
        <time>2021-03-03T17:34:47.726Z</time>
      </trkpt>
      <trkpt lat="44.48619" lon="1.55293">
        <ele>129.07751464844</ele>
        <time>2021-03-03T17:34:58.183Z</time>
      </trkpt>
      <trkpt lat="44.48598" lon="1.5529">
        <ele>129.06518554688</ele>
        <time>2021-03-03T17:35:08.646Z</time>
      </trkpt>
      <trkpt lat="44.48579" lon="1.5528">
        <ele>129.84591674805</ele>
        <time>2021-03-03T17:35:19.114Z</time>
      </trkpt>
      <trkpt lat="44.48569" lon="1.55271">
        <ele>130.08447265625</ele>
        <time>2021-03-03T17:35:29.586Z</time>
      </trkpt>
      <trkpt lat="44.48566" lon="1.55266">
        <ele>130.38130187988</ele>
        <time>2021-03-03T17:35:40.059Z</time>
      </trkpt>
      <trkpt lat="44.48567" lon="1.55248">
        <ele>131.75491333008</ele>
        <time>2021-03-03T17:35:50.535Z</time>
      </trkpt>
      <trkpt lat="44.48573" lon="1.5523">
        <ele>134.77558898926</ele>
        <time>2021-03-03T17:36:01.015Z</time>
      </trkpt>
      <trkpt lat="44.48568" lon="1.5522">
        <ele>136.0943145752</ele>
        <time>2021-03-03T17:36:11.498Z</time>
      </trkpt>
      <trkpt lat="44.48557" lon="1.55212">
        <ele>136.59478759766</ele>
        <time>2021-03-03T17:36:21.984Z</time>
      </trkpt>
      <trkpt lat="44.48526" lon="1.55175">
        <ele>141.98246765137</ele>
        <time>2021-03-03T17:36:32.481Z</time>
      </trkpt>
      <trkpt lat="44.48501" lon="1.55159">
        <ele>141.56886291504</ele>
        <time>2021-03-03T17:36:42.986Z</time>
      </trkpt>
      <trkpt lat="44.48476" lon="1.55147">
        <ele>140.74913024902</ele>
        <time>2021-03-03T17:36:53.498Z</time>
      </trkpt>
      <trkpt lat="44.48477" lon="1.5514">
        <ele>143.52035522461</ele>
        <time>2021-03-03T17:37:04.012Z</time>
      </trkpt>
      <trkpt lat="44.48484" lon="1.55136">
        <ele>146.85224914551</ele>
        <time>2021-03-03T17:37:14.528Z</time>
      </trkpt>
      <trkpt lat="44.48496" lon="1.55138">
        <ele>148.28967285156</ele>
        <time>2021-03-03T17:37:25.047Z</time>
      </trkpt>
      <trkpt lat="44.48501" lon="1.55136">
        <ele>149.98550415039</ele>
        <time>2021-03-03T17:37:35.567Z</time>
      </trkpt>
      <trkpt lat="44.48526" lon="1.55137">
        <ele>154.2314453125</ele>
        <time>2021-03-03T17:37:46.094Z</time>
      </trkpt>
      <trkpt lat="44.48534" lon="1.55134">
        <ele>156.70964050293</ele>
        <time>2021-03-03T17:37:56.624Z</time>
      </trkpt>
      <trkpt lat="44.4854" lon="1.55137">
        <ele>157.04600524902</ele>
        <time>2021-03-03T17:38:07.155Z</time>
      </trkpt>
      <trkpt lat="44.48558" lon="1.55138">
        <ele>160.84173583984</ele>
        <time>2021-03-03T17:38:17.691Z</time>
      </trkpt>
      <trkpt lat="44.48582" lon="1.55149">
        <ele>164.66937255859</ele>
        <time>2021-03-03T17:38:28.234Z</time>
      </trkpt>
      <trkpt lat="44.48586" lon="1.55147">
        <ele>167.16668701172</ele>
        <time>2021-03-03T17:38:38.778Z</time>
      </trkpt>
      <trkpt lat="44.48586" lon="1.55143">
        <ele>169.09199523926</ele>
        <time>2021-03-03T17:38:49.323Z</time>
      </trkpt>
      <trkpt lat="44.48582" lon="1.55141">
        <ele>168.5753326416</ele>
        <time>2021-03-03T17:38:59.869Z</time>
      </trkpt>
      <trkpt lat="44.48581" lon="1.55134">
        <ele>170.52220153809</ele>
        <time>2021-03-03T17:39:10.417Z</time>
      </trkpt>
      <trkpt lat="44.48574" lon="1.55124">
        <ele>171.71499633789</ele>
        <time>2021-03-03T17:39:20.968Z</time>
      </trkpt>
      <trkpt lat="44.48572" lon="1.55119">
        <ele>172.96508789062</ele>
        <time>2021-03-03T17:39:31.520Z</time>
      </trkpt>
      <trkpt lat="44.48562" lon="1.55108">
        <ele>173.6436920166</ele>
        <time>2021-03-03T17:39:42.075Z</time>
      </trkpt>
      <trkpt lat="44.48556" lon="1.55098">
        <ele>175.98068237305</ele>
        <time>2021-03-03T17:39:52.633Z</time>
      </trkpt>
      <trkpt lat="44.48551" lon="1.55093">
        <ele>176.79594421387</ele>
        <time>2021-03-03T17:40:03.193Z</time>
      </trkpt>
      <trkpt lat="44.48547" lon="1.55086">
        <ele>179.14953613281</ele>
        <time>2021-03-03T17:40:13.754Z</time>
      </trkpt>
      <trkpt lat="44.48541" lon="1.5508">
        <ele>180.78588867188</ele>
        <time>2021-03-03T17:40:24.317Z</time>
      </trkpt>
      <trkpt lat="44.48537" lon="1.55074">
        <ele>183.07734680176</ele>
        <time>2021-03-03T17:40:34.882Z</time>
      </trkpt>
      <trkpt lat="44.4853" lon="1.55069">
        <ele>184.66590881348</ele>
        <time>2021-03-03T17:40:45.449Z</time>
      </trkpt>
      <trkpt lat="44.48531" lon="1.55066">
        <ele>186.37031555176</ele>
        <time>2021-03-03T17:40:56.017Z</time>
      </trkpt>
      <trkpt lat="44.48538" lon="1.55066">
        <ele>187.35194396973</ele>
        <time>2021-03-03T17:41:06.587Z</time>
      </trkpt>
      <trkpt lat="44.48554" lon="1.5507">
        <ele>186.69342041016</ele>
        <time>2021-03-03T17:41:17.161Z</time>
      </trkpt>
      <trkpt lat="44.48555" lon="1.55069">
        <ele>187.36311340332</ele>
        <time>2021-03-03T17:41:27.736Z</time>
      </trkpt>
      <trkpt lat="44.48555" lon="1.55065">
        <ele>188.70491027832</ele>
        <time>2021-03-03T17:41:38.311Z</time>
      </trkpt>
      <trkpt lat="44.48536" lon="1.55054">
        <ele>191.66488647461</ele>
        <time>2021-03-03T17:41:48.892Z</time>
      </trkpt>
      <trkpt lat="44.48523" lon="1.5505">
        <ele>192.59094238281</ele>
        <time>2021-03-03T17:41:59.477Z</time>
      </trkpt>
      <trkpt lat="44.48509" lon="1.55042">
        <ele>195.11283874512</ele>
        <time>2021-03-03T17:42:10.066Z</time>
      </trkpt>
      <trkpt lat="44.48488" lon="1.55038">
        <ele>194.5795135498</ele>
        <time>2021-03-03T17:42:20.661Z</time>
      </trkpt>
      <trkpt lat="44.48479" lon="1.55038">
        <ele>193.27026367188</ele>
        <time>2021-03-03T17:42:31.258Z</time>
      </trkpt>
      <trkpt lat="44.48475" lon="1.55036">
        <ele>193.40692138672</ele>
        <time>2021-03-03T17:42:41.856Z</time>
      </trkpt>
      <trkpt lat="44.48468" lon="1.5503">
        <ele>195.56083679199</ele>
        <time>2021-03-03T17:42:52.456Z</time>
      </trkpt>
      <trkpt lat="44.48454" lon="1.55024">
        <ele>196.65116882324</ele>
        <time>2021-03-03T17:43:03.061Z</time>
      </trkpt>
      <trkpt lat="44.48451" lon="1.55012">
        <ele>199.4841003418</ele>
        <time>2021-03-03T17:43:13.668Z</time>
      </trkpt>
      <trkpt lat="44.48456" lon="1.54987">
        <ele>203.97407531738</ele>
        <time>2021-03-03T17:43:24.280Z</time>
      </trkpt>
      <trkpt lat="44.48456" lon="1.54957">
        <ele>207.06036376953</ele>
        <time>2021-03-03T17:43:34.898Z</time>
      </trkpt>
      <trkpt lat="44.4846" lon="1.54932">
        <ele>208.26519775391</ele>
        <time>2021-03-03T17:43:45.521Z</time>
      </trkpt>
      <trkpt lat="44.48471" lon="1.54902">
        <ele>210.35163879395</ele>
        <time>2021-03-03T17:43:56.151Z</time>
      </trkpt>
      <trkpt lat="44.48481" lon="1.54866">
        <ele>211.12568664551</ele>
        <time>2021-03-03T17:44:06.789Z</time>
      </trkpt>
      <trkpt lat="44.48499" lon="1.5482">
        <ele>211.87339782715</ele>
        <time>2021-03-03T17:44:17.437Z</time>
      </trkpt>
      <trkpt lat="44.48517" lon="1.54794">
        <ele>213.04853820801</ele>
        <time>2021-03-03T17:44:28.092Z</time>
      </trkpt>
      <trkpt lat="44.48546" lon="1.54755">
        <ele>214.82414245605</ele>
        <time>2021-03-03T17:44:38.758Z</time>
      </trkpt>
      <trkpt lat="44.48573" lon="1.54712">
        <ele>215.75611877441</ele>
        <time>2021-03-03T17:44:49.435Z</time>
      </trkpt>
      <trkpt lat="44.48578" lon="1.54709">
        <ele>216.18870544434</ele>
        <time>2021-03-03T17:45:00.114Z</time>
      </trkpt>
      <trkpt lat="44.48588" lon="1.54697">
        <ele>216.43089294434</ele>
        <time>2021-03-03T17:45:10.797Z</time>
      </trkpt>
      <trkpt lat="44.48607" lon="1.54661">
        <ele>215.18281555176</ele>
        <time>2021-03-03T17:45:21.488Z</time>
      </trkpt>
      <trkpt lat="44.48604" lon="1.54637">
        <ele>213.5295715332</ele>
        <time>2021-03-03T17:45:32.184Z</time>
      </trkpt>
      <trkpt lat="44.48597" lon="1.54617">
        <ele>213.35432434082</ele>
        <time>2021-03-03T17:45:42.885Z</time>
      </trkpt>
      <trkpt lat="44.48585" lon="1.54601">
        <ele>213.50869750977</ele>
        <time>2021-03-03T17:45:53.590Z</time>
      </trkpt>
      <trkpt lat="44.48577" lon="1.54592">
        <ele>214.42066955566</ele>
        <time>2021-03-03T17:46:04.298Z</time>
      </trkpt>
      <trkpt lat="44.48574" lon="1.54583">
        <ele>215.55729675293</ele>
        <time>2021-03-03T17:46:15.008Z</time>
      </trkpt>
      <trkpt lat="44.48574" lon="1.54572">
        <ele>217.41912841797</ele>
        <time>2021-03-03T17:46:25.720Z</time>
      </trkpt>
      <trkpt lat="44.48587" lon="1.54513">
        <ele>224.98489379883</ele>
        <time>2021-03-03T17:46:36.444Z</time>
      </trkpt>
      <trkpt lat="44.48594" lon="1.54494">
        <ele>226.13545227051</ele>
        <time>2021-03-03T17:46:47.173Z</time>
      </trkpt>
      <trkpt lat="44.48602" lon="1.54477">
        <ele>226.49249267578</ele>
        <time>2021-03-03T17:46:57.906Z</time>
      </trkpt>
      <trkpt lat="44.48609" lon="1.54452">
        <ele>228.51487731934</ele>
        <time>2021-03-03T17:47:08.644Z</time>
      </trkpt>
      <trkpt lat="44.4861" lon="1.54418">
        <ele>233.18420410156</ele>
        <time>2021-03-03T17:47:19.389Z</time>
      </trkpt>
      <trkpt lat="44.48603" lon="1.54398">
        <ele>237.37915039062</ele>
        <time>2021-03-03T17:47:30.138Z</time>
      </trkpt>
      <trkpt lat="44.48598" lon="1.54369">
        <ele>242.72503662109</ele>
        <time>2021-03-03T17:47:40.893Z</time>
      </trkpt>
      <trkpt lat="44.48592" lon="1.54359">
        <ele>245.0348815918</ele>
        <time>2021-03-03T17:47:51.650Z</time>
      </trkpt>
      <trkpt lat="44.48592" lon="1.54332">
        <ele>249.54644775391</ele>
        <time>2021-03-03T17:48:02.413Z</time>
      </trkpt>
      <trkpt lat="44.48584" lon="1.54302">
        <ele>252.28895568848</ele>
        <time>2021-03-03T17:48:13.182Z</time>
      </trkpt>
      <trkpt lat="44.48582" lon="1.54301">
        <ele>252.42500305176</ele>
        <time>2021-03-03T17:48:23.951Z</time>
      </trkpt>
      <trkpt lat="44.48582" lon="1.54294">
        <ele>252.98971557617</ele>
        <time>2021-03-03T17:48:34.722Z</time>
      </trkpt>
      <trkpt lat="44.48577" lon="1.5427">
        <ele>255.68267822266</ele>
        <time>2021-03-03T17:48:45.498Z</time>
      </trkpt>
      <trkpt lat="44.48561" lon="1.54211">
        <ele>268.56448364258</ele>
        <time>2021-03-03T17:48:56.286Z</time>
      </trkpt>
      <trkpt lat="44.48564" lon="1.54204">
        <ele>269.63989257812</ele>
        <time>2021-03-03T17:49:07.076Z</time>
      </trkpt>
      <trkpt lat="44.4857" lon="1.54199">
        <ele>270.091796875</ele>
        <time>2021-03-03T17:49:17.868Z</time>
      </trkpt>
      <trkpt lat="44.48575" lon="1.54194">
        <ele>270.68933105469</ele>
        <time>2021-03-03T17:49:28.661Z</time>
      </trkpt>
      <trkpt lat="44.48579" lon="1.54187">
        <ele>270.74877929688</ele>
        <time>2021-03-03T17:49:39.456Z</time>
      </trkpt>
      <trkpt lat="44.48603" lon="1.54158">
        <ele>267.78900146484</ele>
        <time>2021-03-03T17:49:50.260Z</time>
      </trkpt>
      <trkpt lat="44.48642" lon="1.54054">
        <ele>269.53140258789</ele>
        <time>2021-03-03T17:50:01.087Z</time>
      </trkpt>
      <trkpt lat="44.48646" lon="1.54034">
        <ele>269.13049316406</ele>
        <time>2021-03-03T17:50:11.918Z</time>
      </trkpt>
      <trkpt lat="44.4864" lon="1.54027">
        <ele>269.90808105469</ele>
        <time>2021-03-03T17:50:22.752Z</time>
      </trkpt>
      <trkpt lat="44.48592" lon="1.54034">
        <ele>271.66690063477</ele>
        <time>2021-03-03T17:50:33.599Z</time>
      </trkpt>
      <trkpt lat="44.4855" lon="1.54035">
        <ele>277.05197143555</ele>
        <time>2021-03-03T17:50:44.457Z</time>
      </trkpt>
      <trkpt lat="44.48519" lon="1.54032">
        <ele>279.41711425781</ele>
        <time>2021-03-03T17:50:55.324Z</time>
      </trkpt>
      <trkpt lat="44.48491" lon="1.54023">
        <ele>279.97479248047</ele>
        <time>2021-03-03T17:51:06.199Z</time>
      </trkpt>
      <trkpt lat="44.48417" lon="1.54011">
        <ele>282.36767578125</ele>
        <time>2021-03-03T17:51:17.095Z</time>
      </trkpt>
      <trkpt lat="44.48335" lon="1.54014">
        <ele>279.52835083008</ele>
        <time>2021-03-03T17:51:28.013Z</time>
      </trkpt>
      <trkpt lat="44.48221" lon="1.54022">
        <ele>271.74444580078</ele>
        <time>2021-03-03T17:51:38.962Z</time>
      </trkpt>
      <trkpt lat="44.48185" lon="1.54021">
        <ele>271.38586425781</ele>
        <time>2021-03-03T17:51:49.922Z</time>
      </trkpt>
      <trkpt lat="44.48135" lon="1.54012">
        <ele>268.27905273438</ele>
        <time>2021-03-03T17:52:00.895Z</time>
      </trkpt>
      <trkpt lat="44.48112" lon="1.54004">
        <ele>267.17193603516</ele>
        <time>2021-03-03T17:52:11.875Z</time>
      </trkpt>
      <trkpt lat="44.481" lon="1.53998">
        <ele>267</ele>
        <time>2021-03-03T17:52:22.858Z</time>
      </trkpt>
      <trkpt lat="44.48081" lon="1.53991">
        <ele>266.94906616211</ele>
        <time>2021-03-03T17:52:33.847Z</time>
      </trkpt>
      <trkpt lat="44.48044" lon="1.53982">
        <ele>265.61087036133</ele>
        <time>2021-03-03T17:52:44.846Z</time>
      </trkpt>
      <trkpt lat="44.4799" lon="1.53972">
        <ele>265.04956054688</ele>
        <time>2021-03-03T17:52:55.860Z</time>
      </trkpt>
      <trkpt lat="44.47962" lon="1.53971">
        <ele>264.72674560547</ele>
        <time>2021-03-03T17:53:06.882Z</time>
      </trkpt>
      <trkpt lat="44.47923" lon="1.53966">
        <ele>263.72811889648</ele>
        <time>2021-03-03T17:53:17.915Z</time>
      </trkpt>
      <trkpt lat="44.47908" lon="1.53967">
        <ele>263.48822021484</ele>
        <time>2021-03-03T17:53:28.952Z</time>
      </trkpt>
      <trkpt lat="44.47878" lon="1.53976">
        <ele>262.52548217773</ele>
        <time>2021-03-03T17:53:39.997Z</time>
      </trkpt>
      <trkpt lat="44.4783" lon="1.54002">
        <ele>259.96145629883</ele>
        <time>2021-03-03T17:53:51.057Z</time>
      </trkpt>
      <trkpt lat="44.47815" lon="1.54009">
        <ele>259.73278808594</ele>
        <time>2021-03-03T17:54:02.121Z</time>
      </trkpt>
      <trkpt lat="44.47793" lon="1.54015">
        <ele>258.58364868164</ele>
        <time>2021-03-03T17:54:13.191Z</time>
      </trkpt>
      <trkpt lat="44.47774" lon="1.54017">
        <ele>257.14025878906</ele>
        <time>2021-03-03T17:54:24.266Z</time>
      </trkpt>
      <trkpt lat="44.47769" lon="1.54017">
        <ele>257.00451660156</ele>
        <time>2021-03-03T17:54:35.343Z</time>
      </trkpt>
      <trkpt lat="44.4774" lon="1.54009">
        <ele>256.48968505859</ele>
        <time>2021-03-03T17:54:46.428Z</time>
      </trkpt>
      <trkpt lat="44.47715" lon="1.54004">
        <ele>254.76670837402</ele>
        <time>2021-03-03T17:54:57.520Z</time>
      </trkpt>
      <trkpt lat="44.47704" lon="1.54007">
        <ele>252.99171447754</ele>
        <time>2021-03-03T17:55:08.615Z</time>
      </trkpt>
      <trkpt lat="44.47692" lon="1.54012">
        <ele>251.62782287598</ele>
        <time>2021-03-03T17:55:19.714Z</time>
      </trkpt>
      <trkpt lat="44.47681" lon="1.5402">
        <ele>249.60214233398</ele>
        <time>2021-03-03T17:55:30.816Z</time>
      </trkpt>
      <trkpt lat="44.47667" lon="1.54036">
        <ele>247.14044189453</ele>
        <time>2021-03-03T17:55:41.923Z</time>
      </trkpt>
      <trkpt lat="44.47658" lon="1.54054">
        <ele>246.20365905762</ele>
        <time>2021-03-03T17:55:53.034Z</time>
      </trkpt>
      <trkpt lat="44.47654" lon="1.54069">
        <ele>246.11201477051</ele>
        <time>2021-03-03T17:56:04.148Z</time>
      </trkpt>
      <trkpt lat="44.47652" lon="1.54084">
        <ele>246.49415588379</ele>
        <time>2021-03-03T17:56:15.266Z</time>
      </trkpt>
      <trkpt lat="44.47652" lon="1.54107">
        <ele>246.50955200195</ele>
        <time>2021-03-03T17:56:26.388Z</time>
      </trkpt>
      <trkpt lat="44.47657" lon="1.54143">
        <ele>244.89047241211</ele>
        <time>2021-03-03T17:56:37.517Z</time>
      </trkpt>
      <trkpt lat="44.47663" lon="1.54166">
        <ele>244.07144165039</ele>
        <time>2021-03-03T17:56:48.651Z</time>
      </trkpt>
      <trkpt lat="44.47674" lon="1.54194">
        <ele>242.79655456543</ele>
        <time>2021-03-03T17:56:59.791Z</time>
      </trkpt>
      <trkpt lat="44.47728" lon="1.54312">
        <ele>231.56300354004</ele>
        <time>2021-03-03T17:57:10.959Z</time>
      </trkpt>
      <trkpt lat="44.47782" lon="1.54379">
        <ele>226.06651306152</ele>
        <time>2021-03-03T17:57:22.147Z</time>
      </trkpt>
      <trkpt lat="44.47811" lon="1.54419">
        <ele>221.77398681641</ele>
        <time>2021-03-03T17:57:33.346Z</time>
      </trkpt>
      <trkpt lat="44.47815" lon="1.54424">
        <ele>221.42308044434</ele>
        <time>2021-03-03T17:57:44.547Z</time>
      </trkpt>
    </trkseg>
  </trk>
</gpx>